Provisional Data: Little Chiques Creek near Mount Joy, PA


Please select a monitoring station.
Please select start date.
Please select start date.

Toggle Unit: C/F Toggle Unit: C/F
Sample Time Temperature (C) Temperature (F) Specific Conductivity (mS/cm) pH   Turbidity (NTU+) DO (mg/L)
9/5/2022 12:00:00 AM 20.55 68.99 0.499 7.82 6.21 6.78
9/5/2022 12:15:00 AM 20.49 68.882 0.499 7.82 6.48 6.78
9/5/2022 12:30:00 AM 20.43 68.774 0.499 7.82 6.16 6.76
9/5/2022 12:45:00 AM 20.36 68.648 0.499 7.82 6.62 6.74
9/5/2022 1:00:00 AM 20.31 68.558 0.499 7.81 10.47 6.72
9/5/2022 1:15:00 AM 20.25 68.45 0.5 7.81 7.97 6.72
9/5/2022 1:30:00 AM 20.19 68.342 0.499 7.8 8.72 6.72
9/5/2022 1:45:00 AM 20.14 68.252 0.499 7.8 8.25 6.7
9/5/2022 2:00:00 AM 20.09 68.162 0.5 7.75 10.55 6.66
9/5/2022 2:15:00 AM 20.04 68.07201 0.499 7.8 6.89 6.65
9/5/2022 2:30:00 AM 20.01 68.018 0.499 7.8 6.44 6.69
9/5/2022 2:45:00 AM 19.97 67.946 0.5 7.75 7.39 6.69
9/5/2022 3:00:00 AM 19.94 67.892 0.5 7.77 7.23 6.67
9/5/2022 3:15:00 AM 19.9 67.82 0.5 7.77 7.09 6.69
9/5/2022 3:30:00 AM 19.86 67.748 0.5 7.78 7.09 6.69
9/5/2022 3:45:00 AM 19.83 67.694 0.499 7.79 7.34 6.68
9/5/2022 4:00:00 AM 19.8 67.64 0.5 7.76 8.28 6.68
9/5/2022 4:15:00 AM 19.77 67.586 0.5 7.77 6.85 6.69
9/5/2022 4:30:00 AM 19.74 67.532 0.5 7.77 6.86 6.69
9/5/2022 4:45:00 AM 19.7 67.46 0.5 7.7 6.56 6.7
9/5/2022 5:00:00 AM 19.67 67.406 0.5 7.79 7.44 6.7
9/5/2022 5:15:00 AM 19.65 67.37 0.5 7.72 6.64 6.7
9/5/2022 5:30:00 AM 19.62 67.316 0.5 7.79 7.12 6.7
9/5/2022 5:45:00 AM 19.6 67.28 0.5 7.75 6.66 6.72
9/5/2022 6:00:00 AM 19.58 67.244 0.5 7.76 7.9 6.7
9/5/2022 6:15:00 AM 19.55 67.19 0.5 7.79 7.11 6.71
9/5/2022 6:30:00 AM 19.53 67.154 0.499 7.79 6.54 6.72
9/5/2022 6:45:00 AM 19.51 67.118 0.5 7.68 7.34 6.71
9/5/2022 7:00:00 AM 19.49 67.082 0.5 7.79 6.31 6.73
9/5/2022 7:15:00 AM 19.49 67.082 0.5 7.78 7.56 6.73
9/5/2022 7:30:00 AM 19.47 67.046 0.501 7.8 6.43 6.76
9/5/2022 7:45:00 AM 19.47 67.046 0.501 7.79 7.31 6.77
9/5/2022 8:00:00 AM 19.46 67.028 0.5 7.79 5.94 6.79
9/5/2022 8:15:00 AM 19.48 67.064 0.501 7.8 5.91 6.86
9/5/2022 8:30:00 AM 19.49 67.082 0.501 7.79 6.44 6.88
9/5/2022 8:45:00 AM 19.49 67.082 0.501 7.79 5.91 6.9
9/5/2022 9:00:00 AM 19.49 67.082 0.501 7.71 5.51 6.94
9/5/2022 9:15:00 AM 19.49 67.082 0.501 7.79 6.17 6.95
9/5/2022 9:30:00 AM 19.49 67.082 0.501 7.8 6.06 6.95
9/5/2022 9:45:00 AM 19.5 67.1 0.501 7.8 6.15 6.99
9/5/2022 10:00:00 AM 19.52 67.136 0.501 7.79 6.71 7.06
9/5/2022 10:15:00 AM 19.58 67.244 0.501 7.8 5.95 7.2
9/5/2022 10:30:00 AM 19.67 67.406 0.5 7.8 6.14 7.46
9/5/2022 10:45:00 AM 19.76 67.568 0.5 7.83 5.77 7.57
9/5/2022 11:00:00 AM 19.86 67.748 0.5 7.86 5.89 7.67
9/5/2022 11:15:00 AM 19.94 67.892 0.5 7.87 5.76 7.97
9/5/2022 11:30:00 AM 20.03 68.054 0.5 7.88 5.6 8.12
9/5/2022 11:45:00 AM 20.07 68.126 0.5 7.89 10.59 8.12
9/5/2022 12:00:00 PM 20.12 68.216 0.5 7.9 6.31 8.29
9/5/2022 12:15:00 PM 20.19 68.342 0.499 7.84 5.9 8.44
9/5/2022 12:30:00 PM 20.27 68.486 0.498 7.88 7.29 8.59
9/5/2022 12:45:00 PM 20.36 68.648 0.498 7.91 12.61 8.7
9/5/2022 1:00:00 PM 20.48 68.864 0.497 7.98 7.11 8.93
9/5/2022 1:15:00 PM 20.58 69.044 0.496 7.99 13.73 9.09
9/5/2022 1:30:00 PM 20.66 69.188 0.495 7.98 593 9.31
9/5/2022 1:45:00 PM 20.7 69.26 0.496 8.01 10.59 9.37
9/5/2022 2:00:00 PM 20.69 69.242 0.495 8.01 8.27 9.31
9/5/2022 2:15:00 PM 20.69 69.242 0.495 8.02 6.87 9.28
9/5/2022 2:30:00 PM 20.76 69.368 0.494 8.03 6.81 9.4
9/5/2022 2:45:00 PM 20.83 69.494 0.494 8.03 6.52 9.53
9/5/2022 3:00:00 PM 20.88 69.584 0.493 8.04 6.88 9.56
9/5/2022 3:15:00 PM 20.94 69.692 0.493 8.05 6.71 9.63
9/5/2022 3:30:00 PM 20.99 69.782 0.493 8.04 6.67 9.64
9/5/2022 3:45:00 PM 20.95 69.71 0.493 8.06 6.38 9.51
9/5/2022 4:00:00 PM 20.9 69.62 0.473 8.05 13.23 9.2
9/5/2022 4:15:00 PM 20.86 69.548 0.471 8.04 14.08 9.02
9/5/2022 4:30:00 PM 20.86 69.548 0.476 8.03 11.47 9.05
9/5/2022 4:45:00 PM 20.86 69.548 0.478 8.01 10.38 9.06
9/5/2022 5:00:00 PM 20.82 69.476 0.476 8 10.03 8.89
9/5/2022 5:15:00 PM 20.79 69.422 0.459 7.94 14.23 8.71
9/5/2022 5:30:00 PM 20.77 69.386 0.459 8 13.59 8.55
9/5/2022 5:45:00 PM 20.73 69.314 0.461 7.97 11.83 8.41
9/5/2022 6:00:00 PM 20.67 69.206 0.461 7.95 11.56 8.23
9/5/2022 6:15:00 PM 20.62 69.116 0.46 7.94 10.15 8.1
9/5/2022 6:30:00 PM 20.57 69.026 0.459 7.83 10.32 7.96
9/5/2022 6:45:00 PM 20.52 68.936 0.459 7.91 9.8 7.82
9/5/2022 7:00:00 PM 20.46 68.828 0.46 7.9 9.42 7.69
9/5/2022 7:15:00 PM 20.41 68.738 0.461 7.87 9.3 7.57
9/5/2022 7:30:00 PM 20.36 68.648 0.461 7.87 9.22 7.44
9/5/2022 7:45:00 PM 20.31 68.558 0.463 7.86 8.83 7.34
9/5/2022 8:00:00 PM 20.28 68.504 0.464 7.85 8.83 7.23
9/5/2022 8:15:00 PM 20.25 68.45 0.464 7.82 10.01 7.15
9/5/2022 8:30:00 PM 20.24 68.432 0.46 7.82 11.73 7.09
9/5/2022 8:45:00 PM 20.21 68.378 0.46 7.8 11.9 6.97
9/5/2022 9:00:00 PM 20.19 68.342 0.461 7.79 11.29 6.89
9/5/2022 9:15:00 PM 20.2 68.36 0.451 7.79 11.76 6.96
9/5/2022 9:30:00 PM 20.17 68.306 0.451 7.79 11.88 6.89
9/5/2022 9:45:00 PM 20.14 68.252 0.452 7.79 10.91 6.8
9/5/2022 10:00:00 PM 20.11 68.198 0.453 7.76 12.48 6.73
9/5/2022 10:15:00 PM 20.09 68.162 0.453 7.76 10.67 6.69
9/5/2022 10:30:00 PM 20.07 68.126 0.452 7.77 11.57 6.69
9/5/2022 10:45:00 PM 20.05 68.09 0.453 7.73 11.62 6.62
9/5/2022 11:00:00 PM 20.04 68.07201 0.452 7.76 11.25 6.61
9/5/2022 11:15:00 PM 20.03 68.054 0.452 7.74 13.03 6.53
9/5/2022 11:30:00 PM 20.02 68.036 0.453 7.74 11.38 6.53
9/5/2022 11:45:00 PM 20.01 68.018 0.453 7.72 12.66 6.49
9/6/2022 12:00:00 AM 20.01 68.018 0.452 7.73 12.17 6.46
9/6/2022 12:15:00 AM 20.01 68.018 0.452 7.74 11.56 6.4
9/6/2022 12:30:00 AM 20.02 68.036 0.451 7.71 12.03 6.37
9/6/2022 12:45:00 AM 20.02 68.036 0.45 7.73 12.19 6.36
9/6/2022 1:00:00 AM 20.02 68.036 0.449 7.72 12.73 6.33
9/6/2022 1:15:00 AM 20.02 68.036 0.448 7.71 13.43 6.3
9/6/2022 1:30:00 AM 20.02 68.036 0.448 7.71 12.84 6.32
9/6/2022 1:45:00 AM 20.03 68.054 0.447 7.71 13.23 6.31
9/6/2022 2:00:00 AM 20.03 68.054 0.447 7.71 21.05 6.15
9/6/2022 2:15:00 AM 20.05 68.09 0.444 7.7 12.85 6.32
9/6/2022 2:30:00 AM 20.08 68.144 0.442 7.71 13.12 6.3
9/6/2022 2:45:00 AM 20.1 68.18 0.44 7.61 13.94 6.3
9/6/2022 3:00:00 AM 20.13 68.234 0.435 7.7 14.88 6.34
9/6/2022 3:15:00 AM 20.16 68.288 0.429 7.72 15.51 6.45
9/6/2022 3:30:00 AM 20.18 68.324 0.427 7.72 17.55 6.43
9/6/2022 3:45:00 AM 20.2 68.36 0.424 7.73 17.25 6.45
9/6/2022 4:00:00 AM 20.23 68.414 0.421 7.7 17.91 6.46
9/6/2022 4:15:00 AM 20.25 68.45 0.418 7.73 17.49 6.51
9/6/2022 4:30:00 AM 20.27 68.486 0.415 7.7 24.53 6.56
9/6/2022 4:45:00 AM 20.28 68.504 0.412 7.74 22.73 6.6
9/6/2022 5:00:00 AM 20.3 68.54 0.41 7.74 23.3 6.67
9/6/2022 5:15:00 AM 20.31 68.558 0.406 7.75 21.01 6.73
9/6/2022 5:30:00 AM 20.31 68.558 0.404 7.77 23.33 6.77
9/6/2022 5:45:00 AM 20.31 68.558 0.402 7.78 22.2 6.81
9/6/2022 6:00:00 AM 20.31 68.558 0.395 7.79 31.33 6.96
9/6/2022 6:15:00 AM 20.31 68.558 0.395 7.8 27.14 6.96
9/6/2022 6:30:00 AM 20.3 68.54 0.395 7.75 23.22 6.95
9/6/2022 6:45:00 AM 20.3 68.54 0.393 7.8 29.76 7
9/6/2022 7:00:00 AM 20.29 68.522 0.392 7.79 30.66 6.99
9/6/2022 7:15:00 AM 20.29 68.522 0.391 7.78 36.69 6.98
9/6/2022 7:30:00 AM 20.29 68.522 0.39 7.77 31.12 6.9
9/6/2022 7:45:00 AM 20.28 68.504 0.394 7.74 28.29 6.91
9/6/2022 8:00:00 AM 20.28 68.504 0.391 7.77 30.28 6.88
9/6/2022 8:15:00 AM 20.29 68.522 0.392 7.74 26.33 6.83
9/6/2022 8:30:00 AM 20.3 68.54 0.392 7.75 29.35 6.83
9/6/2022 8:45:00 AM 20.31 68.558 0.391 7.74 41.31 6.88
9/6/2022 9:00:00 AM 20.34 68.612 0.39 7.74 41.73 6.87
9/6/2022 9:15:00 AM 20.38 68.684 0.385 7.73 48.22 6.92
9/6/2022 9:30:00 AM 20.44 68.792 0.38 7.73 45.1 7.01
9/6/2022 9:45:00 AM 20.51 68.918 0.375 7.73 49.41 7
9/6/2022 10:00:00 AM 20.59 69.062 0.37 7.74 86.9 7.06
9/6/2022 10:15:00 AM 20.67 69.206 0.366 7.74 40.96 7.06
9/6/2022 10:30:00 AM 20.71 69.278 0.365 7.75 53.07 7.08
9/6/2022 10:45:00 AM 20.75 69.35 0.367 7.75 66.55 7.13
9/6/2022 11:00:00 AM 20.78 69.404 0.369 7.75 116.67 7.16
9/6/2022 11:15:00 AM 20.82 69.476 0.369 7.75 318.82 7.09
9/6/2022 11:30:00 AM 20.87 69.566 0.37 7.73 228.51 7.22
9/6/2022 11:45:00 AM 20.92 69.656 0.371 7.76 102 7.23
9/6/2022 12:00:00 PM 20.97 69.746 0.369 7.75 135.44 7.27
9/6/2022 12:15:00 PM 21.03 69.854 0.368 7.77 170.75 7.25
9/6/2022 12:30:00 PM 21.1 69.98 0.294 7.78 860.84 7.34
9/6/2022 12:45:00 PM 21.19 70.142 0.356 7.78 156.59 7.36
9/6/2022 1:00:00 PM 21.27 70.286 0.195 7.78 139.55 6.86
9/6/2022 1:15:00 PM 21.39 70.502 0.191 7.81 97.38 5.98
9/6/2022 1:30:00 PM 21.46 70.628 0.187 7.82 124.18 6.3
9/6/2022 1:45:00 PM 21.47 70.646 0.183 7.82 135.48 6.37
9/6/2022 2:00:00 PM 21.54 70.772 0.321 7.7 171.17 5.22
9/6/2022 2:15:00 PM 21.61 70.898 0.294 7.72 443.2 5.85
9/6/2022 2:30:00 PM 21.65 70.97 0.308 7.71 1380.1 6.21
9/6/2022 2:45:00 PM 21.61 70.898 0.268 7.77 244.44 3.09
9/6/2022 3:00:00 PM 21.64 70.952 0.314 7.68 927.99 2.98
9/6/2022 3:15:00 PM 21.59 70.862 0.279 7.74 130 2.68
9/6/2022 3:30:00 PM 21.58 70.844 0.278 7.78 184.95 4.34
9/6/2022 3:45:00 PM 21.57 70.826 0.279 7.77 593.12 5.72
9/6/2022 4:00:00 PM 21.59 70.862 0.266 7.77 456.02 4.11
9/6/2022 4:15:00 PM 21.65 70.97 0.281 7.72 1572.95 5.18
9/6/2022 4:30:00 PM 21.68 71.024 0.28 7.76 1252.7 0.56
9/6/2022 4:45:00 PM 21.74 71.132 0.278 7.76 1291 0.67
9/6/2022 5:00:00 PM 21.78 71.204 0.27 7.76 1338.17 1.19
9/6/2022 5:15:00 PM 21.81 71.258 0.269 7.76 1704.13 1.28
9/6/2022 5:30:00 PM 21.83 71.294 0.271 7.75 2069.85 1.81
9/6/2022 5:45:00 PM 21.83 71.294 0.269 7.75 4530.32 1.35
9/6/2022 6:00:00 PM 21.82 71.276 0.258 7.74 12899.43 1.15
9/6/2022 6:15:00 PM 21.81 71.258 0.29 7.64 146.77 2.02
9/6/2022 6:30:00 PM 21.78 71.204 0.285 7.7 659.82 0.41
9/6/2022 6:45:00 PM 21.76 71.168 0.286 7.72 299.98 1.61
9/6/2022 7:00:00 PM 21.74 71.132 0.287 7.72 2216.25 1.04
9/6/2022 7:15:00 PM 21.73 71.114 0.286 7.72 3869.63 1.15
9/6/2022 7:30:00 PM 21.71 71.078 0.282 7.71 3755.87 0.96
9/6/2022 7:45:00 PM 21.7 71.06 0.287 7.63 948.92 1.44
9/6/2022 8:00:00 PM 21.67 71.006 0.291 7.68 472.57 0.44
9/6/2022 8:15:00 PM 21.66 70.988 0.275 7.69 385.54 0.32
9/6/2022 8:30:00 PM 21.64 70.952 0.285 7.58 1594 1.03
9/6/2022 8:45:00 PM 21.61 70.898 0.293 7.66 354.36 0.35
9/6/2022 9:00:00 PM 21.58 70.844 0.292 7.67 272.66 0.44
9/6/2022 9:15:00 PM 21.56 70.808 0.292 7.67 302.31 0.39
9/6/2022 9:30:00 PM 21.54 70.772 0.29 7.67 683.81 0.78
9/6/2022 9:45:00 PM 21.52 70.736 0.286 7.67 1436.51 0.41
9/6/2022 10:00:00 PM 21.5 70.7 0.295 7.65 367.57 0.59
9/6/2022 10:15:00 PM 21.48 70.664 0.302 7.66 2504.15 0.28
9/6/2022 10:30:00 PM 21.45 70.61 0.307 7.66 2544.86 0.28
9/6/2022 10:45:00 PM 21.43 70.574 0.3 7.66 2902.07 0.29
9/6/2022 11:00:00 PM 21.4 70.52 0.298 7.62 317.98 0.29
9/6/2022 11:15:00 PM 21.39 70.502 0.3 7.65 2553.52 0.27
9/6/2022 11:30:00 PM 21.35 70.43 0.291 7.63 2913.28 0.27
9/6/2022 11:45:00 PM 21.33 70.394 0.284 7.64 3880.7 0.27
9/7/2022 12:00:00 AM 21.29 70.32201 0.291 7.58 412.12 0.28
9/7/2022 12:15:00 AM 21.26 70.268 0.284 7.61 1647.3 0.3
9/7/2022 12:30:00 AM 21.24 70.232 0.297 7.64 725.1 0.4
9/7/2022 12:45:00 AM 21.21 70.17799 0.298 7.64 999.34 0.91
9/7/2022 1:00:00 AM 21.18 70.124 0.294 7.64 1000.95 1.32
9/7/2022 1:15:00 AM 21.15 70.07 0.295 7.62 140.75 0.39
9/7/2022 1:30:00 AM 21.12 70.016 0.278 7.63 289.67 0.28
9/7/2022 1:45:00 AM 21.09 69.962 0.299 7.62 2688.69 0.51
9/7/2022 2:00:00 AM 21.05 69.89 0.297 7.58 332.57 0.29
9/7/2022 2:15:00 AM 21.02 69.836 0.298 7.61 1851.97 0.28
9/7/2022 2:30:00 AM 21 69.8 0.281 7.63 1769.57 0.36
9/7/2022 2:45:00 AM 20.96 69.728 0.29 7.64 6377.55 0.27
9/7/2022 3:00:00 AM 20.93 69.674 0.297 7.64 202.3 0.28
9/7/2022 3:15:00 AM 20.91 69.638 0.303 7.63 141.3 0.28
9/7/2022 3:30:00 AM 20.88 69.584 0.306 7.63 86.91 2.64
9/7/2022 3:45:00 AM 20.85 69.53 0.307 7.63 115.95 3.46
9/7/2022 4:00:00 AM 20.82 69.476 0.308 7.55 595.38 4.16
9/7/2022 4:15:00 AM 20.8 69.44 0.305 7.6 238.17 1.03
9/7/2022 4:30:00 AM 20.77 69.386 0.308 7.63 273.9 3.21
9/7/2022 4:45:00 AM 20.74 69.332 0.294 7.63 223.54 1.82
9/7/2022 5:00:00 AM 20.71 69.278 0.302 7.62 428.03 3
9/7/2022 5:15:00 AM 20.7 69.26 0.303 7.6 1063.92 2.58
9/7/2022 5:30:00 AM 20.67 69.206 0.32 7.6 498.82 1.21
9/7/2022 5:45:00 AM 20.64 69.152 0.316 7.63 118.27 3.56
9/7/2022 6:00:00 AM 20.61 69.098 0.316 7.61 246.04 3.71
9/7/2022 6:15:00 AM 20.59 69.062 0.311 7.61 5883.81 3.54
9/7/2022 6:30:00 AM 20.56 69.008 0.306 7.63 103.07 6.07
9/7/2022 6:45:00 AM 20.53 68.954 0.296 7.63 112.75 5.89
9/7/2022 7:00:00 AM 20.49 68.882 0.318 7.58 536.91 5.25
9/7/2022 7:15:00 AM 20.47 68.846 0.313 7.6 780.58 1.02
9/7/2022 7:30:00 AM 20.44 68.792 0.293 7.62 162.73 1.78
9/7/2022 7:45:00 AM 20.41 68.738 0.307 7.59 521.79 2.57
9/7/2022 8:00:00 AM 20.4 68.72 0.304 7.63 674.37 1
9/7/2022 8:15:00 AM 20.38 68.684 0.299 7.61 1056.05 1.06
9/7/2022 8:30:00 AM 20.36 68.648 0.244 7.59 8276.3 1.29
9/7/2022 8:45:00 AM 20.33 68.594 0.33 7.55 325.31 0.32
9/7/2022 9:00:00 AM 20.31 68.558 0.322 7.59 98.4 0.3
9/7/2022 9:15:00 AM 20.3 68.54 0.157 7.63 294.33 0.29
9/7/2022 9:30:00 AM 20.28 68.504 0.282 7.6 1959.9 0.29
9/7/2022 9:45:00 AM 20.25 68.45 0.324 7.56 325.44 0.3
9/7/2022 10:00:00 AM 20.26 68.468 0.316 7.6 831.44 0.3
9/7/2022 10:15:00 AM 20.24 68.432 0.298 7.63 231.94 0.3
9/7/2022 10:30:00 AM 20.23 68.414 0.291 7.63 1632.07 0.31
9/7/2022 10:45:00 AM 20.22 68.396 0.283 7.63 105.64 0.37
9/7/2022 11:00:00 AM 20.2 68.36 0.33 7.56 675.14 0.54
9/7/2022 11:15:00 AM 20.19 68.342 0.301 7.6 1414.7 1.07
9/7/2022 11:30:00 AM 20.17 68.306 0.302 7.64 228.79 1.39
9/7/2022 11:45:00 AM 20.15 68.27 0.299 7.65 214.94 0.6
9/7/2022 12:00:00 PM 20.13 68.234 0.294 7.66 3368.01 0.56
9/7/2022 12:15:00 PM 20.12 68.216 0.279 7.66 118.49 0.65
9/7/2022 12:30:00 PM 20.09 68.162 0.356 7.56 278.24 1.34
9/7/2022 12:45:00 PM 20.08 68.144 0.428 7.61 337.31 0.87
9/7/2022 1:00:00 PM 20.07 68.126 0.276 7.64 650.44 0.4
9/7/2022 1:15:00 PM 20.05 68.09 0.256 7.69 132.48 0.74
9/7/2022 1:30:00 PM 20.02 68.036 0.346 7.61 796.61 1.81
9/7/2022 1:45:00 PM 20.02 68.036 0.28 7.6 1149.07 0.38
9/7/2022 2:00:00 PM 20 68 0.337 7.57 51.34 1.06
9/7/2022 2:15:00 PM 20 68 0.314 7.63 547.74 0.46
9/7/2022 2:30:00 PM 20 68 0.3 7.69 166.73 0.37
9/7/2022 2:45:00 PM 20 68 0.285 7.71 164.38 0.73
9/7/2022 3:00:00 PM 20 68 0.335 7.57 677.72 1.52
9/7/2022 3:15:00 PM 20.02 68.036 0.328 7.63 2245.08 0.52
9/7/2022 3:30:00 PM 20.03 68.054 0.306 7.72 368.66 0.43
9/7/2022 3:45:00 PM 20.03 68.054 0.296 7.72 143.23 0.77
9/7/2022 4:00:00 PM 20.04 68.07201 0.346 7.56 2014.76 1.5
9/7/2022 4:15:00 PM 20.04 68.07201 0.394 7.55 319.85 1.59
9/7/2022 4:30:00 PM 20.04 68.07201 0.395 7.55 1381.17 2.38
9/7/2022 4:45:00 PM 20.04 68.07201 0.376 7.6 1550.73 3.41
9/7/2022 5:00:00 PM 20.05 68.09 0.278 7.62 2327.68 0.41
9/7/2022 5:15:00 PM 20.04 68.07201 0.281 7.62 433.8 1.4
9/7/2022 5:30:00 PM 20.05 68.09 0.281 7.69 126.93 3.29
9/7/2022 5:45:00 PM 20.03 68.054 0.359 7.55 1534.16 4.11
9/7/2022 6:00:00 PM 20.03 68.054 0.374 7.55 556.45 2.41
9/7/2022 6:15:00 PM 20.01 68.018 0.4 7.55 178.99 2.07
9/7/2022 6:30:00 PM 20 68 0.428 7.53 297.92 3
9/7/2022 6:45:00 PM 19.99 67.982 0.38 7.53 277.4 2.95
9/7/2022 7:00:00 PM 19.98 67.964 0.329 7.51 336.04 2.95
9/7/2022 7:15:00 PM 19.96 67.92799 0.29 7.53 1296.41 2.22
9/7/2022 7:30:00 PM 19.94 67.892 0.354 7.49 731.53 2.73
9/7/2022 7:45:00 PM 19.94 67.892 0.285 7.58 126.05 1.58
9/7/2022 8:00:00 PM 19.92 67.856 0.286 7.63 102.38 2.06
9/7/2022 8:15:00 PM 19.9 67.82 0.369 7.47 1537.88 3.67
9/7/2022 8:30:00 PM 19.89 67.802 0.354 7.54 197.62 1.68
9/7/2022 8:45:00 PM 19.88 67.784 0.394 7.54 1190.4 3.87
9/7/2022 9:00:00 PM 19.87 67.766 0.445 7.52 395.94 2.62
9/7/2022 9:15:00 PM 19.86 67.748 0.272 7.59 122.57 2.94
9/7/2022 9:30:00 PM 19.85 67.73 0.261 7.63 171.89 4.36
9/7/2022 9:45:00 PM 19.83 67.694 0.243 7.64 150.33 6.13
9/7/2022 10:00:00 PM 19.82 67.676 0.307 7.47 551.66 6.02
9/7/2022 10:15:00 PM 19.81 67.658 0.282 7.55 401.37 3.26
9/7/2022 10:30:00 PM 19.81 67.658 0.352 7.55 2630.66 2.58
9/7/2022 10:45:00 PM 19.79 67.622 0.29 7.55 751.45 1.94
9/7/2022 11:00:00 PM 19.79 67.622 0.279 7.65 555.52 0.79
9/7/2022 11:15:00 PM 19.78 67.604 0.267 7.65 444.07 1.65
9/7/2022 11:30:00 PM 19.76 67.568 0.253 7.65 391.57 2.37
9/7/2022 11:45:00 PM 19.75 67.55 0.368 7.51 331.36 1.39
9/8/2022 12:00:00 AM 19.75 67.55 0.305 7.51 2775.01 2.12
9/8/2022 12:15:00 AM 19.73 67.514 0.353 7.45 1902.21 1.86
9/8/2022 12:30:00 AM 19.72 67.496 0.344 7.57 3860.38 1.64
9/8/2022 12:45:00 AM 19.72 67.496 0.336 7.65 297.12 0.43
9/8/2022 1:00:00 AM 19.7 67.46 0.334 7.66 265.58 0.32
9/8/2022 1:15:00 AM 19.69 67.442 0.335 7.66 254 0.51
9/8/2022 1:30:00 AM 19.67 67.406 0.335 7.66 247.16 0.57
9/8/2022 1:45:00 AM 19.65 67.37 0.335 7.66 242.33 0.29
9/8/2022 2:00:00 AM 19.63 67.334 0.334 7.66 245.58 0.29
9/8/2022 2:15:00 AM 19.64 67.352 0.33 7.66 252.58 0.4
9/8/2022 2:30:00 AM 19.62 67.316 0.322 7.67 160.51 1.29
9/8/2022 2:45:00 AM 19.57 67.226 0.385 7.54 305.49 1.98
9/8/2022 3:00:00 AM 19.55 67.19 0.348 7.61 2358.71 0.33
9/8/2022 3:15:00 AM 19.53 67.154 0.327 7.6 2658.21 0.5
9/8/2022 3:30:00 AM 19.52 67.136 0.303 7.66 2233.27 0.28
9/8/2022 3:45:00 AM 19.51 67.118 0.289 7.66 2052.42 0.28
9/8/2022 4:00:00 AM 19.49 67.082 0.272 7.66 1489.66 0.28
9/8/2022 4:15:00 AM 19.47 67.046 0.371 7.58 1708.3 0.33
9/8/2022 4:30:00 AM 19.46 67.028 0.378 7.58 343.74 1.13
9/8/2022 4:45:00 AM 19.45 67.01 0.365 7.62 1419.87 0.37
9/8/2022 5:00:00 AM 19.43 66.974 0.363 7.66 2320.13 0.43
9/8/2022 5:15:00 AM 19.41 66.938 0.36 7.66 2502.96 0.38
9/8/2022 5:30:00 AM 19.4 66.92 0.359 7.66 3022.58 0.37
9/8/2022 5:45:00 AM 19.39 66.902 0.348 7.64 3186.77 0.31
9/8/2022 6:00:00 AM 19.36 66.848 0.37 7.58 1502.19 0.92
9/8/2022 6:15:00 AM 19.36 66.848 0.357 7.56 3291.71 0.29
9/8/2022 6:30:00 AM 19.34 66.812 0.353 7.55 4181.45 0.28
9/8/2022 6:45:00 AM 19.32 66.776 0.349 7.54 3814.63 0.28
9/8/2022 7:00:00 AM 19.32 66.776 0.343 7.52 3290.62 0.28
9/8/2022 7:15:00 AM 19.3 66.74 0.335 7.52 3076.87 0.28
9/8/2022 7:30:00 AM 19.27 66.686 0.329 7.53 3291.39 0.37
9/8/2022 7:45:00 AM 19.25 66.65 0.324 7.52 1918.88 0.46
9/8/2022 8:00:00 AM 19.24 66.632 0.321 7.53 2659.21 0.4
9/8/2022 8:15:00 AM 19.23 66.614 0.318 7.54 5207.22 0.35
9/8/2022 8:30:00 AM 19.23 66.614 0.314 7.55 5338 0.33
9/8/2022 8:45:00 AM 19.24 66.632 0.309 7.56 1873.28 0.32
9/8/2022 9:00:00 AM 19.24 66.632 0.299 7.55 3378 0.35
9/8/2022 9:15:00 AM 19.24 66.632 0.378 7.61 520.14 1.36
9/8/2022 9:30:00 AM 19.25 66.65 0.342 7.52 3630.68 1.15
9/8/2022 9:45:00 AM 19.26 66.668 0.389 7.59 529.81 1.36
9/8/2022 10:00:00 AM 19.28 66.704 0.352 7.66 2604.15 0.44
9/8/2022 10:15:00 AM 19.28 66.704 0.381 7.6 944.87 1.28
9/8/2022 10:30:00 AM 19.29 66.722 0.345 7.64 2823.51 0.37
9/8/2022 10:45:00 AM 19.32 66.776 0.335 7.71 5724.26 0.32
9/8/2022 11:00:00 AM 19.34 66.812 0.323 7.71 850.2 0.31
9/8/2022 11:15:00 AM 19.38 66.884 0.37 7.68 762.59 0.53
9/8/2022 11:30:00 AM 19.43 66.974 0.341 7.73 2671.48 0.65
9/8/2022 11:45:00 AM 19.49 67.082 0.312 7.75 2688.67 0.44
9/8/2022 12:00:00 PM 19.6 67.28 0.353 7.66 1006.62 0.43
9/8/2022 12:15:00 PM 19.68 67.424 0.343 7.77 158.39 0.42
9/8/2022 12:30:00 PM 19.83 67.694 0.377 7.62 938.1 0.52
9/8/2022 12:45:00 PM 19.87 67.766 0.339 7.78 1099.24 0.29
9/8/2022 1:00:00 PM 19.93 67.874 0.301 7.71 2225.02 0.51
9/8/2022 1:15:00 PM 20.04 68.07201 0.244 7.81 574.93 0.86
9/8/2022 1:30:00 PM 20.17 68.306 0.384 7.59 417.01 1.39
9/8/2022 1:45:00 PM 20.19 68.342 0.376 7.7 3264.03 0.31
9/8/2022 2:00:00 PM 20.26 68.468 0.373 7.83 1888.67 0.34
9/8/2022 2:15:00 PM 20.32 68.576 0.376 7.84 1611.49 0.34
9/8/2022 2:30:00 PM 20.38 68.684 0.381 7.85 1563.95 0.42
9/8/2022 2:45:00 PM 20.42 68.756 0.384 7.85 1577.86 0.31
9/8/2022 3:00:00 PM 20.47 68.846 0.388 7.86 1595.66 0.3
9/8/2022 3:15:00 PM 20.53 68.954 0.391 7.86 1574.38 0.33
9/8/2022 3:30:00 PM 20.54 68.972 0.395 7.86 1577.59 0.34
9/8/2022 3:45:00 PM 20.56 69.008 0.398 7.86 1539.94 0.38
9/8/2022 4:00:00 PM 20.59 69.062 0.402 7.87 1513.51 0.36
9/8/2022 4:15:00 PM 20.61 69.098 0.406 7.78 1450.98 0.35
9/8/2022 4:30:00 PM 20.65 69.17 0.409 7.87 1448.42 0.35
9/8/2022 4:45:00 PM 20.64 69.152 0.412 7.85 1375.32 0.4
9/8/2022 5:00:00 PM 20.62 69.116 0.411 7.85 1376.69 0.4
9/8/2022 5:15:00 PM 20.61 69.098 0.41 7.77 1366.84 0.35
9/8/2022 5:30:00 PM 20.61 69.098 0.405 7.84 1358.16 0.48
9/8/2022 5:45:00 PM 20.59 69.062 0.391 7.82 1352.09 0.51
9/8/2022 6:00:00 PM 20.58 69.044 0.421 7.71 2304.22 1.26
9/8/2022 6:15:00 PM 20.56 69.008 0.328 7.73 675.1 1.09
9/8/2022 6:30:00 PM 20.52 68.936 0.291 7.71 1158.31 1.45
9/8/2022 6:45:00 PM 20.49 68.882 0.389 7.67 5066.1 1.96
9/8/2022 7:00:00 PM 20.45 68.81 0.362 7.71 1704.45 0.48
9/8/2022 7:15:00 PM 20.41 68.738 0.346 7.69 545.31 0.54
9/8/2022 7:30:00 PM 20.37 68.666 0.344 7.68 533.81 0.56
9/8/2022 7:45:00 PM 20.33 68.594 0.334 7.68 538.4 0.55
9/8/2022 8:00:00 PM 20.3 68.54 0.3 7.69 708.91 0.5
9/8/2022 8:15:00 PM 20.27 68.486 0.4 7.65 313.71 0.76
9/8/2022 8:30:00 PM 20.26 68.468 0.365 7.68 3544.23 0.3
9/8/2022 8:45:00 PM 20.22 68.396 0.356 7.72 20248.51 0.28
9/8/2022 9:00:00 PM 20.19 68.342 0.351 7.71 20045.64 0.27
9/8/2022 9:15:00 PM 20.17 68.306 0.348 7.71 19306.24 0.27
9/8/2022 9:30:00 PM 20.15 68.27 0.341 7.71 14969.73 0.28
9/8/2022 9:45:00 PM 20.14 68.252 0.335 7.7 16211.82 0.29
9/8/2022 10:00:00 PM 20.12 68.216 0.325 7.7 19059.45 0.28
9/8/2022 10:15:00 PM 20.1 68.18 0.396 7.66 595.51 0.88
9/8/2022 10:30:00 PM 20.09 68.162 0.43 7.64 487.1 1.56
9/8/2022 10:45:00 PM 20.07 68.126 0.337 7.65 1263.73 0.94
9/8/2022 11:00:00 PM 20.05 68.09 0.302 7.67 285.5 0.68
9/8/2022 11:15:00 PM 20.02 68.036 0.268 7.52 1212.61 1.9
9/8/2022 11:30:00 PM 20 68 0.293 7.64 1851.22 1.49
9/8/2022 11:45:00 PM 19.96 67.92799 0.358 7.62 1303.78 2.19
9/9/2022 12:00:00 AM 19.94 67.892 0.355 7.67 429.79 1.17
9/9/2022 12:15:00 AM 19.91 67.838 0.317 7.67 300.04 1.29
9/9/2022 12:30:00 AM 19.84 67.712 0.344 7.6 1338.9 1.8
9/9/2022 12:45:00 AM 19.81 67.658 0.342 7.63 181.52 0.86
9/9/2022 1:00:00 AM 19.76 67.568 0.343 7.64 172.93 0.73
9/9/2022 1:15:00 AM 19.71 67.478 0.346 7.64 175.49 0.8
9/9/2022 1:30:00 AM 19.68 67.424 0.337 7.66 234.35 1.32
9/9/2022 1:45:00 AM 19.65 67.37 0.325 7.66 224.38 2.11
9/9/2022 2:00:00 AM 19.58 67.244 0.327 7.66 211.05 0.87
9/9/2022 2:15:00 AM 19.49 67.082 0.373 7.62 684.65 1.4
9/9/2022 2:30:00 AM 19.49 67.082 0.359 7.64 2206.72 0.28
9/9/2022 2:45:00 AM 19.44 66.992 0.353 7.65 3230.22 0.28
9/9/2022 3:00:00 AM 19.36 66.848 0.339 7.65 3441.61 0.36
9/9/2022 3:15:00 AM 19.29 66.722 0.334 7.65 4148.32 0.28
9/9/2022 3:30:00 AM 19.22 66.596 0.333 7.65 5202.16 0.39
9/9/2022 3:45:00 AM 19.16 66.488 0.324 7.65 5058.74 0.28
9/9/2022 4:00:00 AM 19.09 66.362 0.363 7.63 614.84 0.69
9/9/2022 4:15:00 AM 19.06 66.308 0.391 7.6 283.1 0.43
9/9/2022 4:30:00 AM 18.99 66.182 0.352 7.63 213.06 1.09
9/9/2022 4:45:00 AM 18.9 66.02 0.4 7.58 479.2 2.51
9/9/2022 5:00:00 AM 18.85 65.93 0.382 7.59 1939.13 1.05
9/9/2022 5:15:00 AM 18.78 65.804 0.419 7.57 658.86 1.04
9/9/2022 5:30:00 AM 18.76 65.768 0.327 7.57 1105.84 1.64
9/9/2022 5:45:00 AM 18.69 65.642 0.392 7.54 2107.05 1.63
9/9/2022 6:00:00 AM 18.67 65.606 0.352 7.58 1456.39 0.99
9/9/2022 6:15:00 AM 18.59 65.462 0.336 7.62 580.88 0.52
9/9/2022 6:30:00 AM 18.53 65.354 0.322 7.63 551.94 0.42
9/9/2022 6:45:00 AM 18.48 65.264 0.3 7.63 503.08 0.44
9/9/2022 7:00:00 AM 18.43 65.174 0.283 7.63 453.55 1.28
9/9/2022 7:15:00 AM 18.35 65.03 0.421 7.58 1550.3 2.19
9/9/2022 7:30:00 AM 18.34 65.012 0.397 7.59 1354.34 0.85
9/9/2022 7:45:00 AM 18.31 64.958 0.391 7.63 1878 0.62
9/9/2022 8:00:00 AM 18.27 64.886 0.359 7.63 1428.43 0.56
9/9/2022 8:15:00 AM 18.19 64.742 0.423 7.58 1438.43 1.88
9/9/2022 8:30:00 AM 18.24 64.832 0.377 7.59 378.06 1.03
9/9/2022 8:45:00 AM 18.22 64.796 0.352 7.63 217.07 0.76
9/9/2022 9:00:00 AM 18.23 64.814 0.336 7.64 233.32 0.75
9/9/2022 9:15:00 AM 18.24 64.832 0.305 7.64 268.94 0.54
9/9/2022 9:30:00 AM 18.25 64.85 0.312 7.62 1507.88 0.53
9/9/2022 9:45:00 AM 18.29 64.922 0.339 7.59 1455.43 1.96
9/9/2022 10:00:00 AM 18.33 64.994 0.387 7.62 1802.43 2.27
9/9/2022 10:15:00 AM 18.38 65.084 0.349 7.64 1748.78 0.3
9/9/2022 10:30:00 AM 18.43 65.174 0.307 7.61 1400.88 1.29
9/9/2022 10:45:00 AM 18.47 65.246 0.276 7.67 343.6 1.16
9/9/2022 11:00:00 AM 18.53 65.354 0.247 7.68 309.08 0.89
9/9/2022 11:15:00 AM 18.6 65.48 0.341 7.61 1204.8 1.25
9/9/2022 11:30:00 AM 18.68 65.624 0.328 7.69 241.31 0.35
9/9/2022 11:45:00 AM 18.78 65.804 0.32 7.7 238.39 0.31
9/9/2022 12:00:00 PM 18.89 66.002 0.307 7.72 236.1 0.31
9/9/2022 12:15:00 PM 19.02 66.236 0.295 7.73 235.39 0.3
9/9/2022 12:30:00 PM 19.14 66.452 0.277 7.75 242.55 0.28
9/9/2022 12:45:00 PM 19.29 66.722 0.245 7.76 233.44 0.29
9/9/2022 1:00:00 PM 19.44 66.992 0.232 7.78 233.6 0.35
9/9/2022 1:15:00 PM 19.65 67.37 0.372 7.56 725.63 1.04
9/9/2022 1:30:00 PM 19.82 67.676 0.408 7.71 1588.22 1.56
9/9/2022 1:45:00 PM 19.97 67.946 0.349 7.83 1825.12 0.27
9/9/2022 2:00:00 PM 20.13 68.234 0.32 7.77 992.82 2.11
9/9/2022 2:15:00 PM 20.39 68.702 0.325 7.66 706.08 4.09
9/9/2022 2:30:00 PM 20.45 68.81 0.287 7.75 1203.5 0.82
9/9/2022 2:45:00 PM 20.6 69.08 0.273 7.86 386.03 0.88
9/9/2022 3:00:00 PM 20.73 69.314 0.273 7.87 346.62 0.7
9/9/2022 3:15:00 PM 20.84 69.512 0.274 7.87 348.81 0.84
9/9/2022 3:30:00 PM 20.94 69.692 0.274 7.88 367.47 1.15
9/9/2022 3:45:00 PM 21.01 69.818 0.273 7.89 361.94 1.36
9/9/2022 4:00:00 PM 21.07 69.926 0.271 7.89 367.68 1.14
9/9/2022 4:15:00 PM 21.1 69.98 0.267 7.86 369.76 1
9/9/2022 4:30:00 PM 21.1 69.98 0.26 7.87 820.03 1.26
9/9/2022 4:45:00 PM 21.08 69.944 0.233 7.85 1108.87 1.36
9/9/2022 5:00:00 PM 21.06 69.908 0.31 7.73 555.64 2.1
9/9/2022 5:15:00 PM 20.98 69.764 0.297 7.78 1866.8 1.1
9/9/2022 5:30:00 PM 20.92 69.656 0.297 7.84 1302.41 0.42
9/9/2022 5:45:00 PM 20.85 69.53 0.294 7.81 1080.57 0.34
9/9/2022 6:00:00 PM 20.79 69.422 0.288 7.8 969.61 0.32
9/9/2022 6:15:00 PM 20.72 69.296 0.283 7.78 913.1 0.45
9/9/2022 6:30:00 PM 20.65 69.17 0.277 7.82 893.5 0.41
9/9/2022 6:45:00 PM 20.58 69.044 0.26 7.78 875.19 0.43
9/9/2022 7:00:00 PM 20.49 68.882 0.29 7.72 207.44 0.77
9/9/2022 7:15:00 PM 20.42 68.756 0.311 7.74 1255.87 1.15
9/9/2022 7:30:00 PM 20.35 68.63 0.304 7.78 183.57 1.4
9/9/2022 7:45:00 PM 20.26 68.468 0.3 7.77 195.14 1.61
9/9/2022 8:00:00 PM 20.19 68.342 0.292 7.77 184.54 1.68
9/9/2022 8:15:00 PM 20.11 68.198 0.278 7.76 179.4 1.28
9/9/2022 8:30:00 PM 20.03 68.054 0.281 7.75 174.82 1.48
9/9/2022 8:45:00 PM 19.94 67.892 0.324 7.7 1529.29 1.88
9/9/2022 9:00:00 PM 19.91 67.838 0.212 7.75 822.68 0.29
9/9/2022 9:15:00 PM 19.83 67.694 0.326 7.72 1339.43 1.15
9/9/2022 9:30:00 PM 19.78 67.604 0.327 7.72 1312.56 0.96
9/9/2022 9:45:00 PM 19.72 67.496 0.332 7.73 959.45 0.57
9/9/2022 10:00:00 PM 19.66 67.388 0.333 7.73 812.76 0.39
9/9/2022 10:15:00 PM 19.6 67.28 0.331 7.73 3891.36 0.48
9/9/2022 10:30:00 PM 19.55 67.19 0.323 7.73 3240.3 0.71
9/9/2022 10:45:00 PM 19.47 67.046 0.389 7.68 818.51 1.49
9/9/2022 11:00:00 PM 19.45 67.01 0.38 7.71 2167.24 0.74
9/9/2022 11:15:00 PM 19.39 66.902 0.366 7.72 289.09 0.36
9/9/2022 11:30:00 PM 19.35 66.83 0.357 7.72 289.32 0.34
9/9/2022 11:45:00 PM 19.29 66.722 0.35 7.72 297.04 0.32
9/10/2022 12:00:00 AM 19.24 66.632 0.342 7.72 302.54 0.3
9/10/2022 12:15:00 AM 19.19 66.542 0.334 7.71 290.19 0.3
9/10/2022 12:30:00 AM 19.14 66.452 0.335 7.72 283.19 0.33
9/10/2022 12:45:00 AM 19.11 66.398 0.328 7.71 289.23 0.29
9/10/2022 1:00:00 AM 19.05 66.29 0.329 7.71 280.46 0.28
9/10/2022 1:15:00 AM 19.01 66.218 0.322 7.71 278.16 0.28
9/10/2022 1:30:00 AM 18.96 66.128 0.315 7.71 266.18 0.29
9/10/2022 1:45:00 AM 18.92 66.056 0.31 7.71 817.42 0.28
9/10/2022 2:00:00 AM 18.87 65.966 0.31 7.7 1083.92 0.28
9/10/2022 2:15:00 AM 18.82 65.876 0.305 7.72 1356.38 0.28
9/10/2022 2:30:00 AM 18.77 65.786 0.3 7.71 1574.32 0.32
9/10/2022 2:45:00 AM 18.71 65.67799 0.292 7.71 1703.77 0.37
9/10/2022 3:00:00 AM 18.67 65.606 0.283 7.66 1859.62 0.36
9/10/2022 3:15:00 AM 18.61 65.498 0.284 7.69 1949.86 0.55
9/10/2022 3:30:00 AM 18.56 65.408 0.278 7.71 2085.68 0.4
9/10/2022 3:45:00 AM 18.47 65.246 0.409 7.74 596.38 1.44
9/10/2022 4:00:00 AM 18.46 65.228 0.436 7.7 1582.51 0.31
9/10/2022 4:15:00 AM 18.4 65.12 0.42 7.7 8472.18 0.28
9/10/2022 4:30:00 AM 18.36 65.048 0.419 7.69 11486.39 0.28
9/10/2022 4:45:00 AM 18.31 64.958 0.413 7.69 8889.21 0.28
9/10/2022 5:00:00 AM 18.26 64.868 0.408 7.69 12304.24 0.33
9/10/2022 5:15:00 AM 18.2 64.76 0.403 7.69 12983.96 0.28
9/10/2022 5:30:00 AM 18.14 64.652 0.395 7.7 18086.68 0.28
9/10/2022 5:45:00 AM 18.09 64.562 0.397 7.7 17136.2 0.28
9/10/2022 6:00:00 AM 18.05 64.49 0.388 7.7 15720.15 0.28
9/10/2022 6:15:00 AM 17.97 64.346 0.373 7.68 13694.9 0.28
9/10/2022 6:30:00 AM 17.91 64.238 0.374 7.69 12094.75 0.28
9/10/2022 6:45:00 AM 17.79 64.022 0.406 7.68 260.88 1.11
9/10/2022 7:00:00 AM 17.8 64.04 0.424 7.68 428.75 0.28
9/10/2022 7:15:00 AM 17.73 63.914 0.405 7.57 876.62 0.28
9/10/2022 7:30:00 AM 17.69 63.842 0.398 7.57 1253.61 0.28
9/10/2022 7:45:00 AM 17.66 63.788 0.393 7.51 2186.11 0.28
9/10/2022 8:00:00 AM 17.64 63.752 0.389 7.49 3312.02 0.28
9/10/2022 8:15:00 AM 17.64 63.752 0.388 7.49 3614.39 0.28
9/10/2022 8:30:00 AM 17.62 63.716 0.387 7.47 3608.23 0.28
9/10/2022 8:45:00 AM 17.62 63.716 0.387 7.47 3669.25 0.28
9/10/2022 9:00:00 AM 17.63 63.734 0.387 7.44 3843.18 0.28
9/10/2022 9:15:00 AM 17.64 63.752 0.387 7.49 3796.66 0.28
9/10/2022 9:30:00 AM 17.66 63.788 0.388 7.49 3854.49 0.28
9/10/2022 9:45:00 AM 17.7 63.86 0.389 7.49 3849.14 0.28
9/10/2022 10:00:00 AM 17.74 63.932 0.389 7.51 3864.21 0.28
9/10/2022 10:15:00 AM 17.78 64.004 0.389 7.51 3836.08 0.28
9/10/2022 10:30:00 AM 17.84 64.112 0.391 7.53 3856.68 0.28
9/10/2022 10:45:00 AM 17.9 64.22 0.391 7.55 4097.54 0.28
9/10/2022 11:00:00 AM 17.95 64.31 0.392 7.56 4049.06 0.28
9/10/2022 11:15:00 AM 18.02 64.436 0.391 7.58 4278.92 0.28
9/10/2022 11:30:00 AM 18.1 64.58 0.387 7.59 4343.78 0.28
9/10/2022 11:45:00 AM 18.19 64.742 0.383 7.59 4461.98 0.28
9/10/2022 12:00:00 PM 18.29 64.922 0.377 7.6 4859.54 0.28
9/10/2022 12:15:00 PM 18.4 65.12 0.369 7.61 5203.73 0.27
9/10/2022 12:30:00 PM 18.52 65.336 0.362 7.61 5445.5 0.27
9/10/2022 12:45:00 PM 18.67 65.606 0.354 7.63 5517.74 0.27
9/10/2022 1:00:00 PM 18.82 65.876 0.345 7.63 5357.89 0.27
9/10/2022 1:15:00 PM 18.98 66.164 0.345 7.66 5588.97 0.27
9/10/2022 1:30:00 PM 19.14 66.452 0.326 7.56 5495.85 0.27
9/10/2022 1:45:00 PM 19.39 66.902 0.397 7.65 211.75 0.33
9/10/2022 2:00:00 PM 19.43 66.974 0.386 7.65 284.74 0.27
9/10/2022 2:15:00 PM 19.54 67.172 0.377 7.63 261.84 0.27
9/10/2022 2:30:00 PM 19.66 67.388 0.366 7.64 398.93 0.27
9/10/2022 2:45:00 PM 19.8 67.64 0.359 7.7 469.45 0.27
9/10/2022 3:00:00 PM 19.92 67.856 0.353 7.69 499.95 0.27
9/10/2022 3:15:00 PM 20 68 0.346 7.71 689.87 0.26
9/10/2022 3:30:00 PM 20.07 68.126 0.338 7.69 634.93 0.26
9/10/2022 3:45:00 PM 20.11 68.198 0.325 7.72 867.31 0.26
9/10/2022 4:00:00 PM 20.19 68.342 0.458 7.63 287.71 0.65
9/10/2022 4:15:00 PM 20.23 68.414 0.458 7.55 240.57 0.28
9/10/2022 4:30:00 PM 20.19 68.342 0.444 7.78 710 0.29
9/10/2022 4:45:00 PM 20.21 68.378 0.419 7.94 581.78 0.26
9/10/2022 5:00:00 PM 20.21 68.378 0.406 7.95 641.75 0.26
9/10/2022 5:15:00 PM 20.2 68.36 0.385 7.94 757.54 0.26
9/10/2022 5:30:00 PM 20.22 68.396 0.437 7.76 199.27 0.27
9/10/2022 5:45:00 PM 20.2 68.36 0.445 7.76 407.54 0.26
9/10/2022 6:00:00 PM 20.15 68.27 0.433 7.77 268.34 0.27
9/10/2022 6:15:00 PM 20.12 68.216 0.422 7.91 216.5 0.26
9/10/2022 6:30:00 PM 20.07 68.126 0.418 7.9 248.1 0.26
9/10/2022 6:45:00 PM 20.03 68.054 0.403 7.9 317.34 0.26
9/10/2022 7:00:00 PM 19.98 67.964 0.334 7.89 407.52 0.27
9/10/2022 7:15:00 PM 19.92 67.856 0.429 7.76 280.26 0.27
9/10/2022 7:30:00 PM 19.86 67.748 0.409 7.68 214.09 0.27
9/10/2022 7:45:00 PM 19.81 67.658 0.435 7.74 469.53 0.27
9/10/2022 8:00:00 PM 19.75 67.55 0.411 7.84 619.93 0.28
9/10/2022 8:15:00 PM 19.7 67.46 0.404 7.83 515.62 0.27
9/10/2022 8:30:00 PM 19.65 67.37 0.399 7.82 623.41 0.27
9/10/2022 8:45:00 PM 19.6 67.28 0.393 7.81 632.43 0.27
9/10/2022 9:00:00 PM 19.56 67.208 0.395 7.81 631.1 0.27
9/10/2022 9:15:00 PM 19.52 67.136 0.388 7.8 612.07 0.27
9/10/2022 9:30:00 PM 19.48 67.064 0.378 7.79 594.95 0.27
9/10/2022 9:45:00 PM 19.44 66.992 0.421 7.75 3129.67 0.27
9/10/2022 10:00:00 PM 19.42 66.956 0.426 7.73 948.87 0.29
9/10/2022 10:15:00 PM 19.4 66.92 0.38 7.76 1514.51 0.27
9/10/2022 10:30:00 PM 19.37 66.866 0.435 7.69 246.64 0.27
9/10/2022 10:45:00 PM 19.36 66.848 0.4 7.72 909.62 0.27
9/10/2022 11:00:00 PM 19.34 66.812 0.39 7.75 9284.21 0.27
9/10/2022 11:15:00 PM 19.33 66.794 0.388 7.75 12729.91 0.27
9/10/2022 11:30:00 PM 19.31 66.758 0.388 7.73 17620.66 0.27
9/10/2022 11:45:00 PM 19.3 66.74 0.39 7.73 18023.52 0.27
9/11/2022 12:00:00 AM 19.28 66.704 0.391 7.73 16933.29 0.27
9/11/2022 12:15:00 AM 19.27 66.686 0.391 7.73 16065.59 0.27
9/11/2022 12:30:00 AM 19.26 66.668 0.392 7.73 8904.69 0.27
9/11/2022 12:45:00 AM 19.26 66.668 0.394 7.73 8387.7 0.27
9/11/2022 1:00:00 AM 19.25 66.65 0.396 7.73 9546.72 0.27
9/11/2022 1:15:00 AM 19.24 66.632 0.398 7.73 9331.85 0.27
9/11/2022 1:30:00 AM 19.23 66.614 0.399 7.73 12090.9 0.27
9/11/2022 1:45:00 AM 19.23 66.614 0.401 7.73 12345.84 0.27
9/11/2022 2:00:00 AM 19.22 66.596 0.401 7.72 11463.8 0.27
9/11/2022 2:15:00 AM 19.22 66.596 0.403 7.72 11841.32 0.27
9/11/2022 2:30:00 AM 19.21 66.578 0.403 7.71 5521.55 0.27
9/11/2022 2:45:00 AM 19.2 66.56 0.403 7.73 2645.67 0.27
9/11/2022 3:00:00 AM 19.2 66.56 0.406 7.73 5726.24 0.27
9/11/2022 3:15:00 AM 19.19 66.542 0.406 7.73 7058.28 0.27
9/11/2022 3:30:00 AM 19.19 66.542 0.407 7.72 4583.98 0.27
9/11/2022 3:45:00 AM 19.18 66.524 0.407 7.72 6831.67 0.27
9/11/2022 4:00:00 AM 19.18 66.524 0.407 7.72 8734.21 0.27
9/11/2022 4:15:00 AM 19.17 66.506 0.406 7.72 10335.21 0.27
9/11/2022 4:30:00 AM 19.17 66.506 0.405 7.73 10864.42 0.27
9/11/2022 4:45:00 AM 19.16 66.488 0.405 7.71 11303.12 0.27
9/11/2022 5:00:00 AM 19.19 66.542 0.402 7.72 1480.94 0.27
9/11/2022 5:15:00 AM 19.2 66.56 0.4 7.73 4278.48 0.27
9/11/2022 5:30:00 AM 19.15 66.47 0.398 7.73 5434.3 0.27
9/11/2022 5:45:00 AM 19.11 66.398 0.397 7.74 5632.95 0.27
9/11/2022 6:00:00 AM 19.08 66.344 0.391 7.74 6074.38 0.27
9/11/2022 6:15:00 AM 19.05 66.29 0.384 7.74 6919.08 0.27
9/11/2022 6:30:00 AM 19.05 66.29 0.383 7.74 7264.87 0.27
9/11/2022 6:45:00 AM 19.03 66.254 0.377 7.74 7474.89 0.27
9/11/2022 7:00:00 AM 19.01 66.218 0.363 7.74 7722.01 0.27
9/11/2022 7:15:00 AM 18.98 66.164 0.324 7.74 7329.45 0.27
9/11/2022 7:30:00 AM 18.97 66.146 0.318 7.73 7701.66 0.27
9/11/2022 7:45:00 AM 18.93 66.074 0.44 7.71 438.05 0.27
9/11/2022 8:00:00 AM 18.95 66.11 0.416 7.73 333.07 0.27
9/11/2022 8:15:00 AM 18.94 66.092 0.385 7.72 445.86 0.27
9/11/2022 8:30:00 AM 18.9 66.02 0.429 7.72 205.07 0.28
9/11/2022 8:45:00 AM 18.93 66.074 0.417 7.71 474.71 0.27
9/11/2022 9:00:00 AM 18.9 66.02 0.427 7.68 182.07 0.27
9/11/2022 9:15:00 AM 18.89 66.002 0.424 7.71 196.28 0.27
9/11/2022 9:30:00 AM 18.9 66.02 0.426 7.72 181.07 0.27
9/11/2022 9:45:00 AM 18.91 66.038 0.427 7.71 131.3 0.27
9/11/2022 10:00:00 AM 18.92 66.056 0.424 7.72 149.03 0.27
9/11/2022 10:15:00 AM 18.94 66.092 0.416 7.73 265.76 0.27
9/11/2022 10:30:00 AM 18.94 66.092 0.437 7.69 224.56 0.27
9/11/2022 10:45:00 AM 18.98 66.164 0.441 7.69 766.22 0.27
9/11/2022 11:00:00 AM 19 66.2 0.441 7.74 4708.18 0.27
9/11/2022 11:15:00 AM 19.02 66.236 0.437 7.74 10592.39 0.27
9/11/2022 11:30:00 AM 19.04 66.272 0.436 7.74 5365.8 0.27
9/11/2022 11:45:00 AM 19.07 66.326 0.433 7.75 7118.19 0.27
9/11/2022 12:00:00 PM 19.1 66.38 0.432 7.76 14452.3 0.27
9/11/2022 12:15:00 PM 19.13 66.434 0.43 7.77 15292.3 0.27
9/11/2022 12:30:00 PM 19.16 66.488 0.426 7.77 15150.28 0.27
9/11/2022 12:45:00 PM 19.19 66.542 0.422 7.78 14558.44 0.27
9/11/2022 1:00:00 PM 19.22 66.596 0.418 7.78 19805.32 0.27
9/11/2022 1:15:00 PM 19.24 66.632 0.415 7.8 20168.23 0.27
9/11/2022 1:30:00 PM 19.27 66.686 0.407 7.79 18942.66 0.27
9/11/2022 1:45:00 PM 19.29 66.722 0.421 7.73 224.61 0.28
9/11/2022 2:00:00 PM 19.32 66.776 0.447 7.72 439.79 0.27
9/11/2022 2:15:00 PM 19.32 66.776 0.44 7.77 2747.83 0.27
9/11/2022 2:30:00 PM 19.33 66.794 0.44 7.77 907.53 0.27
9/11/2022 2:45:00 PM 19.35 66.83 0.441 7.76 242.28 0.27
9/11/2022 3:00:00 PM 19.36 66.848 0.442 7.77 230.57 0.27
9/11/2022 3:15:00 PM 19.38 66.884 0.444 7.78 224.06 0.27
9/11/2022 3:30:00 PM 19.39 66.902 0.447 7.79 222.5 0.27
9/11/2022 3:45:00 PM 19.42 66.956 0.448 7.8 221.56 0.27
9/11/2022 4:00:00 PM 19.44 66.992 0.449 7.8 221.43 0.27
9/11/2022 4:15:00 PM 19.47 67.046 0.448 7.8 224.82 0.27
9/11/2022 4:30:00 PM 19.49 67.082 0.448 7.8 223.87 0.27
9/11/2022 4:45:00 PM 19.51 67.118 0.449 7.8 223.01 0.27
9/11/2022 5:00:00 PM 19.54 67.172 0.451 7.79 219.71 0.27
9/11/2022 5:15:00 PM 19.55 67.19 0.452 7.74 217.47 0.27
9/11/2022 5:30:00 PM 19.56 67.208 0.452 7.79 220.51 0.27
9/11/2022 5:45:00 PM 19.57 67.226 0.452 7.79 226.76 0.27
9/11/2022 6:00:00 PM 19.59 67.262 0.45 7.79 235.46 0.27
9/11/2022 6:15:00 PM 19.6 67.28 0.45 7.79 242.99 0.27
9/11/2022 6:30:00 PM 19.64 67.352 0.449 7.79 251.59 0.27
9/11/2022 6:45:00 PM 19.66 67.388 0.448 7.79 255.72 0.27
9/11/2022 7:00:00 PM 19.67 67.406 0.447 7.79 246.08 0.27
9/11/2022 7:15:00 PM 19.67 67.406 0.447 7.78 245.84 0.27
9/11/2022 7:30:00 PM 19.67 67.406 0.448 7.77 246.72 0.27
9/11/2022 7:45:00 PM 19.67 67.406 0.449 7.77 247.32 0.27
9/11/2022 8:00:00 PM 19.68 67.424 0.448 7.76 243.14 0.27
9/11/2022 8:15:00 PM 19.67 67.406 0.448 7.75 246.75 0.27
9/11/2022 8:30:00 PM 19.67 67.406 0.446 7.77 241.7 0.27
9/11/2022 8:45:00 PM 19.66 67.388 0.444 7.77 243.3 0.27
9/11/2022 9:00:00 PM 19.65 67.37 0.443 7.77 249.91 0.27
9/11/2022 9:15:00 PM 19.65 67.37 0.442 7.77 249.85 0.27
9/11/2022 9:30:00 PM 19.64 67.352 0.443 7.77 254.72 0.27
9/11/2022 9:45:00 PM 19.64 67.352 0.443 7.77 260.14 0.27
9/11/2022 10:00:00 PM 19.63 67.334 0.442 7.76 258.48 0.27
9/11/2022 10:15:00 PM 19.63 67.334 0.439 7.77 266.57 0.27
9/11/2022 10:30:00 PM 19.64 67.352 0.439 7.77 270.82 0.27
9/11/2022 10:45:00 PM 19.64 67.352 0.438 7.77 280.94 0.27
9/11/2022 11:00:00 PM 19.64 67.352 0.438 7.77 285.84 0.27
9/11/2022 11:15:00 PM 19.64 67.352 0.439 7.69 288.25 0.27
9/11/2022 11:30:00 PM 19.64 67.352 0.439 7.51 282.57 0.27
9/11/2022 11:45:00 PM 19.63 67.334 0.438 7.49 279.31 0.27
9/12/2022 12:00:00 AM 19.63 67.334 0.435 7.53 280.02 0.27
9/12/2022 12:15:00 AM 19.63 67.334 0.433 7.51 278.92 0.27
9/12/2022 12:30:00 AM 19.6 67.28 0.429 7.49 286.7 0.27
9/12/2022 12:45:00 AM 19.6 67.28 0.427 7.47 295.63 0.27
9/12/2022 1:00:00 AM 19.57 67.226 0.425 7.47 332.22 0.27
9/12/2022 1:15:00 AM 19.55 67.19 0.422 7.48 354.69 0.27
9/12/2022 1:30:00 AM 19.53 67.154 0.413 7.48 327.36 0.27
9/12/2022 1:45:00 AM 19.53 67.154 0.4 7.47 310.09 0.27
9/12/2022 2:00:00 AM 19.52 67.136 0.361 7.48 374.1 0.27
9/12/2022 2:15:00 AM 19.51 67.118 0.443 7.6 212.06 0.31
9/12/2022 2:30:00 AM 19.5 67.1 0.444 7.52 209.75 0.27
9/12/2022 2:45:00 AM 19.5 67.1 0.449 7.49 201.97 0.27
9/12/2022 3:00:00 AM 19.48 67.064 0.452 7.49 197.74 0.27
9/12/2022 3:15:00 AM 19.47 67.046 0.455 7.48 197.66 0.27
9/12/2022 3:30:00 AM 19.46 67.028 0.458 7.49 194.71 0.27
9/12/2022 3:45:00 AM 19.45 67.01 0.46 7.47 193.99 0.27
9/12/2022 4:00:00 AM 19.44 66.992 0.463 7.48 193.33 0.27
9/12/2022 4:15:00 AM 19.44 66.992 0.465 7.49 191.85 0.27
9/12/2022 4:30:00 AM 19.43 66.974 0.468 7.49 189.96 0.27
9/12/2022 4:45:00 AM 19.42 66.956 0.47 7.5 189.26 0.27
9/12/2022 5:00:00 AM 19.41 66.938 0.472 7.5 189.04 0.27
9/12/2022 5:15:00 AM 19.4 66.92 0.473 7.5 188.6 0.27
9/12/2022 5:30:00 AM 19.39 66.902 0.474 7.5 188.14 0.27
9/12/2022 5:45:00 AM 19.37 66.866 0.475 7.51 187.58 0.27
9/12/2022 6:00:00 AM 19.36 66.848 0.474 7.5 186.94 0.27
9/12/2022 6:15:00 AM 19.35 66.83 0.47 7.5 186.3 0.27
9/12/2022 6:30:00 AM 19.34 66.812 0.464 7.49 185.91 0.27
9/12/2022 6:45:00 AM 19.33 66.794 0.452 7.49 185.83 0.27
9/12/2022 7:00:00 AM 19.32 66.776 0.442 7.52 185.2 0.27
9/12/2022 7:15:00 AM 19.31 66.758 0.436 7.5 184.83 0.27
9/12/2022 7:30:00 AM 19.3 66.74 0.432 7.5 184.89 0.27
9/12/2022 7:45:00 AM 19.29 66.722 0.423 7.54 184.78 0.27
9/12/2022 8:00:00 AM 19.28 66.704 0.42 7.55 186.13 0.27
9/12/2022 8:15:00 AM 19.27 66.686 0.414 7.57 186.06 0.27
9/12/2022 8:30:00 AM 19.27 66.686 0.41 7.54 186.52 0.27
9/12/2022 8:45:00 AM 19.28 66.704 0.411 7.56 187.02 0.27
9/12/2022 9:00:00 AM 19.28 66.704 0.411 7.56 188.19 0.27
9/12/2022 9:15:00 AM 19.3 66.74 0.412 7.51 188.79 0.27
9/12/2022 9:30:00 AM 19.31 66.758 0.413 7.49 190.03 0.27
9/12/2022 9:45:00 AM 19.32 66.776 0.417 7.5 190.37 0.27
9/12/2022 10:00:00 AM 19.33 66.794 0.417 7.5 192.02 0.27
9/12/2022 10:15:00 AM 19.34 66.812 0.418 7.5 193.4 0.27
9/12/2022 10:30:00 AM 19.35 66.83 0.419 7.52 195.38 0.27
9/12/2022 10:45:00 AM 19.36 66.848 0.418 7.52 195.93 0.27
9/12/2022 11:00:00 AM 19.38 66.884 0.417 7.52 197.77 0.27
9/12/2022 11:15:00 AM 19.39 66.902 0.419 7.53 198.16 0.27
9/12/2022 11:30:00 AM 19.41 66.938 0.42 7.55 198.55 0.27
9/12/2022 11:45:00 AM 19.44 66.992 0.419 7.58 198.28 0.27
9/12/2022 12:00:00 PM 19.48 67.064 0.421 7.53 201.54 0.27
9/12/2022 12:15:00 PM 19.52 67.136 0.421 7.53 206.87 0.27
9/12/2022 12:30:00 PM 19.58 67.244 0.42 7.51 204.75 0.27
9/12/2022 12:45:00 PM 19.64 67.352 0.42 7.52 208.15 0.27
9/12/2022 1:00:00 PM 19.7 67.46 0.42 7.51 211.07 0.27
9/12/2022 1:15:00 PM 19.78 67.604 0.418 7.52 213.86 0.27
9/12/2022 1:30:00 PM 19.87 67.766 0.416 7.54 220.88 0.27
9/12/2022 1:45:00 PM 19.95 67.91 0.413 7.54 231.55 0.27
9/12/2022 2:00:00 PM 20.06 68.108 0.41 7.54 236.54 0.27
9/12/2022 2:15:00 PM 20.18 68.324 0.405 7.55 244.04 0.27
9/12/2022 2:30:00 PM 20.29 68.522 0.399 7.56 254 0.27
9/12/2022 2:45:00 PM 20.36 68.648 0.393 7.6 261.64 0.27
9/12/2022 3:00:00 PM 20.44 68.792 0.388 7.59 270.52 0.27
9/12/2022 3:15:00 PM 20.53 68.954 0.386 7.54 275.23 0.26
9/12/2022 3:30:00 PM 20.56 69.008 0.383 7.54 274.97 0.26
9/12/2022 3:45:00 PM 20.57 69.026 0.381 7.55 240.49 0.26
9/12/2022 4:00:00 PM 20.55 68.99 0.377 7.56 219.17 0.26
9/12/2022 4:15:00 PM 20.52 68.936 0.375 7.59 223.32 0.26
9/12/2022 4:30:00 PM 20.49 68.882 0.372 7.58 227.27 0.27
9/12/2022 4:45:00 PM 20.46 68.828 0.369 7.57 229.74 0.27
9/12/2022 5:00:00 PM 20.44 68.792 0.367 7.58 231.6 0.27
9/12/2022 5:15:00 PM 20.41 68.738 0.365 7.58 231.39 0.27
9/12/2022 5:30:00 PM 20.39 68.702 0.362 7.58 232.89 0.27
9/12/2022 5:45:00 PM 20.37 68.666 0.361 7.61 235.59 0.27
9/12/2022 6:00:00 PM 20.35 68.63 0.359 7.69 232.51 0.27
9/12/2022 6:15:00 PM 20.33 68.594 0.357 7.68 233.21 0.27
9/12/2022 6:30:00 PM 20.32 68.576 0.352 7.58 236 0.27
9/12/2022 6:45:00 PM 20.31 68.558 0.346 7.55 235.84 0.27
9/12/2022 7:00:00 PM 20.3 68.54 0.341 7.56 234.95 0.27
9/12/2022 7:15:00 PM 20.3 68.54 0.337 7.54 232.24 0.27
9/12/2022 7:30:00 PM 20.29 68.522 0.33 7.57 230.38 0.27
9/12/2022 7:45:00 PM 20.29 68.522 0.323 7.54 226.92 0.27
9/12/2022 8:00:00 PM 20.29 68.522 0.413 7.52 183.91 0.27
9/12/2022 8:15:00 PM 20.28 68.504 0.442 7.67 1362.31 0.27
9/12/2022 8:30:00 PM 20.27 68.486 0.422 7.66 4901.26 0.27
9/12/2022 8:45:00 PM 20.26 68.468 0.413 7.64 4918.34 0.27
9/12/2022 9:00:00 PM 20.24 68.432 0.405 7.62 4720.13 0.27
9/12/2022 9:15:00 PM 20.23 68.414 0.396 7.63 5364.1 0.27
9/12/2022 9:30:00 PM 20.22 68.396 0.386 7.64 4919.87 0.27
9/12/2022 9:45:00 PM 20.2 68.36 0.37 7.62 12688.11 0.27
9/12/2022 10:00:00 PM 20.18 68.324 0.351 7.62 21485.86 0.27
9/12/2022 10:15:00 PM 20.16 68.288 0.351 7.62 255.28 0.28
9/12/2022 10:30:00 PM 20.14 68.252 0.358 7.66 288.16 0.27
9/12/2022 10:45:00 PM 20.12 68.216 0.347 7.68 336.09 0.27
9/12/2022 11:00:00 PM 20.1 68.18 0.331 7.67 321.13 0.27
9/12/2022 11:15:00 PM 20.07 68.126 0.319 7.66 332.5 0.27
9/12/2022 11:30:00 PM 20.05 68.09 0.31 7.65 348.34 0.27
9/12/2022 11:45:00 PM 20.02 68.036 0.301 7.64 358.68 0.27
9/13/2022 12:00:00 AM 20 68 0.293 7.64 365.74 0.27
9/13/2022 12:15:00 AM 19.98 67.964 0.286 7.64 374.29 0.27
9/13/2022 12:30:00 AM 19.95 67.91 0.272 7.64 372.59 0.27
9/13/2022 12:45:00 AM 19.93 67.874 0.261 7.65 369.75 0.27
9/13/2022 1:00:00 AM 19.92 67.856 0.245 7.65 368.02 0.27
9/13/2022 1:15:00 AM 19.9 67.82 0.413 7.67 193.55 0.27
9/13/2022 1:30:00 AM 19.88 67.784 0.424 7.66 220.37 0.27
9/13/2022 1:45:00 AM 19.86 67.748 0.408 7.62 153.81 0.27
9/13/2022 2:00:00 AM 19.84 67.712 0.402 7.61 203.08 0.27
9/13/2022 2:15:00 AM 19.81 67.658 0.397 7.56 205.51 0.27
9/13/2022 2:30:00 AM 19.79 67.622 0.389 7.58 234.85 0.27
9/13/2022 2:45:00 AM 19.76 67.568 0.377 7.59 271.19 0.27
9/13/2022 3:00:00 AM 19.73 67.514 0.363 7.57 325.68 0.27
9/13/2022 3:15:00 AM 19.7 67.46 0.354 7.59 211.65 0.27
9/13/2022 3:30:00 AM 19.67 67.406 0.34 7.69 211.53 0.27
9/13/2022 3:45:00 AM 19.63 67.334 0.291 7.53 209.26 0.27
9/13/2022 4:00:00 AM 19.59 67.262 0.403 7.69 219.93 0.27
9/13/2022 4:15:00 AM 19.58 67.244 0.392 7.58 196.38 0.27
9/13/2022 4:30:00 AM 19.54 67.172 0.369 7.64 189.12 0.27
9/13/2022 4:45:00 AM 19.52 67.136 0.346 7.7 190.43 0.27
9/13/2022 5:00:00 AM 19.49 67.082 0.325 7.66 137.84 0.27
9/13/2022 5:15:00 AM 19.47 67.046 0.303 7.7 125.92 0.27
9/13/2022 5:30:00 AM 19.44 66.992 0.403 7.73 160.94 0.27
9/13/2022 5:45:00 AM 19.44 66.992 0.406 7.72 855.26 0.27
9/13/2022 6:00:00 AM 19.42 66.956 0.391 7.69 4029.86 0.27
9/13/2022 6:15:00 AM 19.4 66.92 0.386 7.7 4330.92 0.27
9/13/2022 6:30:00 AM 19.39 66.902 0.379 7.7 6069.74 0.27
9/13/2022 6:45:00 AM 19.37 66.866 0.369 7.7 399.7 0.27
9/13/2022 7:00:00 AM 19.35 66.83 0.35 7.7 1823.79 0.27
9/13/2022 7:15:00 AM 19.33 66.794 0.319 7.7 2318.05 0.27
9/13/2022 7:30:00 AM 19.31 66.758 0.402 7.7 201 0.29
9/13/2022 7:45:00 AM 19.32 66.776 0.419 7.7 1136.66 0.27
9/13/2022 8:00:00 AM 19.33 66.794 0.411 7.71 16165.07 0.27
9/13/2022 8:15:00 AM 19.3 66.74 0.407 7.71 11686.5 0.27
9/13/2022 8:30:00 AM 19.29 66.722 0.403 7.71 16325.4 0.27
9/13/2022 8:45:00 AM -99999.99 -179968 -99999.99 -99999.99 -99999.99 -99999.99
9/13/2022 9:00:00 AM -99999.99 -179968 -99999.99 -99999.99 -99999.99 -99999.99
9/13/2022 9:15:00 AM -99999.99 -179968 -99999.99 -99999.99 -99999.99 -99999.99
9/13/2022 9:30:00 AM -99999.99 -179968 -99999.99 -99999.99 -99999.99 -99999.99
9/13/2022 9:45:00 AM -99999.99 -179968 -99999.99 -99999.99 -99999.99 -99999.99
9/13/2022 10:00:00 AM -99999.99 -179968 -99999.99 -99999.99 -99999.99 -99999.99
9/13/2022 10:15:00 AM -99999.99 -179968 -99999.99 -99999.99 -99999.99 -99999.99
9/13/2022 10:30:00 AM 19.38 66.884 0.388 7.62 243.3 0.27
9/13/2022 10:45:00 AM 19.41 66.938 0.381 7.78 255 0.27
9/13/2022 11:00:00 AM 19.44 66.992 0.37 7.81 290.26 0.27
9/13/2022 11:15:00 AM 19.47 67.046 0.359 7.82 305.79 0.27
9/13/2022 11:30:00 AM 19.51 67.118 0.345 7.83 336.96 0.27
9/13/2022 11:45:00 AM 19.57 67.226 0.312 7.85 323 0.27
9/13/2022 12:00:00 PM 19.65 67.37 0.414 7.78 228.88 0.59
9/13/2022 12:15:00 PM 19.71 67.478 0.412 7.81 236.93 0.27
9/13/2022 12:30:00 PM 19.77 67.586 0.353 7.88 415.32 0.27
9/13/2022 12:45:00 PM 19.91 67.838 0.405 7.77 234.02 0.28
9/13/2022 1:00:00 PM 19.94 67.892 0.394 7.81 1272.06 0.27
9/13/2022 1:15:00 PM 20.03 68.054 0.382 7.92 19611.41 0.27
9/13/2022 1:30:00 PM 20.12 68.216 0.367 7.92 137.99 0.27
9/13/2022 1:45:00 PM 20.21 68.378 0.35 7.93 279.82 0.27
9/13/2022 2:00:00 PM 20.32 68.576 0.304 7.95 220.35 0.27
9/13/2022 2:15:00 PM 20.48 68.864 0.41 7.77 217.93 0.27
9/13/2022 2:30:00 PM 20.5 68.9 0.396 7.83 893.5 0.26
9/13/2022 2:45:00 PM 20.61 69.098 0.376 7.94 20326.45 0.26
9/13/2022 3:00:00 PM 20.7 69.26 0.372 7.94 19534.09 0.26
9/13/2022 3:15:00 PM 20.8 69.44 0.367 7.94 14191.37 0.26
9/13/2022 3:30:00 PM 20.87 69.566 0.364 7.93 18377.84 0.26
9/13/2022 3:45:00 PM 20.92 69.656 0.354 7.89 275.4 0.26
9/13/2022 4:00:00 PM 20.95 69.71 0.339 7.92 647.85 0.31
9/13/2022 4:15:00 PM 21 69.8 0.359 7.83 291.56 0.36
9/13/2022 4:30:00 PM 20.97 69.746 0.409 7.78 239.63 0.27
9/13/2022 4:45:00 PM 20.9 69.62 0.413 7.81 776.18 0.26
9/13/2022 5:00:00 PM 20.85 69.53 0.399 7.93 401.19 0.27
9/13/2022 5:15:00 PM 20.81 69.458 0.396 7.92 487.41 0.26
9/13/2022 5:30:00 PM 20.75 69.35 0.394 7.9 340.01 0.28
9/13/2022 5:45:00 PM 20.69 69.242 0.393 7.9 227.3 0.26
9/13/2022 6:00:00 PM 20.63 69.134 0.392 7.88 228.87 0.26
9/13/2022 6:15:00 PM 20.56 69.008 0.391 7.88 242.49 0.26
9/13/2022 6:30:00 PM 20.49 68.882 0.386 7.87 253.69 0.27
9/13/2022 6:45:00 PM 20.42 68.756 0.375 7.84 256.37 0.27
9/13/2022 7:00:00 PM 20.35 68.63 0.359 7.85 245.66 0.27
9/13/2022 7:15:00 PM 20.28 68.504 0.346 7.83 245.2 0.28
9/13/2022 7:30:00 PM 20.21 68.378 0.334 7.82 235.96 0.27
9/13/2022 7:45:00 PM 20.15 68.27 0.321 7.82 206.62 0.27
9/13/2022 8:00:00 PM 20.08 68.144 0.303 7.82 201.87 0.27
9/13/2022 8:15:00 PM 20 68 0.416 7.76 208.77 0.47
9/13/2022 8:30:00 PM 19.97 67.946 0.405 7.75 1356.87 0.27
9/13/2022 8:45:00 PM 19.91 67.838 0.376 7.76 219.87 0.27
9/13/2022 9:00:00 PM 19.85 67.73 0.358 7.8 247.8 0.27
9/13/2022 9:15:00 PM 19.78 67.604 0.419 7.75 229.64 0.51
9/13/2022 9:30:00 PM 19.77 67.586 0.416 7.72 874.15 0.27
9/13/2022 9:45:00 PM 19.73 67.514 0.408 7.76 17384.9 0.27
9/13/2022 10:00:00 PM 19.69 67.442 0.405 7.76 7390.85 0.27
9/13/2022 10:15:00 PM 19.64 67.352 0.402 7.76 5625.14 0.27
9/13/2022 10:30:00 PM 19.58 67.244 0.4 7.76 5428.78 0.27
9/13/2022 10:45:00 PM 19.53 67.154 0.395 7.75 5864.21 0.27
9/13/2022 11:00:00 PM 19.48 67.064 0.387 7.75 7345.21 0.27
9/13/2022 11:15:00 PM 19.42 66.956 0.372 7.76 8700.21 0.27
9/13/2022 11:30:00 PM 19.38 66.884 0.353 7.75 13043.44 0.27
9/13/2022 11:45:00 PM 19.3 66.74 0.426 7.72 223.53 0.33
9/14/2022 12:00:00 AM 19.3 66.74 0.412 7.7 623.53 0.27
9/14/2022 12:15:00 AM 19.24 66.632 0.386 7.75 222.7 0.27
9/14/2022 12:30:00 AM 19.18 66.524 0.382 7.75 203.54 0.27
9/14/2022 12:45:00 AM 19.13 66.434 0.378 7.75 213.69 0.27
9/14/2022 1:00:00 AM 19.08 66.344 0.373 7.75 218.96 0.27
9/14/2022 1:15:00 AM 19.03 66.254 0.368 7.75 225.24 0.27
9/14/2022 1:30:00 AM 18.97 66.146 0.362 7.75 227.27 0.27
9/14/2022 1:45:00 AM 18.92 66.056 0.353 7.75 210 0.27
9/14/2022 2:00:00 AM 18.87 65.966 0.344 7.74 216.91 0.27
9/14/2022 2:15:00 AM 18.81 65.858 0.333 7.74 210.36 0.27
9/14/2022 2:30:00 AM 18.76 65.768 0.319 7.75 215.01 0.27
9/14/2022 2:45:00 AM 18.64 65.552 0.419 7.74 230.69 0.34
9/14/2022 3:00:00 AM 18.64 65.552 0.398 7.75 378.54 0.28
9/14/2022 3:15:00 AM 18.57 65.426 0.39 7.75 431.25 0.28
9/14/2022 3:30:00 AM 18.5 65.3 0.379 7.74 534.56 0.28
9/14/2022 3:45:00 AM 18.44 65.192 0.368 7.74 246.89 0.28
9/14/2022 4:00:00 AM 18.37 65.066 0.352 7.73 258.51 0.28
9/14/2022 4:15:00 AM 18.28 64.904 0.427 7.74 216.02 0.44
9/14/2022 4:30:00 AM 18.25 64.85 0.435 7.74 422.97 0.28
9/14/2022 4:45:00 AM 18.18 64.724 0.426 7.74 455.35 0.28
9/14/2022 5:00:00 AM 18.11 64.598 0.42 7.74 1119.67 0.28
9/14/2022 5:15:00 AM 18.05 64.49 0.414 7.74 856.13 0.28
9/14/2022 5:30:00 AM 17.98 64.364 0.406 7.73 1018.72 0.28
9/14/2022 5:45:00 AM 17.9 64.22 0.397 7.74 498.11 0.28
9/14/2022 6:00:00 AM 17.83 64.094 0.386 7.74 809.31 0.28
9/14/2022 6:15:00 AM 17.77 63.986 0.373 7.74 837.75 0.28
9/14/2022 6:30:00 AM 17.7 63.86 0.349 7.73 655.9 0.28
9/14/2022 6:45:00 AM 17.6 63.68 0.382 7.73 246.69 0.46
9/14/2022 7:00:00 AM 17.53 63.554 0.413 7.74 390.89 0.29
9/14/2022 7:15:00 AM 17.53 63.554 0.401 7.73 306.71 0.28
9/14/2022 7:30:00 AM 17.48 63.464 0.4 7.74 269.38 0.28
9/14/2022 7:45:00 AM 17.43 63.374 0.397 7.74 300.29 0.28
9/14/2022 8:00:00 AM 17.38 63.284 0.387 7.74 368.99 0.28
9/14/2022 8:15:00 AM 17.34 63.212 0.371 7.74 366.62 0.28
9/14/2022 8:30:00 AM 17.29 63.122 0.376 7.65 225.76 0.29
9/14/2022 8:45:00 AM 17.25 63.05 0.432 7.7 213.09 0.29
9/14/2022 9:00:00 AM 17.3 63.14 0.41 7.73 306.97 0.28
9/14/2022 9:15:00 AM 17.3 63.14 0.378 7.73 323.71 0.28
9/14/2022 9:30:00 AM 17.31 63.158 0.369 7.75 370.25 0.28
9/14/2022 9:45:00 AM 17.33 63.194 0.364 7.75 319.94 0.28
9/14/2022 10:00:00 AM 17.36 63.248 0.364 7.76 346.79 0.28
9/14/2022 10:15:00 AM 17.4 63.32 0.361 7.77 403.38 0.28
9/14/2022 10:30:00 AM 17.44 63.392 0.356 7.78 359.94 0.28
9/14/2022 10:45:00 AM 17.49 63.482 0.352 7.78 362.72 0.28
9/14/2022 11:00:00 AM 17.54 63.572 0.347 7.79 354.13 0.28
9/14/2022 11:15:00 AM 17.62 63.716 0.425 7.74 225.23 0.3
9/14/2022 11:30:00 AM 17.69 63.842 0.421 7.77 419.74 0.32
9/14/2022 11:45:00 AM 17.78 64.004 0.4 7.82 3213.19 0.28
9/14/2022 12:00:00 PM 17.88 64.184 0.391 7.84 10522.27 0.28
9/14/2022 12:15:00 PM 18 64.4 0.372 7.85 8983.84 0.28
9/14/2022 12:30:00 PM 18.2 64.76 0.427 7.75 232.9 0.29
9/14/2022 12:45:00 PM 18.28 64.904 0.426 7.78 610.29 0.29
9/14/2022 1:00:00 PM 18.42 65.156 0.418 7.79 623.49 0.28
9/14/2022 1:15:00 PM 18.55 65.39 0.412 7.69 623.7 0.27
9/14/2022 1:30:00 PM 18.7 65.66 0.407 7.75 574.74 0.27
9/14/2022 1:45:00 PM 18.84 65.912 0.4 7.78 578.52 0.27
9/14/2022 2:00:00 PM 18.98 66.164 0.387 7.78 455.46 0.27
9/14/2022 2:15:00 PM 19.11 66.398 0.37 7.86 495.69 0.27
9/14/2022 2:30:00 PM 19.32 66.776 0.44 7.75 209.05 0.27
9/14/2022 2:45:00 PM 19.39 66.902 0.428 7.81 567.28 0.27
9/14/2022 3:00:00 PM 19.53 67.154 0.411 7.93 290.72 0.27
9/14/2022 3:15:00 PM 19.65 67.37 0.414 7.95 323.7 0.27
9/14/2022 3:30:00 PM 19.77 67.586 0.407 7.96 411.76 0.27
9/14/2022 3:45:00 PM 19.83 67.694 0.397 7.98 484.79 0.27
9/14/2022 4:00:00 PM 19.88 67.784 0.373 8 296.69 0.27
9/14/2022 4:15:00 PM 19.96 67.92799 0.41 7.76 256.37 0.31
9/14/2022 4:30:00 PM 19.92 67.856 0.409 7.81 239.18 0.27
9/14/2022 4:45:00 PM 19.96 67.92799 0.42 7.75 243.36 0.32
9/14/2022 5:00:00 PM 19.92 67.856 0.413 7.81 1013.26 0.3
9/14/2022 5:15:00 PM 19.9 67.82 0.382 7.97 1349.44 0.27
9/14/2022 5:30:00 PM 19.86 67.748 0.433 7.74 252.85 0.33
9/14/2022 5:45:00 PM 19.81 67.658 0.361 7.77 702.21 0.27
9/14/2022 6:00:00 PM 19.75 67.55 0.357 7.9 216.74 0.27
9/14/2022 6:15:00 PM 19.69 67.442 0.358 7.92 263.09 0.27
9/14/2022 6:30:00 PM 19.63 67.334 0.356 7.9 307.49 0.27
9/14/2022 6:45:00 PM 19.57 67.226 0.347 7.9 353.03 0.27
9/14/2022 7:00:00 PM 19.49 67.082 0.424 7.76 243.28 0.3
9/14/2022 7:15:00 PM 19.44 66.992 0.418 7.82 600.54 0.27
9/14/2022 7:30:00 PM 19.35 66.83 0.432 7.73 240.26 0.27
9/14/2022 7:45:00 PM 19.29 66.722 0.433 7.71 171.46 0.27
9/14/2022 8:00:00 PM 19.2 66.56 0.432 7.7 251.71 0.27
9/14/2022 8:15:00 PM 19.15 66.47 0.427 7.69 447.02 0.35
9/14/2022 8:30:00 PM 19.1 66.38 0.401 7.81 432.18 0.27
9/14/2022 8:45:00 PM 19.04 66.272 0.382 7.8 418.79 0.27
9/14/2022 9:00:00 PM 18.95 66.11 0.413 7.68 209.41 0.37
9/14/2022 9:15:00 PM 18.91 66.038 0.439 7.68 565.37 0.38
9/14/2022 9:30:00 PM 18.86 65.948 0.412 7.68 1107.1 0.42
9/14/2022 9:45:00 PM 18.81 65.858 0.414 7.66 1205.08 0.37
9/14/2022 10:00:00 PM 18.77 65.786 0.395 7.65 387.36 0.49
9/14/2022 10:15:00 PM 18.73 65.714 0.428 7.63 780.38 0.28
9/14/2022 10:30:00 PM 18.67 65.606 0.425 7.62 1632.45 0.57
9/14/2022 10:45:00 PM 18.63 65.534 0.397 7.62 716.46 0.91
9/14/2022 11:00:00 PM 18.6 65.48 0.317 7.6 1794.13 0.42
9/14/2022 11:15:00 PM 18.54 65.372 0.428 7.6 1401.43 0.63
9/14/2022 11:30:00 PM 18.5 65.3 0.422 7.6 1073.6 0.36
9/14/2022 11:45:00 PM 18.48 65.264 0.405 7.59 1203.76 0.84
9/15/2022 12:00:00 AM 18.43 65.174 0.399 7.58 413.64 1.38
9/15/2022 12:15:00 AM 18.4 65.12 0.418 7.58 1804.47 1.02
9/15/2022 12:30:00 AM 18.35 65.03 0.427 7.58 242.41 0.36
9/15/2022 12:45:00 AM 18.34 65.012 0.409 7.7 417.85 0.28
9/15/2022 1:00:00 AM 18.3 64.94 0.411 7.7 426.41 0.28
9/15/2022 1:15:00 AM 18.24 64.832 0.439 7.57 1399.01 0.74
9/15/2022 1:30:00 AM 18.2 64.76 0.439 7.57 1379.17 0.74
9/15/2022 1:45:00 AM 18.17 64.706 0.431 7.55 605.94 0.31
9/15/2022 2:00:00 AM 18.14 64.652 0.301 7.56 846.31 1.13
9/15/2022 2:15:00 AM 18.12 64.616 0.429 7.57 2281.43 0.36
9/15/2022 2:30:00 AM 18.07 64.526 0.427 7.54 2776.62 1.31
9/15/2022 2:45:00 AM 18.03 64.454 0.421 7.54 1214.61 0.93
9/15/2022 3:00:00 AM 17.99 64.382 0.424 7.55 1617.47 0.68
9/15/2022 3:15:00 AM 17.96 64.328 0.324 7.54 630.07 0.9
9/15/2022 3:30:00 AM 17.9 64.22 0.433 7.55 537.79 1.31
9/15/2022 3:45:00 AM 17.87 64.166 0.4 7.56 364.76 0.37
9/15/2022 4:00:00 AM 17.83 64.094 0.448 7.54 2072.5 0.74
9/15/2022 4:15:00 AM 17.8 64.04 0.427 7.55 1667.12 1.39
9/15/2022 4:30:00 AM 17.74 63.932 0.432 7.52 1013.48 1.24
9/15/2022 4:45:00 AM 17.71 63.878 0.392 7.54 1667.11 0.33
9/15/2022 5:00:00 AM 17.67 63.806 0.424 7.52 349.5 0.8
9/15/2022 5:15:00 AM 17.6 63.68 0.28 7.54 1936.82 0.41
9/15/2022 5:30:00 AM 17.53 63.554 0.424 7.54 779.1 1.05
9/15/2022 5:45:00 AM 17.51 63.518 0.415 7.56 2770.28 0.28
9/15/2022 6:00:00 AM 17.44 63.392 0.432 7.55 2183.11 1.12
9/15/2022 6:15:00 AM 17.37 63.266 0.389 7.55 1960.29 0.29
9/15/2022 6:30:00 AM 17.34 63.212 0.366 7.59 2407.66 0.87
9/15/2022 6:45:00 AM 17.28 63.104 0.416 7.55 854.49 1.34
9/15/2022 7:00:00 AM 17.25 63.05 0.375 7.55 468.89 1.42
9/15/2022 7:15:00 AM 17.18 62.924 0.32 7.53 255.79 1.01
9/15/2022 7:30:00 AM 17.19 62.942 0.395 7.56 213.33 0.29
9/15/2022 7:45:00 AM 17.14 62.852 0.39 7.47 350.75 0.28
9/15/2022 8:00:00 AM 17.11 62.798 0.39 7.47 400.71 0.28
9/15/2022 8:15:00 AM 17.08 62.744 0.389 7.47 427.17 0.28
9/15/2022 8:30:00 AM 17.06 62.708 0.39 7.49 436.91 0.28
9/15/2022 8:45:00 AM 17.06 62.708 0.392 7.49 439.36 0.28
9/15/2022 9:00:00 AM 17.06 62.708 0.394 7.49 436.02 0.28
9/15/2022 9:15:00 AM 17.06 62.708 0.396 7.5 431.26 0.28
9/15/2022 9:30:00 AM 17.07 62.726 0.398 7.51 431.44 0.28
9/15/2022 9:45:00 AM 17.09 62.762 0.4 7.51 445.17 0.28
9/15/2022 10:00:00 AM 17.1 62.78 0.402 7.51 447.39 0.28
9/15/2022 10:15:00 AM 17.13 62.834 0.404 7.46 446.46 0.28
9/15/2022 10:30:00 AM 17.17 62.906 0.406 7.49 446.5 0.28
9/15/2022 10:45:00 AM 17.19 62.942 0.408 7.5 446.17 0.28
9/15/2022 11:00:00 AM 17.22 62.996 0.41 7.5 443.43 0.28
9/15/2022 11:15:00 AM 17.26 63.068 0.412 7.51 437.3 0.28
9/15/2022 11:30:00 AM 17.3 63.14 0.414 7.5 434.26 0.28
9/15/2022 11:45:00 AM 17.36 63.248 0.415 7.47 425.45 0.28
9/15/2022 12:00:00 PM 17.43 63.374 0.416 7.47 418.87 0.28
9/15/2022 12:15:00 PM 17.53 63.554 0.418 7.49 415.45 0.28
9/15/2022 12:30:00 PM 17.64 63.752 0.419 7.51 409.03 0.28
9/15/2022 12:45:00 PM 17.77 63.986 0.42 7.5 408.27 0.28
9/15/2022 1:00:00 PM 17.9 64.22 0.421 7.5 404.33 0.28
9/15/2022 1:15:00 PM 18.03 64.454 0.422 7.52 399.01 0.28
9/15/2022 1:30:00 PM 18.17 64.706 0.424 7.52 393.36 0.27
9/15/2022 1:45:00 PM 18.31 64.958 0.425 7.52 391.53 0.27
9/15/2022 2:00:00 PM 18.46 65.228 0.426 7.53 388.48 0.27
9/15/2022 2:15:00 PM 18.61 65.498 0.427 7.53 384.49 0.27
9/15/2022 2:30:00 PM 18.74 65.732 0.429 7.54 380.07 0.27
9/15/2022 2:45:00 PM 18.85 65.93 0.429 7.55 375.22 0.27
9/15/2022 3:00:00 PM 18.95 66.11 0.431 7.51 370.81 0.27
9/15/2022 3:15:00 PM 19.06 66.308 0.432 7.47 368.79 0.27
9/15/2022 3:30:00 PM 19.14 66.452 0.433 7.49 365.32 0.27
9/15/2022 3:45:00 PM 19.2 66.56 0.434 7.47 363.09 0.27
9/15/2022 4:00:00 PM 19.26 66.668 0.435 7.47 361.62 0.27
9/15/2022 4:15:00 PM 19.29 66.722 0.436 7.49 358.85 0.27
9/15/2022 4:30:00 PM 19.31 66.758 0.437 7.47 358.27 0.27
9/15/2022 4:45:00 PM 19.3 66.74 0.439 7.48 355.99 0.27
9/15/2022 5:00:00 PM 19.28 66.704 0.44 7.48 355.01 0.27
9/15/2022 5:15:00 PM 19.24 66.632 0.441 7.49 353.88 0.27
9/15/2022 5:30:00 PM 19.19 66.542 0.442 7.5 352.74 0.27
9/15/2022 5:45:00 PM 19.12 66.416 0.442 7.49 352.22 0.27
9/15/2022 6:00:00 PM 19.06 66.308 0.443 7.5 350.97 0.27
9/15/2022 6:15:00 PM 18.99 66.182 0.443 7.5 349.84 0.27
9/15/2022 6:30:00 PM 18.92 66.056 0.444 7.52 349.34 0.27
9/15/2022 6:45:00 PM 18.85 65.93 0.444 7.5 347.67 0.27
9/15/2022 7:00:00 PM 18.77 65.786 0.445 7.5 343.64 0.27
9/15/2022 7:15:00 PM 18.69 65.642 0.445 7.5 342.99 0.27
9/15/2022 7:30:00 PM 18.6 65.48 0.446 7.5 340.61 0.27
9/15/2022 7:45:00 PM 18.5 65.3 0.446 7.5 334.77 0.27
9/15/2022 8:00:00 PM 18.41 65.138 0.447 7.49 334.37 0.27
9/15/2022 8:15:00 PM 18.34 65.012 0.447 7.48 320.21 0.28
9/15/2022 8:30:00 PM 18.23 64.814 0.448 7.5 320.74 0.28
9/15/2022 8:45:00 PM 18.11 64.598 0.448 7.5 321.39 0.28
9/15/2022 9:00:00 PM 18 64.4 0.448 7.5 320.55 0.28
9/15/2022 9:15:00 PM 17.9 64.22 0.449 7.5 320.36 0.28
9/15/2022 9:30:00 PM 17.81 64.058 0.449 7.5 319.44 0.28
9/15/2022 9:45:00 PM 17.72 63.896 0.45 7.54 302.73 0.28
9/15/2022 10:00:00 PM 17.63 63.734 0.45 7.53 302.85 0.28
9/15/2022 10:15:00 PM 17.56 63.608 0.45 7.53 304.02 0.28
9/15/2022 10:30:00 PM 17.48 63.464 0.451 7.53 302.66 0.28
9/15/2022 10:45:00 PM 17.41 63.338 0.451 7.53 302.26 0.28
9/15/2022 11:00:00 PM 17.33 63.194 0.451 7.53 302.52 0.28
9/15/2022 11:15:00 PM 17.26 63.068 0.451 7.52 302.41 0.28
9/15/2022 11:30:00 PM 17.2 62.96 0.452 7.53 302.09 0.28
9/15/2022 11:45:00 PM 17.14 62.852 0.453 7.54 299.67 0.28
9/16/2022 12:00:00 AM 17.07 62.726 0.453 7.53 298.87 0.28
9/16/2022 12:15:00 AM 17.01 62.618 0.453 7.52 298.52 0.28
9/16/2022 12:30:00 AM 16.94 62.492 0.453 7.52 297.75 0.28
9/16/2022 12:45:00 AM 16.87 62.366 0.453 7.52 297.56 0.28
9/16/2022 1:00:00 AM 16.81 62.258 0.453 7.54 297.23 0.28
9/16/2022 1:15:00 AM 16.75 62.15 0.452 7.53 296.54 0.29
9/16/2022 1:30:00 AM 16.69 62.042 0.452 7.54 298.95 0.29
9/16/2022 1:45:00 AM 16.63 61.934 0.452 7.54 298.16 0.29
9/16/2022 2:00:00 AM 16.57 61.826 0.452 7.55 297.3 0.29
9/16/2022 2:15:00 AM 16.52 61.736 0.451 7.54 298.44 0.29
9/16/2022 2:30:00 AM 16.46 61.628 0.451 7.55 299.29 0.29
9/16/2022 2:45:00 AM 16.4 61.52 0.451 7.55 297.96 0.29
9/16/2022 3:00:00 AM 16.33 61.394 0.45 7.55 297.66 0.29
9/16/2022 3:15:00 AM 16.28 61.304 0.451 7.54 296.17 0.31
9/16/2022 3:30:00 AM 16.23 61.214 0.451 7.54 297.35 0.3
9/16/2022 3:45:00 AM 16.17 61.106 0.451 7.55 294.13 0.31
9/16/2022 4:00:00 AM 16.12 61.016 0.451 7.55 294.8 0.3
9/16/2022 4:15:00 AM 16.07 60.926 0.452 7.58 293.77 0.3
9/16/2022 4:30:00 AM 16.02 60.836 0.451 7.55 292.15 0.31
9/16/2022 4:45:00 AM 15.94 60.692 0.451 7.53 292.36 0.37
9/16/2022 5:00:00 AM 15.88 60.584 0.451 7.54 291.42 0.31
9/16/2022 5:15:00 AM 15.82 60.476 0.45 7.54 290.26 0.32
9/16/2022 5:30:00 AM 15.76 60.368 0.449 7.54 291.03 0.33
9/16/2022 5:45:00 AM 15.7 60.26 0.449 7.54 289.67 0.32
9/16/2022 6:00:00 AM 15.64 60.152 0.448 7.54 290.11 0.36
9/16/2022 6:15:00 AM 15.59 60.062 0.448 7.54 289.82 0.32
9/16/2022 6:30:00 AM 15.53 59.954 0.448 7.55 289.87 0.32
9/16/2022 6:45:00 AM 15.47 59.846 0.448 7.55 288.92 0.3
9/16/2022 7:00:00 AM 15.42 59.756 0.448 7.55 287.82 0.3
9/16/2022 7:15:00 AM 15.36 59.648 0.448 7.55 288.47 0.32
9/16/2022 7:30:00 AM 15.31 59.558 0.448 7.55 287.85 0.32
9/16/2022 7:45:00 AM 15.26 59.468 0.448 7.54 287.03 0.32
9/16/2022 8:00:00 AM 15.22 59.396 0.448 7.55 286.64 0.35
9/16/2022 8:15:00 AM 15.18 59.324 0.448 7.55 286.72 0.34
9/16/2022 8:30:00 AM 15.15 59.27 0.448 7.54 287.07 0.33
9/16/2022 8:45:00 AM 15.14 59.252 0.447 7.55 286.3 0.31
9/16/2022 9:00:00 AM 15.15 59.27 0.448 7.54 283.39 0.3
9/16/2022 9:15:00 AM 15.15 59.27 0.447 7.53 273.34 0.32
9/16/2022 9:30:00 AM 15.17 59.306 0.448 7.54 276.6 0.32
9/16/2022 9:45:00 AM 15.21 59.378 0.448 7.54 277.25 0.33
9/16/2022 10:00:00 AM 15.25 59.45 0.448 7.53 275.31 0.32
9/16/2022 10:15:00 AM 15.3 59.54 0.448 7.54 275.92 0.39
9/16/2022 10:30:00 AM 15.35 59.63 0.447 7.53 276.8 0.38
9/16/2022 10:45:00 AM 15.41 59.738 0.447 7.55 274.11 0.4
9/16/2022 11:00:00 AM 15.49 59.882 0.447 7.55 275.09 0.37
9/16/2022 11:15:00 AM 15.57 60.026 0.447 7.56 275.88 0.33
9/16/2022 11:30:00 AM 15.65 60.17 0.447 7.55 274.3 0.35
9/16/2022 11:45:00 AM 15.75 60.35 0.448 7.57 272.92 0.34
9/16/2022 12:00:00 PM 15.86 60.548 0.448 7.56 273.75 0.4
9/16/2022 12:15:00 PM 16 60.8 0.448 7.56 274.49 0.38
9/16/2022 12:30:00 PM 16.15 61.07 0.449 7.58 273.59 0.33
9/16/2022 12:45:00 PM 16.32 61.376 0.449 7.55 276.06 0.41
9/16/2022 1:00:00 PM 16.47 61.646 0.449 7.55 276.36 0.39
9/16/2022 1:15:00 PM 16.64 61.952 0.45 7.57 272.4 0.44
9/16/2022 1:30:00 PM 16.82 62.276 0.451 7.57 274.52 0.29
9/16/2022 1:45:00 PM 17 62.6 0.451 7.56 272.31 0.29
9/16/2022 2:00:00 PM 17.17 62.906 0.451 7.55 264.56 0.44
9/16/2022 2:15:00 PM 17.33 63.194 0.452 7.56 273.1 0.47
9/16/2022 2:30:00 PM 17.47 63.446 0.451 7.57 275.74 0.41
9/16/2022 2:45:00 PM 17.61 63.698 0.452 7.56 280.3 0.38
9/16/2022 3:00:00 PM 17.73 63.914 0.453 7.55 281.31 0.36
9/16/2022 3:15:00 PM 17.84 64.112 0.454 7.55 281.08 0.38
9/16/2022 3:30:00 PM 17.95 64.31 0.454 7.56 282.66 0.28
9/16/2022 3:45:00 PM 18.04 64.472 0.454 7.59 286.08 0.28
9/16/2022 4:00:00 PM 18.12 64.616 0.454 7.58 285.36 0.29
9/16/2022 4:15:00 PM 18.17 64.706 0.454 7.57 285.11 0.29
9/16/2022 4:30:00 PM 18.21 64.778 0.454 7.56 285.78 0.33
9/16/2022 4:45:00 PM 18.24 64.832 0.453 7.56 287.28 0.28
9/16/2022 5:00:00 PM 18.25 64.85 0.453 7.54 286.88 0.41
9/16/2022 5:15:00 PM 18.24 64.832 0.452 7.55 286.74 0.34
9/16/2022 5:30:00 PM 18.24 64.832 0.452 7.56 286.41 0.38
9/16/2022 5:45:00 PM 18.21 64.778 0.452 7.55 287.06 0.35
9/16/2022 6:00:00 PM 18.14 64.652 0.451 7.55 288.1 0.32
9/16/2022 6:15:00 PM 18.09 64.562 0.451 7.55 287.58 0.39
9/16/2022 6:30:00 PM 18.04 64.472 0.451 7.58 289 0.32
9/16/2022 6:45:00 PM 17.99 64.382 0.45 7.56 288.75 0.36
9/16/2022 7:00:00 PM 17.93 64.274 0.45 7.57 290.68 0.31
9/16/2022 7:15:00 PM 17.86 64.148 0.449 7.54 290.78 0.35
9/16/2022 7:30:00 PM 17.78 64.004 0.449 7.58 292.28 0.31
9/16/2022 7:45:00 PM 17.71 63.878 0.448 7.56 293.72 0.3
9/16/2022 8:00:00 PM 17.63 63.734 0.447 7.56 293.32 0.42
9/16/2022 8:15:00 PM 17.55 63.59 0.446 7.55 293.2 0.37
9/16/2022 8:30:00 PM 17.46 63.428 0.446 7.55 291.85 0.33
9/16/2022 8:45:00 PM 17.38 63.284 0.447 7.54 293.15 0.43
9/16/2022 9:00:00 PM 17.3 63.14 0.446 7.54 294.31 0.41
9/16/2022 9:15:00 PM 17.22 62.996 0.445 7.53 294.25 0.38
9/16/2022 9:30:00 PM 17.15 62.87 0.444 7.52 293.85 0.38
9/16/2022 9:45:00 PM 17.08 62.744 0.443 7.53 293.31 0.36
9/16/2022 10:00:00 PM 17.01 62.618 0.443 7.54 292.99 0.44
9/16/2022 10:15:00 PM 16.95 62.51 0.443 7.55 291.47 0.35
9/16/2022 10:30:00 PM 16.89 62.402 0.442 7.52 288.84 0.42
9/16/2022 10:45:00 PM 16.84 62.312 0.443 7.52 289.89 0.34
9/16/2022 11:00:00 PM 16.8 62.24 0.443 7.52 290.35 0.42
9/16/2022 11:15:00 PM 16.75 62.15 0.443 7.52 290.51 0.41
9/16/2022 11:30:00 PM 16.7 62.06 0.442 7.52 291.14 0.35
9/16/2022 11:45:00 PM 16.66 61.988 0.443 7.53 291.12 0.46
9/17/2022 12:00:00 AM 16.61 61.898 0.441 7.51 290.74 0.35
9/17/2022 12:15:00 AM 16.57 61.826 0.442 7.53 291.64 0.41
9/17/2022 12:30:00 AM 16.53 61.754 0.441 7.52 292.31 0.44
9/17/2022 12:45:00 AM 16.5 61.7 0.442 7.52 293.46 0.43
9/17/2022 1:00:00 AM 16.5 61.7 0.442 7.51 294.56 0.38
9/17/2022 1:15:00 AM 16.48 61.664 0.441 7.51 294.5 0.35
9/17/2022 1:30:00 AM 16.44 61.592 0.441 7.51 294.5 0.34
9/17/2022 1:45:00 AM 16.42 61.556 0.441 7.51 294.12 0.41
9/17/2022 2:00:00 AM 16.4 61.52 0.441 7.52 292.81 0.41
9/17/2022 2:15:00 AM 16.37 61.466 0.441 7.52 292.93 0.31
9/17/2022 2:30:00 AM 16.33 61.394 0.44 7.51 293.36 0.33
9/17/2022 2:45:00 AM 16.3 61.34 0.44 7.5 293.14 0.42
9/17/2022 3:00:00 AM 16.25 61.25 0.44 7.5 293.59 0.31
9/17/2022 3:15:00 AM 16.21 61.178 0.439 7.49 293.47 0.34
9/17/2022 3:30:00 AM 16.19 61.142 0.439 7.49 297.87 0.31
9/17/2022 3:45:00 AM 16.14 61.052 0.439 7.49 275.72 0.36
9/17/2022 4:00:00 AM 16.11 60.998 0.438 7.49 278.39 0.38
9/17/2022 4:15:00 AM 16.07 60.926 0.438 7.49 276.05 0.36
9/17/2022 4:30:00 AM 16.04 60.872 0.438 7.5 277 0.35
9/17/2022 4:45:00 AM 16.01 60.818 0.438 7.49 276.92 0.39
9/17/2022 5:00:00 AM 15.97 60.746 0.437 7.49 276.89 0.34
9/17/2022 5:15:00 AM 15.94 60.692 0.438 7.49 277.25 0.41
9/17/2022 5:30:00 AM 15.89 60.602 0.439 7.49 276.1 0.32
9/17/2022 5:45:00 AM 15.85 60.53 0.44 7.48 277.26 0.36
9/17/2022 6:00:00 AM 15.8 60.44 0.441 7.47 278.47 0.32
9/17/2022 6:15:00 AM 15.76 60.368 0.442 7.48 278.52 0.42
9/17/2022 6:30:00 AM 15.71 60.278 0.442 7.48 278.82 0.33
9/17/2022 6:45:00 AM 15.66 60.188 0.443 7.48 278.48 0.35
9/17/2022 7:00:00 AM 15.62 60.116 0.444 7.48 278.33 0.4
9/17/2022 7:15:00 AM 15.58 60.044 0.444 7.46 278.18 0.33
9/17/2022 7:30:00 AM 15.55 59.99 0.444 7.44 279.06 0.34
9/17/2022 7:45:00 AM 15.52 59.936 0.444 7.43 278.87 0.34
9/17/2022 8:00:00 AM 15.48 59.864 0.444 7.43 278.54 0.37
9/17/2022 8:15:00 AM 15.46 59.828 0.444 7.43 278.54 0.31
9/17/2022 8:30:00 AM 15.44 59.792 0.444 7.43 278.28 0.42
9/17/2022 8:45:00 AM 15.44 59.792 0.443 7.42 284.44 0.38
9/17/2022 9:00:00 AM 15.45 59.81 0.443 7.42 282.39 0.41
9/17/2022 9:15:00 AM 15.48 59.864 0.444 7.43 285.93 0.35
9/17/2022 9:30:00 AM 15.49 59.882 0.444 7.42 287.9 0.35
9/17/2022 9:45:00 AM 15.53 59.954 0.444 7.42 288.31 0.3
9/17/2022 10:00:00 AM 15.58 60.044 0.445 7.42 293.45 0.31
9/17/2022 10:15:00 AM 15.65 60.17 0.445 7.42 296.52 0.34
9/17/2022 10:30:00 AM 15.7 60.26 0.445 7.43 286.1 0.43
9/17/2022 10:45:00 AM 15.77 60.386 0.445 7.43 282.49 0.38
9/17/2022 11:00:00 AM 15.86 60.548 0.445 7.43 331.41 0.33
9/17/2022 11:15:00 AM 15.95 60.71 0.445 7.43 319.69 0.43
9/17/2022 11:30:00 AM 16.04 60.872 0.445 7.44 338.89 0.3
9/17/2022 11:45:00 AM 16.16 61.088 0.445 7.43 317.06 0.3
9/17/2022 12:00:00 PM 16.29 61.322 0.445 7.43 324.3 0.32
9/17/2022 12:15:00 PM 16.42 61.556 0.445 7.43 323.62 0.32
9/17/2022 12:30:00 PM 16.57 61.826 0.445 7.43 325.06 0.3
9/17/2022 12:45:00 PM 16.74 62.132 0.445 7.43 305.22 0.32
9/17/2022 1:00:00 PM 16.91 62.438 0.445 7.43 320.34 0.35
9/17/2022 1:15:00 PM 17.07 62.726 0.445 7.43 333.3 0.31
9/17/2022 1:30:00 PM 17.24 63.032 0.445 7.43 321.75 0.29
9/17/2022 1:45:00 PM 17.43 63.374 0.445 7.44 300.9 0.31
9/17/2022 2:00:00 PM 17.61 63.698 0.446 7.45 316.63 0.29
9/17/2022 2:15:00 PM 17.78 64.004 0.446 7.45 315.03 0.34
9/17/2022 2:30:00 PM 17.94 64.292 0.446 7.44 320.22 0.29
9/17/2022 2:45:00 PM 18.09 64.562 0.446 7.44 322.58 0.33
9/17/2022 3:00:00 PM 18.23 64.814 0.446 7.44 313.89 0.28
9/17/2022 3:15:00 PM 18.36 65.048 0.446 7.45 313.8 0.28
9/17/2022 3:30:00 PM 18.47 65.246 0.447 7.45 329.01 0.28
9/17/2022 3:45:00 PM 18.57 65.426 0.446 7.45 313.96 0.34
9/17/2022 4:00:00 PM 18.66 65.588 0.446 7.45 303.68 0.34
9/17/2022 4:15:00 PM 18.73 65.714 0.446 7.45 298.91 0.36
9/17/2022 4:30:00 PM 18.78 65.804 0.445 7.45 296.63 0.38
9/17/2022 4:45:00 PM 18.81 65.858 0.445 7.46 297.44 0.3
9/17/2022 5:00:00 PM 18.81 65.858 0.445 7.46 294.36 0.29
9/17/2022 5:15:00 PM 18.78 65.804 0.445 7.47 294.5 0.31
9/17/2022 5:30:00 PM 18.74 65.732 0.444 7.47 295.1 0.3
9/17/2022 5:45:00 PM 18.7 65.66 0.443 7.47 293.27 0.29
9/17/2022 6:00:00 PM 18.67 65.606 0.443 7.48 293.1 0.36
9/17/2022 6:15:00 PM 18.64 65.552 0.443 7.48 292.36 0.34
9/17/2022 6:30:00 PM 18.59 65.462 0.443 7.48 291.73 0.34
9/17/2022 6:45:00 PM 18.55 65.39 0.443 7.49 291.77 0.43
9/17/2022 7:00:00 PM 18.5 65.3 0.444 7.49 292.27 0.31
9/17/2022 7:15:00 PM 18.44 65.192 0.444 7.49 292.43 0.3
9/17/2022 7:30:00 PM 18.38 65.084 0.445 7.49 291.76 0.34
9/17/2022 7:45:00 PM 18.32 64.976 0.445 7.49 290.52 0.28
9/17/2022 8:00:00 PM 18.25 64.85 0.445 7.5 290.52 0.29
9/17/2022 8:15:00 PM 18.19 64.742 0.445 7.5 290.83 0.33
9/17/2022 8:30:00 PM 18.12 64.616 0.445 7.5 291.51 0.33
9/17/2022 8:45:00 PM 18.05 64.49 0.445 7.51 291.36 0.31
9/17/2022 9:00:00 PM 17.98 64.364 0.444 7.51 290.8 0.4
9/17/2022 9:15:00 PM 17.92 64.256 0.445 7.51 290.16 0.31
9/17/2022 9:30:00 PM 17.86 64.148 0.443 7.51 290.28 0.38
9/17/2022 9:45:00 PM 17.81 64.058 0.443 7.52 290.22 0.32
9/17/2022 10:00:00 PM 17.75 63.95 0.443 7.52 290.39 0.3
9/17/2022 10:15:00 PM 17.7 63.86 0.442 7.52 290.2 0.32
9/17/2022 10:30:00 PM 17.65 63.77 0.441 7.52 289.74 0.36
9/17/2022 10:45:00 PM 17.61 63.698 0.44 7.53 289.87 0.31
9/17/2022 11:00:00 PM 17.56 63.608 0.439 7.53 289.6 0.47
9/17/2022 11:15:00 PM 17.52 63.536 0.438 7.53 288.66 0.32
9/17/2022 11:30:00 PM 17.48 63.464 0.436 7.53 288.76 0.51
9/17/2022 11:45:00 PM 17.43 63.374 0.436 7.53 288.73 0.46
9/18/2022 12:00:00 AM 17.39 63.302 0.435 7.53 288.94 0.38
9/18/2022 12:15:00 AM 17.35 63.23 0.434 7.53 288.52 0.53
9/18/2022 12:30:00 AM 17.31 63.158 0.433 7.53 288.38 0.5
9/18/2022 12:45:00 AM 17.26 63.068 0.433 7.53 288.25 0.51
9/18/2022 1:00:00 AM 17.22 62.996 0.432 7.53 287.64 0.34
9/18/2022 1:15:00 AM 17.18 62.924 0.432 7.53 287.74 0.39
9/18/2022 1:30:00 AM 17.14 62.852 0.431 7.53 287.38 0.49
9/18/2022 1:45:00 AM 17.11 62.798 0.431 7.53 287.03 0.35
9/18/2022 2:00:00 AM 17.07 62.726 0.43 7.53 286.71 0.4
9/18/2022 2:15:00 AM 17.03 62.654 0.43 7.53 285.91 0.47
9/18/2022 2:30:00 AM 17 62.6 0.428 7.53 285.72 0.35
9/18/2022 2:45:00 AM 16.96 62.528 0.428 7.53 285.95 0.35
9/18/2022 3:00:00 AM 16.93 62.474 0.427 7.53 285.64 0.5
9/18/2022 3:15:00 AM 16.89 62.402 0.426 7.53 285.9 0.34
9/18/2022 3:30:00 AM 16.86 62.348 0.426 7.53 285.89 0.31
9/18/2022 3:45:00 AM 16.82 62.276 0.425 7.53 285.3 0.36
9/18/2022 4:00:00 AM 16.79 62.222 0.425 7.53 284.98 0.33
9/18/2022 4:15:00 AM 16.75 62.15 0.424 7.53 284.44 0.41
9/18/2022 4:30:00 AM 16.71 62.078 0.424 7.53 284.32 0.42
9/18/2022 4:45:00 AM 16.67 62.006 0.424 7.53 284 0.45
9/18/2022 5:00:00 AM 16.63 61.934 0.424 7.53 283.73 0.36
9/18/2022 5:15:00 AM 16.59 61.862 0.424 7.53 283.19 0.45
9/18/2022 5:30:00 AM 16.55 61.79 0.424 7.53 283.19 0.34
9/18/2022 5:45:00 AM 16.52 61.736 0.423 7.53 283.27 0.44
9/18/2022 6:00:00 AM 16.48 61.664 0.424 7.53 283.04 0.32
9/18/2022 6:15:00 AM 16.44 61.592 0.424 7.53 283.02 0.38
9/18/2022 6:30:00 AM 16.41 61.538 0.424 7.53 282.95 0.42
9/18/2022 6:45:00 AM 16.37 61.466 0.423 7.53 282.31 0.35
9/18/2022 7:00:00 AM 16.33 61.394 0.423 7.53 282.14 0.49
9/18/2022 7:15:00 AM 16.29 61.322 0.422 7.53 282.45 0.32
9/18/2022 7:30:00 AM 16.26 61.268 0.422 7.53 281.91 0.35
9/18/2022 7:45:00 AM 16.24 61.232 0.421 7.53 281.55 0.41
9/18/2022 8:00:00 AM 16.21 61.178 0.422 7.53 281.19 0.34
9/18/2022 8:15:00 AM 16.19 61.142 0.421 7.53 281.94 0.32
9/18/2022 8:30:00 AM 16.18 61.124 0.422 7.53 281.03 0.32
9/18/2022 8:45:00 AM 16.19 61.142 0.421 7.53 281.21 0.46
9/18/2022 9:00:00 AM 16.2 61.16 0.421 7.53 280.71 0.41
9/18/2022 9:15:00 AM 16.23 61.214 0.422 7.53 280.83 0.31
9/18/2022 9:30:00 AM 16.27 61.286 0.422 7.53 280.54 0.31
9/18/2022 9:45:00 AM 16.31 61.358 0.422 7.53 280.25 0.34
9/18/2022 10:00:00 AM 16.35 61.43 0.423 7.53 280.59 0.42
9/18/2022 10:15:00 AM 16.41 61.538 0.423 7.53 280.76 0.5
9/18/2022 10:30:00 AM 16.46 61.628 0.423 7.53 280.72 0.36
9/18/2022 10:45:00 AM 16.53 61.754 0.423 7.53 280.33 0.39
9/18/2022 11:00:00 AM 16.6 61.88 0.423 7.53 280.12 0.45
9/18/2022 11:15:00 AM 16.68 62.024 0.423 7.53 279.76 0.4
9/18/2022 11:30:00 AM 16.77 62.186 0.423 7.54 279.61 0.42
9/18/2022 11:45:00 AM 16.87 62.366 0.423 7.55 279.89 0.47
9/18/2022 12:00:00 PM 16.98 62.564 0.423 7.54 279.63 0.32
9/18/2022 12:15:00 PM 17.1 62.78 0.423 7.55 279.64 0.33
9/18/2022 12:30:00 PM 17.24 63.032 0.42 7.54 280.08 0.41
9/18/2022 12:45:00 PM 17.4 63.32 0.421 7.54 280.28 0.45
9/18/2022 1:00:00 PM 17.57 63.626 0.42 7.54 281.11 0.34
9/18/2022 1:15:00 PM 17.75 63.95 0.421 7.54 281.39 0.38
9/18/2022 1:30:00 PM 17.93 64.274 0.42 7.54 284.82 0.29
9/18/2022 1:45:00 PM 18.11 64.598 0.42 7.54 293.38 0.51
9/18/2022 2:00:00 PM 18.29 64.922 0.42 7.54 290.25 0.49
9/18/2022 2:15:00 PM 18.45 65.21 0.42 7.54 291.85 0.46
9/18/2022 2:30:00 PM 18.57 65.426 0.42 7.54 292.48 0.42
9/18/2022 2:45:00 PM 18.68 65.624 0.42 7.53 295.76 0.5
9/18/2022 3:00:00 PM 18.8 65.84 0.421 7.54 306.71 0.42
9/18/2022 3:15:00 PM 18.94 66.092 0.42 7.54 277.25 0.39
9/18/2022 3:30:00 PM 19.03 66.254 0.42 7.53 238.55 0.35
9/18/2022 3:45:00 PM 19.09 66.362 0.422 7.54 255.09 0.3
9/18/2022 4:00:00 PM 19.15 66.47 0.421 7.54 289.26 0.53
9/18/2022 4:15:00 PM 19.19 66.542 0.421 7.53 281.08 0.52
9/18/2022 4:30:00 PM 19.21 66.578 0.421 7.54 269.62 0.43
9/18/2022 4:45:00 PM 19.24 66.632 0.421 7.54 258.56 0.47
9/18/2022 5:00:00 PM 19.26 66.668 0.422 7.54 261.62 0.33
9/18/2022 5:15:00 PM 19.29 66.722 0.422 7.54 257.99 0.33
9/18/2022 5:30:00 PM 19.29 66.722 0.423 7.53 274.94 0.32
9/18/2022 5:45:00 PM 19.27 66.686 0.422 7.54 271.31 0.35
9/18/2022 6:00:00 PM 19.26 66.668 0.422 7.54 275.03 0.4
9/18/2022 6:15:00 PM 19.23 66.614 0.423 7.55 270.5 0.33
9/18/2022 6:30:00 PM 19.19 66.542 0.423 7.55 267.45 0.44
9/18/2022 6:45:00 PM 19.15 66.47 0.422 7.55 251.26 0.31
9/18/2022 7:00:00 PM 19.12 66.416 0.422 7.55 249.95 0.35
9/18/2022 7:15:00 PM 19.07 66.326 0.421 7.56 254.94 0.39
9/18/2022 7:30:00 PM 19.03 66.254 0.421 7.56 252.47 0.34
9/18/2022 7:45:00 PM 18.98 66.164 0.419 7.57 251.69 0.54
9/18/2022 8:00:00 PM 18.93 66.074 0.418 7.57 250.96 0.49
9/18/2022 8:15:00 PM 18.87 65.966 0.418 7.58 250.53 0.36
9/18/2022 8:30:00 PM 18.82 65.876 0.417 7.59 249.93 0.48
9/18/2022 8:45:00 PM 18.77 65.786 0.416 7.59 249.39 0.44
9/18/2022 9:00:00 PM 18.71 65.67799 0.416 7.59 249.35 0.51
9/18/2022 9:15:00 PM 18.66 65.588 0.415 7.59 249.43 0.47
9/18/2022 9:30:00 PM 18.6 65.48 0.415 7.6 249.34 0.56
9/18/2022 9:45:00 PM 18.55 65.39 0.415 7.61 249.03 0.35
9/18/2022 10:00:00 PM 18.5 65.3 0.415 7.61 248.54 0.31
9/18/2022 10:15:00 PM 18.45 65.21 0.414 7.61 248.34 0.53
9/18/2022 10:30:00 PM 18.4 65.12 0.413 7.62 248.1 0.43
9/18/2022 10:45:00 PM 18.35 65.03 0.412 7.62 247.94 0.49
9/18/2022 11:00:00 PM 18.31 64.958 0.412 7.62 247.5 0.32
9/18/2022 11:15:00 PM 18.27 64.886 0.412 7.63 247.1 0.29
9/18/2022 11:30:00 PM 18.23 64.814 0.411 7.63 246.4 0.31
9/18/2022 11:45:00 PM 18.2 64.76 0.411 7.63 245.93 0.41
9/19/2022 12:00:00 AM 18.16 64.688 0.411 7.64 245.56 0.31
9/19/2022 12:15:00 AM 18.12 64.616 0.411 7.64 245.21 0.28
9/19/2022 12:30:00 AM 18.09 64.562 0.411 7.64 245.03 0.28
9/19/2022 12:45:00 AM 18.06 64.508 0.411 7.63 244.83 0.28
9/19/2022 1:00:00 AM 18.03 64.454 0.411 7.62 244.11 0.28
9/19/2022 1:15:00 AM 17.99 64.382 0.411 7.62 243.94 0.28
9/19/2022 1:30:00 AM 17.96 64.328 0.411 7.62 243.38 0.28
9/19/2022 1:45:00 AM 17.94 64.292 0.41 7.61 243.25 0.28
9/19/2022 2:00:00 AM 17.91 64.238 0.41 7.61 243.07 0.28
9/19/2022 2:15:00 AM 17.88 64.184 0.409 7.61 242.9 0.28
9/19/2022 2:30:00 AM 17.85 64.13 0.409 7.59 242.96 0.28
9/19/2022 2:45:00 AM 17.82 64.076 0.409 7.58 242.94 0.28
9/19/2022 3:00:00 AM 17.79 64.022 0.408 7.58 242.94 0.28
9/19/2022 3:15:00 AM 17.76 63.968 0.408 7.57 242.76 0.28
9/19/2022 3:30:00 AM 17.73 63.914 0.408 7.56 242.49 0.28
9/19/2022 3:45:00 AM 17.7 63.86 0.408 7.56 242.25 0.28
9/19/2022 4:00:00 AM 17.66 63.788 0.407 7.56 242.2 0.28
9/19/2022 4:15:00 AM 17.63 63.734 0.406 7.55 241.98 0.28
9/19/2022 4:30:00 AM 17.6 63.68 0.407 7.55 241.44 0.28
9/19/2022 4:45:00 AM 17.57 63.626 0.409 7.55 240.99 0.28
9/19/2022 5:00:00 AM 17.53 63.554 0.409 7.54 240.95 0.28
9/19/2022 5:15:00 AM 17.5 63.5 0.409 7.54 240.72 0.28
9/19/2022 5:30:00 AM 17.46 63.428 0.41 7.53 240.56 0.28
9/19/2022 5:45:00 AM 17.43 63.374 0.41 7.53 239.71 0.28
9/19/2022 6:00:00 AM 17.4 63.32 0.411 7.54 238.14 0.28
9/19/2022 6:15:00 AM 17.36 63.248 0.412 7.54 234.54 0.28
9/19/2022 6:30:00 AM 17.32 63.176 0.413 7.53 232.87 0.28
9/19/2022 6:45:00 AM 17.28 63.104 0.414 7.52 240.16 0.28
9/19/2022 7:00:00 AM 17.25 63.05 0.416 7.52 236.9 0.28
9/19/2022 7:15:00 AM 17.21 62.978 0.417 7.52 238.37 0.28
9/19/2022 7:30:00 AM 17.17 62.906 0.417 7.52 219.2 0.28
9/19/2022 7:45:00 AM 17.14 62.852 0.417 7.52 258.27 0.28
9/19/2022 8:00:00 AM 17.11 62.798 0.417 7.52 224.37 0.28
9/19/2022 8:15:00 AM 17.09 62.762 0.416 7.51 255.55 0.28
9/19/2022 8:30:00 AM 17.07 62.726 0.417 7.51 300.62 0.28
9/19/2022 8:45:00 AM 17.07 62.726 0.417 7.51 255.64 0.28
9/19/2022 9:00:00 AM 17.08 62.744 0.418 7.51 254.53 0.28
9/19/2022 9:15:00 AM 17.1 62.78 0.417 7.51 252.59 0.28
9/19/2022 9:30:00 AM 17.12 62.816 0.417 7.5 241.22 0.28
9/19/2022 9:45:00 AM 17.15 62.87 0.417 7.5 241.14 0.28
9/19/2022 10:00:00 AM 17.2 62.96 0.415 7.5 226.11 0.28
9/19/2022 10:15:00 AM 17.27 63.086 0.417 7.5 236.5 0.28
9/19/2022 10:30:00 AM 17.32 63.176 0.417 7.5 240.28 0.28
9/19/2022 10:45:00 AM 17.39 63.302 0.417 7.5 236.52 0.28
9/19/2022 11:00:00 AM 17.45 63.41 0.418 7.5 237.11 0.28
9/19/2022 11:15:00 AM 17.53 63.554 0.417 7.5 239.11 0.28
9/19/2022 11:30:00 AM 17.62 63.716 0.418 7.5 241.04 0.28
9/19/2022 11:45:00 AM 17.74 63.932 0.417 7.5 236.09 0.28
9/19/2022 12:00:00 PM 17.85 64.13 0.417 7.49 237.52 0.28
9/19/2022 12:15:00 PM 18.01 64.418 0.418 7.48 224.45 0.28
9/19/2022 12:30:00 PM 18.17 64.706 0.418 7.48 207.16 0.28
9/19/2022 12:45:00 PM 18.31 64.958 0.418 7.46 209.19 0.28
9/19/2022 1:00:00 PM 18.47 65.246 0.419 7.46 209.49 0.27
9/19/2022 1:15:00 PM 18.63 65.534 0.419 7.45 210.79 0.27
9/19/2022 1:30:00 PM 18.74 65.732 0.42 7.45 209.26 0.27
9/19/2022 1:45:00 PM 18.83 65.894 0.421 7.46 208.29 0.3
9/19/2022 2:00:00 PM 18.93 66.074 0.421 7.46 208.12 0.27
9/19/2022 2:15:00 PM 18.98 66.164 0.422 7.46 207.2 0.28
9/19/2022 2:30:00 PM 19.02 66.236 0.422 7.48 210.54 0.31
9/19/2022 2:45:00 PM 19.04 66.272 0.423 7.48 210.24 0.29
9/19/2022 3:00:00 PM 19.06 66.308 0.424 7.47 209.63 0.28
9/19/2022 3:15:00 PM 19.07 66.326 0.425 7.48 208.42 0.33
9/19/2022 3:30:00 PM 19.07 66.326 0.425 7.48 208.6 0.28
9/19/2022 3:45:00 PM 19.06 66.308 0.427 7.48 208.54 0.29
9/19/2022 4:00:00 PM 19.06 66.308 0.427 7.48 208.35 0.28
9/19/2022 4:15:00 PM 19.07 66.326 0.428 7.48 208.23 0.36
9/19/2022 4:30:00 PM 19.07 66.326 0.428 7.48 190.43 0.33
9/19/2022 4:45:00 PM 19.08 66.344 0.429 7.48 208.15 0.27
9/19/2022 5:00:00 PM 19.09 66.362 0.429 7.48 203.4 0.27
9/19/2022 5:15:00 PM 19.09 66.362 0.429 7.48 220.92 0.27
9/19/2022 5:30:00 PM 19.1 66.38 0.43 7.48 222.94 0.27
9/19/2022 5:45:00 PM 19.1 66.38 0.43 7.48 223.49 0.27
9/19/2022 6:00:00 PM 19.08 66.344 0.43 7.48 223.43 0.27
9/19/2022 6:15:00 PM 19.05 66.29 0.43 7.48 223.2 0.27
9/19/2022 6:30:00 PM 19.02 66.236 0.432 7.48 224.27 0.27
9/19/2022 6:45:00 PM 19 66.2 0.432 7.48 223.31 0.27
9/19/2022 7:00:00 PM 18.97 66.146 0.432 7.49 221.77 0.27
9/19/2022 7:15:00 PM 18.94 66.092 0.431 7.49 221.44 0.27
9/19/2022 7:30:00 PM 18.92 66.056 0.431 7.49 222 0.27
9/19/2022 7:45:00 PM 18.89 66.002 0.43 7.49 221.21 0.27
9/19/2022 8:00:00 PM 18.87 65.966 0.431 7.49 221.21 0.27
9/19/2022 8:15:00 PM 18.84 65.912 0.43 7.5 220.73 0.27
9/19/2022 8:30:00 PM 18.8 65.84 0.431 7.5 220.84 0.27
9/19/2022 8:45:00 PM 18.76 65.768 0.432 7.5 220.66 0.27
9/19/2022 9:00:00 PM 18.74 65.732 0.433 7.5 220.58 0.27
9/19/2022 9:15:00 PM 18.7 65.66 0.433 7.5 220.41 0.27
9/19/2022 9:30:00 PM 18.67 65.606 0.434 7.5 220.05 0.27
9/19/2022 9:45:00 PM 18.63 65.534 0.434 7.49 210.8 0.27
9/19/2022 10:00:00 PM 18.6 65.48 0.434 7.49 259.23 0.28
9/19/2022 10:15:00 PM 18.57 65.426 0.434 7.49 248.22 0.28
9/19/2022 10:30:00 PM 18.52 65.336 0.433 7.49 241.65 0.28
9/19/2022 10:45:00 PM 18.48 65.264 0.433 7.49 244.87 0.28
9/19/2022 11:00:00 PM 18.45 65.21 0.433 7.49 243.26 0.28
9/19/2022 11:15:00 PM 18.42 65.156 0.433 7.49 243.33 0.28
9/19/2022 11:30:00 PM 18.39 65.102 0.433 7.5 244.34 0.28
9/19/2022 11:45:00 PM 18.36 65.048 0.433 7.5 247.01 0.28
9/20/2022 12:00:00 AM 18.32 64.976 0.432 7.49 246.8 0.28
9/20/2022 12:15:00 AM 18.28 64.904 0.431 7.49 245.62 0.28
9/20/2022 12:30:00 AM 18.26 64.868 0.431 7.49 244.72 0.28
9/20/2022 12:45:00 AM 18.22 64.796 0.431 7.49 244.58 0.28
9/20/2022 1:00:00 AM 18.18 64.724 0.431 7.49 244.46 0.28
9/20/2022 1:15:00 AM 18.15 64.67 0.43 7.49 244.34 0.28
9/20/2022 1:30:00 AM 18.12 64.616 0.428 7.49 243.7 0.28
9/20/2022 1:45:00 AM 18.08 64.544 0.427 7.49 242.97 0.28
9/20/2022 2:00:00 AM 18.04 64.472 0.425 7.49 242.74 0.28
9/20/2022 2:15:00 AM 18 64.4 0.424 7.5 242.39 0.28
9/20/2022 2:30:00 AM 17.96 64.328 0.424 7.5 243.44 0.28
9/20/2022 2:45:00 AM 17.92 64.256 0.423 7.49 242.95 0.28
9/20/2022 3:00:00 AM 17.88 64.184 0.422 7.49 243.79 0.28
9/20/2022 3:15:00 AM 17.85 64.13 0.422 7.49 243.35 0.28
9/20/2022 3:30:00 AM 17.82 64.076 0.422 7.49 243.36 0.28
9/20/2022 3:45:00 AM 17.78 64.004 0.42 7.49 243.82 0.28
9/20/2022 4:00:00 AM 17.75 63.95 0.42 7.49 244.16 0.28
9/20/2022 4:15:00 AM 17.72 63.896 0.42 7.49 244.49 0.28
9/20/2022 4:30:00 AM 17.68 63.824 0.418 7.49 244.22 0.28
9/20/2022 4:45:00 AM 17.65 63.77 0.417 7.49 244.82 0.28
9/20/2022 5:00:00 AM 17.61 63.698 0.417 7.49 244.98 0.28
9/20/2022 5:15:00 AM 17.58 63.644 0.416 7.49 245.06 0.28
9/20/2022 5:30:00 AM 17.54 63.572 0.415 7.49 245.68 0.28
9/20/2022 5:45:00 AM 17.5 63.5 0.414 7.49 246.13 0.28
9/20/2022 6:00:00 AM 17.47 63.446 0.413 7.49 246.4 0.28
9/20/2022 6:15:00 AM 17.42 63.356 0.412 7.49 246.44 0.28
9/20/2022 6:30:00 AM 17.38 63.284 0.411 7.49 246.44 0.28
9/20/2022 6:45:00 AM 17.34 63.212 0.411 7.49 237.57 0.28
9/20/2022 7:00:00 AM 17.3 63.14 0.41 7.49 238.33 0.28
9/20/2022 7:15:00 AM 17.26 63.068 0.41 7.49 238.91 0.28
9/20/2022 7:30:00 AM 17.22 62.996 0.41 7.49 238.65 0.28
9/20/2022 7:45:00 AM 17.19 62.942 0.409 7.49 238.53 0.28
9/20/2022 8:00:00 AM 17.17 62.906 0.408 7.49 239.1 0.28
9/20/2022 8:15:00 AM 17.14 62.852 0.408 7.49 239.14 0.28
9/20/2022 8:30:00 AM 17.13 62.834 0.407 7.48 239.54 0.28
9/20/2022 8:45:00 AM 17.14 62.852 0.408 7.49 241.36 0.28
9/20/2022 9:00:00 AM 17.13 62.834 0.408 7.48 239.53 0.28
9/20/2022 9:15:00 AM 17.13 62.834 0.406 7.48 233.44 0.28
9/20/2022 9:30:00 AM 17.14 62.852 0.407 7.48 233.73 0.28
9/20/2022 9:45:00 AM 17.17 62.906 0.408 7.48 230.89 0.28
9/20/2022 10:00:00 AM 17.19 62.942 0.409 7.48 231.29 0.28
9/20/2022 10:15:00 AM 17.23 63.014 0.409 7.48 229.33 0.28
9/20/2022 10:30:00 AM 17.27 63.086 0.409 7.48 225.74 0.28
9/20/2022 10:45:00 AM 17.31 63.158 0.409 7.48 232.07 0.28
9/20/2022 11:00:00 AM 17.36 63.248 0.409 7.48 232.13 0.28
9/20/2022 11:15:00 AM 17.41 63.338 0.41 7.48 234.22 0.28
9/20/2022 11:30:00 AM 17.47 63.446 0.41 7.47 235.4 0.28
9/20/2022 11:45:00 AM 17.54 63.572 0.41 7.48 234.95 0.28
9/20/2022 12:00:00 PM 17.62 63.716 0.411 7.47 240.71 0.28
9/20/2022 12:15:00 PM 17.71 63.878 0.411 7.47 238.75 0.28
9/20/2022 12:30:00 PM 17.82 64.076 0.412 7.47 239.77 0.28
9/20/2022 12:45:00 PM 17.94 64.292 0.412 7.46 232.69 0.28
9/20/2022 1:00:00 PM 18.09 64.562 0.412 7.46 215.55 0.28
9/20/2022 1:15:00 PM 18.25 64.85 0.412 7.46 219.74 0.28
9/20/2022 1:30:00 PM 18.38 65.084 0.412 7.46 216.76 0.27
9/20/2022 1:45:00 PM 18.55 65.39 0.411 7.46 219.93 0.27
9/20/2022 2:00:00 PM 18.7 65.66 0.412 7.46 219.74 0.27
9/20/2022 2:15:00 PM 18.83 65.894 0.412 7.46 213.25 0.27
9/20/2022 2:30:00 PM 18.98 66.164 0.412 7.45 221.37 0.27
9/20/2022 2:45:00 PM 19.1 66.38 0.412 7.46 218.25 0.27
9/20/2022 3:00:00 PM 19.2 66.56 0.412 7.45 242.08 0.27
9/20/2022 3:15:00 PM 19.34 66.812 0.414 7.44 241.22 0.27
9/20/2022 3:30:00 PM 19.46 67.028 0.415 7.44 216.6 0.27
9/20/2022 3:45:00 PM 19.54 67.172 0.416 7.44 211.51 0.27
9/20/2022 4:00:00 PM 19.54 67.172 0.416 7.45 209.93 0.27
9/20/2022 4:15:00 PM 19.53 67.154 0.416 7.45 211.55 0.27
9/20/2022 4:30:00 PM 19.56 67.208 0.417 7.44 214.28 0.27
9/20/2022 4:45:00 PM 19.61 67.298 0.418 7.44 212.68 0.27
9/20/2022 5:00:00 PM 19.6 67.28 0.418 7.45 206.61 0.27
9/20/2022 5:15:00 PM 19.57 67.226 0.418 7.45 205.86 0.27
9/20/2022 5:30:00 PM 19.52 67.136 0.418 7.45 203.18 0.27
9/20/2022 5:45:00 PM 19.47 67.046 0.418 7.45 202.12 0.27
9/20/2022 6:00:00 PM 19.41 66.938 0.418 7.46 201.99 0.27
9/20/2022 6:15:00 PM 19.36 66.848 0.417 7.46 202.62 0.27
9/20/2022 6:30:00 PM 19.31 66.758 0.417 7.46 202.31 0.27
9/20/2022 6:45:00 PM 19.26 66.668 0.417 7.47 201.95 0.27
9/20/2022 7:00:00 PM 19.2 66.56 0.416 7.47 201.74 0.27
9/20/2022 7:15:00 PM 19.14 66.452 0.416 7.47 201.17 0.27
9/20/2022 7:30:00 PM 19.08 66.344 0.415 7.47 200.86 0.27
9/20/2022 7:45:00 PM 19.01 66.218 0.415 7.47 200.47 0.27
9/20/2022 8:00:00 PM 18.95 66.11 0.413 7.47 199.55 0.27
9/20/2022 8:15:00 PM 18.88 65.984 0.412 7.48 199.26 0.27
9/20/2022 8:30:00 PM 18.8 65.84 0.411 7.48 198.75 0.27
9/20/2022 8:45:00 PM 18.73 65.714 0.41 7.48 198.26 0.27
9/20/2022 9:00:00 PM 18.66 65.588 0.41 7.49 197.74 0.27
9/20/2022 9:15:00 PM 18.59 65.462 0.41 7.49 197.27 0.27
9/20/2022 9:30:00 PM 18.52 65.336 0.409 7.49 196.72 0.28
9/20/2022 9:45:00 PM 18.48 65.264 0.409 7.48 196.64 0.27
9/20/2022 10:00:00 PM 18.41 65.138 0.408 7.49 195.74 0.28
9/20/2022 10:15:00 PM 18.34 65.012 0.408 7.49 195.53 0.28
9/20/2022 10:30:00 PM 18.28 64.904 0.407 7.49 195.18 0.28
9/20/2022 10:45:00 PM 18.23 64.814 0.406 7.49 194.31 0.28
9/20/2022 11:00:00 PM 18.17 64.706 0.405 7.49 194.41 0.28
9/20/2022 11:15:00 PM 18.11 64.598 0.404 7.49 194.1 0.28
9/20/2022 11:30:00 PM 18.05 64.49 0.404 7.49 194.05 0.28
9/20/2022 11:45:00 PM 18 64.4 0.404 7.49 179.91 0.28
9/21/2022 12:00:00 AM 17.95 64.31 0.404 7.5 181.58 0.28
9/21/2022 12:15:00 AM 17.9 64.22 0.404 7.49 181.79 0.28
9/21/2022 12:30:00 AM 17.84 64.112 0.404 7.49 181.95 0.28
9/21/2022 12:45:00 AM 17.79 64.022 0.404 7.48 185.17 0.28
9/21/2022 1:00:00 AM 17.74 63.932 0.404 7.49 184.72 0.28
9/21/2022 1:15:00 AM 17.69 63.842 0.404 7.49 183.96 0.28
9/21/2022 1:30:00 AM 17.64 63.752 0.403 7.49 184.23 0.28
9/21/2022 1:45:00 AM 17.59 63.662 0.404 7.49 184.04 0.28
9/21/2022 2:00:00 AM 17.54 63.572 0.403 7.48 184.25 0.28
9/21/2022 2:15:00 AM 17.49 63.482 0.403 7.47 184.19 0.28
9/21/2022 2:30:00 AM 17.44 63.392 0.403 7.48 184.37 0.28
9/21/2022 2:45:00 AM 17.4 63.32 0.403 7.48 184.5 0.28
9/21/2022 3:00:00 AM 17.35 63.23 0.404 7.48 184.34 0.28
9/21/2022 3:15:00 AM 17.3 63.14 0.404 7.47 184.23 0.28
9/21/2022 3:30:00 AM 17.25 63.05 0.402 7.47 185.39 0.28
9/21/2022 3:45:00 AM 17.2 62.96 0.401 7.47 185.37 0.28
9/21/2022 4:00:00 AM 17.15 62.87 0.402 7.47 185.2 0.28
9/21/2022 4:15:00 AM 17.09 62.762 0.402 7.47 185.03 0.28
9/21/2022 4:30:00 AM 17.04 62.672 0.402 7.48 184.84 0.28
9/21/2022 4:45:00 AM 16.98 62.564 0.402 7.47 184.75 0.28
9/21/2022 5:00:00 AM 16.93 62.474 0.402 7.47 184.78 0.28
9/21/2022 5:15:00 AM 16.89 62.402 0.402 7.47 184.54 0.29
9/21/2022 5:30:00 AM 16.84 62.312 0.403 7.47 184.56 0.29
9/21/2022 5:45:00 AM 16.78 62.204 0.402 7.47 184.48 0.29
9/21/2022 6:00:00 AM 16.73 62.114 0.402 7.47 184.54 0.29
9/21/2022 6:15:00 AM 16.68 62.024 0.402 7.47 184.46 0.29
9/21/2022 6:30:00 AM 16.62 61.916 0.404 7.47 183.82 0.29
9/21/2022 6:45:00 AM 16.58 61.844 0.404 7.47 183.4 0.29
9/21/2022 7:00:00 AM 16.53 61.754 0.404 7.46 183.11 0.29
9/21/2022 7:15:00 AM 16.48 61.664 0.404 7.46 182.52 0.29
9/21/2022 7:30:00 AM 16.43 61.574 0.405 7.46 182.23 0.29
9/21/2022 7:45:00 AM 16.39 61.502 0.405 7.46 182.04 0.29
9/21/2022 8:00:00 AM 16.35 61.43 0.405 7.46 181.69 0.29
9/21/2022 8:15:00 AM 16.33 61.394 0.405 7.46 181.37 0.29
9/21/2022 8:30:00 AM 16.3 61.34 0.403 7.46 181 0.29
9/21/2022 8:45:00 AM 16.28 61.304 0.404 7.46 180.8 0.29
9/21/2022 9:00:00 AM 16.29 61.322 0.403 7.46 180.63 0.29
9/21/2022 9:15:00 AM 16.3 61.34 0.403 7.46 180.25 0.29
9/21/2022 9:30:00 AM 16.32 61.376 0.403 7.46 180.29 0.29
9/21/2022 9:45:00 AM 16.36 61.448 0.403 7.46 180.03 0.29
9/21/2022 10:00:00 AM 16.4 61.52 0.403 7.46 180.21 0.29
9/21/2022 10:15:00 AM 16.45 61.61 0.403 7.46 179.81 0.29
9/21/2022 10:30:00 AM 16.53 61.754 0.403 7.46 179.74 0.29
9/21/2022 10:45:00 AM 16.58 61.844 0.403 7.46 179.51 0.29
9/21/2022 11:00:00 AM 16.64 61.952 0.403 7.46 179.31 0.29
9/21/2022 11:15:00 AM 16.72 62.096 0.403 7.46 179.03 0.29
9/21/2022 11:30:00 AM 16.8 62.24 0.403 7.46 178.92 0.28
9/21/2022 11:45:00 AM 16.89 62.402 0.404 7.46 178.84 0.28
9/21/2022 12:00:00 PM 17 62.6 0.403 7.46 178.96 0.28
9/21/2022 12:15:00 PM 17.14 62.852 0.403 7.46 179.03 0.28
9/21/2022 12:30:00 PM 17.27 63.086 0.403 7.45 179.18 0.28
9/21/2022 12:45:00 PM 17.42 63.356 0.403 7.45 179.52 0.28
9/21/2022 1:00:00 PM 17.59 63.662 0.404 7.45 179.82 0.28
9/21/2022 1:15:00 PM 17.77 63.986 0.404 7.45 179.4 0.28
9/21/2022 1:30:00 PM 17.93 64.274 0.404 7.44 179.14 0.28
9/21/2022 1:45:00 PM 18.1 64.58 0.404 7.44 179.11 0.28
9/21/2022 2:00:00 PM 18.27 64.886 0.404 7.44 179.82 0.28
9/21/2022 2:15:00 PM 18.44 65.192 0.404 7.44 179.68 0.27
9/21/2022 2:30:00 PM 18.58 65.444 0.403 7.43 179.53 0.27
9/21/2022 2:45:00 PM 18.71 65.67799 0.403 7.43 179.29 0.27
9/21/2022 3:00:00 PM 18.85 65.93 0.404 7.43 179.31 0.27
9/21/2022 3:15:00 PM 18.96 66.128 0.404 7.43 178.75 0.27
9/21/2022 3:30:00 PM 19.06 66.308 0.403 7.43 178.53 0.27
9/21/2022 3:45:00 PM 19.15 66.47 0.404 7.43 178.41 0.27
9/21/2022 4:00:00 PM 19.23 66.614 0.404 7.43 177.49 0.27
9/21/2022 4:15:00 PM 19.29 66.722 0.405 7.43 177.74 0.27
9/21/2022 4:30:00 PM 19.33 66.794 0.406 7.43 176.48 0.27
9/21/2022 4:45:00 PM 19.36 66.848 0.407 7.42 182.12 0.27
9/21/2022 5:00:00 PM 19.38 66.884 0.407 7.43 189.2 0.27
9/21/2022 5:15:00 PM 19.37 66.866 0.407 7.43 161.08 0.27
9/21/2022 5:30:00 PM 19.36 66.848 0.408 7.43 167.71 0.27
9/21/2022 5:45:00 PM 19.35 66.83 0.408 7.43 161.69 0.27
9/21/2022 6:00:00 PM 19.33 66.794 0.409 7.43 169.94 0.27
9/21/2022 6:15:00 PM 19.3 66.74 0.409 7.43 165.89 0.27
9/21/2022 6:30:00 PM 19.27 66.686 0.409 7.44 166.72 0.27
9/21/2022 6:45:00 PM 19.24 66.632 0.41 7.43 171.75 0.27
9/21/2022 7:00:00 PM 19.19 66.542 0.41 7.43 168.91 0.27
9/21/2022 7:15:00 PM 19.14 66.452 0.41 7.43 171.76 0.27
9/21/2022 7:30:00 PM 19.08 66.344 0.41 7.43 164.47 0.27
9/21/2022 7:45:00 PM 19.02 66.236 0.41 7.44 164.72 0.27
9/21/2022 8:00:00 PM 18.96 66.128 0.411 7.43 162.51 0.27
9/21/2022 8:15:00 PM 18.9 66.02 0.411 7.44 172.18 0.27
9/21/2022 8:30:00 PM 18.83 65.894 0.412 7.44 149.74 0.27
9/21/2022 8:45:00 PM 18.77 65.786 0.412 7.44 153.74 0.27
9/21/2022 9:00:00 PM 18.71 65.67799 0.413 7.44 160.06 0.27
9/21/2022 9:15:00 PM 18.65 65.57 0.413 7.44 146.87 0.27
9/21/2022 9:30:00 PM 18.59 65.462 0.414 7.45 157.4 0.27
9/21/2022 9:45:00 PM 18.53 65.354 0.414 7.45 139.95 0.28
9/21/2022 10:00:00 PM 18.49 65.282 0.415 7.45 144.13 0.28
9/21/2022 10:15:00 PM 18.43 65.174 0.415 7.45 139.37 0.28
9/21/2022 10:30:00 PM 18.39 65.102 0.415 7.45 136.69 0.28
9/21/2022 10:45:00 PM 18.35 65.03 0.416 7.45 153.3 0.28
9/21/2022 11:00:00 PM 18.34 65.012 0.416 7.44 160.87 0.27
9/21/2022 11:15:00 PM 18.3 64.94 0.417 7.44 125.56 0.28
9/21/2022 11:30:00 PM 18.28 64.904 0.417 7.44 153.62 0.27
9/21/2022 11:45:00 PM 18.25 64.85 0.417 7.44 153.15 0.28
9/22/2022 12:00:00 AM 18.2 64.76 0.417 7.44 155 0.28
9/22/2022 12:15:00 AM 18.15 64.67 0.418 7.44 138.18 0.28
9/22/2022 12:30:00 AM 18.1 64.58 0.418 7.44 130.65 0.28
9/22/2022 12:45:00 AM 18.06 64.508 0.418 7.44 132.65 0.28
9/22/2022 1:00:00 AM 18.06 64.508 0.418 7.44 132.38 0.28
9/22/2022 1:15:00 AM 18.01 64.418 0.418 7.44 132.19 0.28
9/22/2022 1:30:00 AM 17.97 64.346 0.418 7.44 132.2 0.28
9/22/2022 1:45:00 AM 17.97 64.346 0.418 7.44 132.44 0.28
9/22/2022 2:00:00 AM 17.93 64.274 0.418 7.44 132.52 0.28
9/22/2022 2:15:00 AM 17.9 64.22 0.419 7.44 132.41 0.28
9/22/2022 2:30:00 AM 17.88 64.184 0.419 7.44 132.53 0.28
9/22/2022 2:45:00 AM 17.86 64.148 0.419 7.44 132.49 0.28
9/22/2022 3:00:00 AM 17.85 64.13 0.418 7.44 132.51 0.28
9/22/2022 3:15:00 AM 17.83 64.094 0.417 7.44 132.51 0.28
9/22/2022 3:30:00 AM 17.82 64.076 0.415 7.44 130.27 0.28
9/22/2022 3:45:00 AM 17.81 64.058 0.414 7.44 130.15 0.28
9/22/2022 4:00:00 AM 17.81 64.058 0.412 7.44 130.22 0.28
9/22/2022 4:15:00 AM 17.8 64.04 0.411 7.44 130.32 0.28
9/22/2022 4:30:00 AM 17.79 64.022 0.41 7.44 130.23 0.28
9/22/2022 4:45:00 AM 17.8 64.04 0.409 7.44 130.16 0.28
9/22/2022 5:00:00 AM 17.78 64.004 0.409 7.44 130.21 0.28
9/22/2022 5:15:00 AM 17.77 63.986 0.408 7.44 130.01 0.28
9/22/2022 5:30:00 AM 17.76 63.968 0.407 7.44 129.72 0.28
9/22/2022 5:45:00 AM 17.75 63.95 0.406 7.44 129.97 0.28
9/22/2022 6:00:00 AM 17.74 63.932 0.405 7.44 129.7 0.28
9/22/2022 6:15:00 AM 17.74 63.932 0.404 7.44 129.94 0.28
9/22/2022 6:30:00 AM 17.73 63.914 0.403 7.44 130.02 0.28
9/22/2022 6:45:00 AM 17.74 63.932 0.403 7.43 129.88 0.28
9/22/2022 7:00:00 AM 17.72 63.896 0.403 7.43 129.86 0.28
9/22/2022 7:15:00 AM 17.71 63.878 0.402 7.43 129.78 0.28
9/22/2022 7:30:00 AM 17.7 63.86 0.401 7.43 129.75 0.28
9/22/2022 7:45:00 AM 17.69 63.842 0.4 7.43 129.71 0.28
9/22/2022 8:00:00 AM 17.69 63.842 0.4 7.43 129.7 0.28
9/22/2022 8:15:00 AM 17.69 63.842 0.4 7.43 129.79 0.28
9/22/2022 8:30:00 AM 17.7 63.86 0.399 7.44 129.86 0.28
9/22/2022 8:45:00 AM 17.71 63.878 0.399 7.43 130.04 0.28
9/22/2022 9:00:00 AM 17.73 63.914 0.399 7.43 130.24 0.28
9/22/2022 9:15:00 AM 17.75 63.95 0.399 7.43 130.41 0.28
9/22/2022 9:30:00 AM 17.78 64.004 0.399 7.43 130.6 0.28
9/22/2022 9:45:00 AM 17.8 64.04 0.4 7.43 130.79 0.28
9/22/2022 10:00:00 AM 17.8 64.04 0.401 7.44 130.88 0.28
9/22/2022 10:15:00 AM 17.81 64.058 0.402 7.43 130.95 0.28
9/22/2022 10:30:00 AM 17.83 64.094 0.402 7.43 130.95 0.28
9/22/2022 10:45:00 AM 17.84 64.112 0.403 7.43 130.87 0.28
9/22/2022 11:00:00 AM 17.85 64.13 0.404 7.43 130.86 0.28
9/22/2022 11:15:00 AM 17.86 64.148 0.404 7.43 131.08 0.28
9/22/2022 11:30:00 AM 17.89 64.202 0.405 7.43 131.3 0.28
9/22/2022 11:45:00 AM 17.9 64.22 0.406 7.43 131.26 0.28
9/22/2022 12:00:00 PM 17.93 64.274 0.406 7.43 131.09 0.28
9/22/2022 12:15:00 PM 17.97 64.346 0.406 7.42 131.52 0.28
9/22/2022 12:30:00 PM 18 64.4 0.406 7.42 131.48 0.28
9/22/2022 12:45:00 PM 18 64.4 0.405 7.43 131.3 0.28
9/22/2022 1:00:00 PM 17.96 64.328 0.404 7.43 131.09 0.28
9/22/2022 1:15:00 PM 17.95 64.31 0.404 7.43 131.16 0.28
9/22/2022 1:30:00 PM 17.94 64.292 0.403 7.43 131.09 0.28
9/22/2022 1:45:00 PM 17.97 64.346 0.402 7.43 131.33 0.28
9/22/2022 2:00:00 PM 18 64.4 0.401 7.43 131.28 0.28
9/22/2022 2:15:00 PM 18.05 64.49 0.4 7.43 130.24 0.28
9/22/2022 2:30:00 PM 18.11 64.598 0.4 7.43 130.95 0.28
9/22/2022 2:45:00 PM 18.14 64.652 0.4 7.43 130.73 0.28
9/22/2022 3:00:00 PM 18.15 64.67 0.399 7.43 130.15 0.28
9/22/2022 3:15:00 PM 18.18 64.724 0.398 7.43 130.21 0.28
9/22/2022 3:30:00 PM 18.24 64.832 0.397 7.43 130.36 0.28
9/22/2022 3:45:00 PM 18.28 64.904 0.397 7.42 140.38 0.28
9/22/2022 4:00:00 PM 18.33 64.994 0.396 7.42 140.07 0.28
9/22/2022 4:15:00 PM 18.38 65.084 0.396 7.42 139.73 0.28
9/22/2022 4:30:00 PM 18.4 65.12 0.396 7.42 139.54 0.28
9/22/2022 4:45:00 PM 18.41 65.138 0.395 7.43 138.88 0.28
9/22/2022 5:00:00 PM 18.39 65.102 0.395 7.43 138.83 0.28
9/22/2022 5:15:00 PM 18.36 65.048 0.396 7.43 138.66 0.28
9/22/2022 5:30:00 PM 18.31 64.958 0.396 7.43 138.49 0.28
9/22/2022 5:45:00 PM 18.23 64.814 0.397 7.43 138.24 0.28
9/22/2022 6:00:00 PM 18.16 64.688 0.398 7.43 137.84 0.28
9/22/2022 6:15:00 PM 18.09 64.562 0.397 7.43 140.22 0.28
9/22/2022 6:30:00 PM 18.02 64.436 0.397 7.43 142.32 0.28
9/22/2022 6:45:00 PM 17.94 64.292 0.397 7.43 145.75 0.28
9/22/2022 7:00:00 PM 17.87 64.166 0.397 7.43 143.29 0.28
9/22/2022 7:15:00 PM 17.8 64.04 0.398 7.43 153.47 0.28
9/22/2022 7:30:00 PM 17.71 63.878 0.398 7.43 136.29 0.28
9/22/2022 7:45:00 PM 17.63 63.734 0.398 7.43 135.75 0.28
9/22/2022 8:00:00 PM 17.55 63.59 0.398 7.43 135.62 0.28
9/22/2022 8:15:00 PM 17.46 63.428 0.398 7.43 135.06 0.28
9/22/2022 8:30:00 PM 17.37 63.266 0.398 7.43 138.74 0.28
9/22/2022 8:45:00 PM 17.27 63.086 0.398 7.43 138.74 0.28
9/22/2022 9:00:00 PM 17.18 62.924 0.398 7.44 138.52 0.28
9/22/2022 9:15:00 PM 17.1 62.78 0.398 7.44 138.95 0.28
9/22/2022 9:30:00 PM 17.02 62.636 0.399 7.44 138.91 0.28
9/22/2022 9:45:00 PM 16.95 62.51 0.4 7.44 138.74 0.28
9/22/2022 10:00:00 PM 16.87 62.366 0.401 7.44 138.63 0.29
9/22/2022 10:15:00 PM 16.81 62.258 0.401 7.44 138.75 0.29
9/22/2022 10:30:00 PM 16.73 62.114 0.401 7.44 138.73 0.29
9/22/2022 10:45:00 PM 16.66 61.988 0.4 7.45 138.73 0.29
9/22/2022 11:00:00 PM 16.6 61.88 0.4 7.45 138.96 0.29
9/22/2022 11:15:00 PM 16.53 61.754 0.4 7.45 138.49 0.29
9/22/2022 11:30:00 PM 16.47 61.646 0.4 7.45 138.58 0.29
9/22/2022 11:45:00 PM 16.41 61.538 0.399 7.45 138.75 0.29
9/23/2022 12:00:00 AM 16.36 61.448 0.401 7.45 138.9 0.29
9/23/2022 12:15:00 AM 16.31 61.358 0.4 7.46 139.15 0.29
9/23/2022 12:30:00 AM 16.26 61.268 0.399 7.46 139.42 0.29
9/23/2022 12:45:00 AM 16.21 61.178 0.399 7.46 139 0.29
9/23/2022 1:00:00 AM 16.16 61.088 0.399 7.46 138.8 0.29
9/23/2022 1:15:00 AM 16.11 60.998 0.398 7.46 136.3 0.29
9/23/2022 1:30:00 AM 16.05 60.89 0.397 7.46 135.35 0.29
9/23/2022 1:45:00 AM 16.04 60.872 0.397 7.45 136.62 0.29
9/23/2022 2:00:00 AM 15.98 60.764 0.396 7.46 139.58 0.29
9/23/2022 2:15:00 AM 15.89 60.602 0.396 7.46 142.5 0.29
9/23/2022 2:30:00 AM 15.81 60.458 0.397 7.46 153.33 0.29
9/23/2022 2:45:00 AM 15.74 60.332 0.396 7.46 159.62 0.29
9/23/2022 3:00:00 AM 15.66 60.188 0.396 7.46 160.34 0.29
9/23/2022 3:15:00 AM 15.58 60.044 0.396 7.47 166.85 0.29
9/23/2022 3:30:00 AM 15.51 59.918 0.396 7.47 169.91 0.3
9/23/2022 3:45:00 AM 15.43 59.774 0.396 7.47 163.75 0.3
9/23/2022 4:00:00 AM 15.36 59.648 0.396 7.47 167.9 0.3
9/23/2022 4:15:00 AM 15.28 59.504 0.398 7.47 167.58 0.3
9/23/2022 4:30:00 AM 15.21 59.378 0.4 7.47 167.89 0.3
9/23/2022 4:45:00 AM 15.14 59.252 0.401 7.47 169.49 0.3
9/23/2022 5:00:00 AM 15.08 59.144 0.403 7.47 170.26 0.3
9/23/2022 5:15:00 AM 15.01 59.018 0.404 7.47 171.87 0.3
9/23/2022 5:30:00 AM 14.95 58.91 0.405 7.47 172.56 0.3
9/23/2022 5:45:00 AM 14.88 58.784 0.407 7.47 172.96 0.3
9/23/2022 6:00:00 AM 14.81 58.658 0.408 7.47 173.48 0.3
9/23/2022 6:15:00 AM 14.76 58.568 0.409 7.47 174.13 0.3
9/23/2022 6:30:00 AM 14.71 58.478 0.41 7.47 174.61 0.3
9/23/2022 6:45:00 AM 14.64 58.352 0.411 7.47 174.97 0.3
9/23/2022 7:00:00 AM 14.59 58.262 0.412 7.47 175.26 0.3
9/23/2022 7:15:00 AM 14.54 58.172 0.413 7.47 175.61 0.3
9/23/2022 7:30:00 AM 14.48 58.064 0.415 7.47 176.24 0.3
9/23/2022 7:45:00 AM 14.44 57.992 0.416 7.47 176.95 0.3
9/23/2022 8:00:00 AM 14.4 57.92 0.418 7.47 177.36 0.31
9/23/2022 8:15:00 AM 14.36 57.848 0.42 7.47 177.48 0.31
9/23/2022 8:30:00 AM 14.32 57.776 0.421 7.47 177.64 0.31
9/23/2022 8:45:00 AM 14.28 57.704 0.421 7.47 178.25 0.31
9/23/2022 9:00:00 AM 14.23 57.614 0.422 7.47 179.02 0.31
9/23/2022 9:15:00 AM 14.2 57.56 0.423 7.47 177.59 0.31
9/23/2022 9:30:00 AM 14.17 57.506 0.424 7.47 176.59 0.31
9/23/2022 9:45:00 AM 14.15 57.47 0.425 7.47 176.72 0.31
9/23/2022 10:00:00 AM 14.14 57.452 0.425 7.47 173.49 0.31
9/23/2022 10:15:00 AM 14.13 57.434 0.426 7.47 176.77 0.31
9/23/2022 10:30:00 AM 14.12 57.416 0.427 7.47 176.06 0.31
9/23/2022 10:45:00 AM 14.13 57.434 0.427 7.47 177.09 0.31
9/23/2022 11:00:00 AM 14.13 57.434 0.428 7.47 177.63 0.31
9/23/2022 11:15:00 AM 14.16 57.488 0.429 7.47 178.38 0.31
9/23/2022 11:30:00 AM 14.18 57.524 0.427 7.47 179.25 0.31
9/23/2022 11:45:00 AM 14.21 57.578 0.428 7.47 180.1 0.31
9/23/2022 12:00:00 PM 14.25 57.65 0.427 7.47 180.99 0.31
9/23/2022 12:15:00 PM 14.31 57.758 0.426 7.46 169.79 0.31
9/23/2022 12:30:00 PM 14.38 57.884 0.427 7.46 165.79 0.31
9/23/2022 12:45:00 PM 14.47 58.046 0.427 7.46 167.64 0.3
9/23/2022 1:00:00 PM 14.58 58.244 0.427 7.46 168.23 0.3
9/23/2022 1:15:00 PM 14.7 58.46 0.428 7.46 172.5 0.3
9/23/2022 1:30:00 PM 14.83 58.694 0.427 7.45 182.22 0.3
9/23/2022 1:45:00 PM 14.96 58.928 0.427 7.45 183.15 0.3
9/23/2022 2:00:00 PM 15.1 59.18 0.428 7.45 183.72 0.3
9/23/2022 2:15:00 PM 15.24 59.432 0.429 7.45 189.21 0.3
9/23/2022 2:30:00 PM 15.38 59.684 0.429 7.44 187.48 0.3
9/23/2022 2:45:00 PM 15.5 59.9 0.429 7.44 189.47 0.3
9/23/2022 3:00:00 PM 15.61 60.098 0.429 7.44 192.04 0.3
9/23/2022 3:15:00 PM 15.7 60.26 0.429 7.44 191.68 0.29
9/23/2022 3:30:00 PM 15.78 60.404 0.428 7.44 191.02 0.29
9/23/2022 3:45:00 PM 15.86 60.548 0.428 7.43 193.19 0.29
9/23/2022 4:00:00 PM 15.9 60.62 0.429 7.43 191.78 0.29
9/23/2022 4:15:00 PM 15.94 60.692 0.429 7.43 191.47 0.29
9/23/2022 4:30:00 PM 15.95 60.71 0.43 7.43 191.62 0.29
9/23/2022 4:45:00 PM 15.96 60.728 0.43 7.43 192.9 0.29
9/23/2022 5:00:00 PM 15.96 60.728 0.43 7.43 194.46 0.29
9/23/2022 5:15:00 PM 15.94 60.692 0.43 7.43 195.95 0.29
9/23/2022 5:30:00 PM 15.91 60.638 0.43 7.43 195.12 0.29
9/23/2022 5:45:00 PM 15.86 60.548 0.43 7.43 195.03 0.29
9/23/2022 6:00:00 PM 15.8 60.44 0.43 7.43 194.84 0.29
9/23/2022 6:15:00 PM 15.74 60.332 0.43 7.43 194.56 0.29
9/23/2022 6:30:00 PM 15.68 60.224 0.431 7.43 196.07 0.29
9/23/2022 6:45:00 PM 15.63 60.134 0.431 7.43 196.04 0.29
9/23/2022 7:00:00 PM 15.58 60.044 0.431 7.43 194.79 0.29
9/23/2022 7:15:00 PM 15.51 59.918 0.431 7.43 197.62 0.29
9/23/2022 7:30:00 PM 15.46 59.828 0.431 7.42 196.18 0.3
9/23/2022 7:45:00 PM 15.38 59.684 0.431 7.43 195.16 0.3
9/23/2022 8:00:00 PM 15.32 59.576 0.431 7.42 197.75 0.3
9/23/2022 8:15:00 PM 15.25 59.45 0.43 7.42 195.58 0.3
9/23/2022 8:30:00 PM 15.13 59.234 0.43 7.43 196 0.3
9/23/2022 8:45:00 PM 15.02 59.036 0.43 7.42 195.37 0.3
9/23/2022 9:00:00 PM 14.92 58.856 0.43 7.43 195.2 0.3
9/23/2022 9:15:00 PM 14.84 58.712 0.43 7.43 193.13 0.3
9/23/2022 9:30:00 PM 14.74 58.532 0.431 7.43 192.96 0.3
9/23/2022 9:45:00 PM 14.63 58.334 0.431 7.43 192.63 0.3
9/23/2022 10:00:00 PM 14.54 58.172 0.431 7.42 192.72 0.3
9/23/2022 10:15:00 PM 14.44 57.992 0.431 7.43 193.39 0.3
9/23/2022 10:30:00 PM 14.36 57.848 0.431 7.43 192.74 0.31
9/23/2022 10:45:00 PM 14.27 57.686 0.43 7.43 191.31 0.31
9/23/2022 11:00:00 PM 14.2 57.56 0.43 7.43 192.55 0.31
9/23/2022 11:15:00 PM 14.12 57.416 0.43 7.43 192.09 0.31
9/23/2022 11:30:00 PM 14.06 57.308 0.431 7.43 192.04 0.31
9/23/2022 11:45:00 PM 14 57.2 0.432 7.43 191.59 0.31
9/24/2022 12:00:00 AM 13.94 57.092 0.432 7.43 191.05 0.31
9/24/2022 12:15:00 AM 13.89 57.002 0.433 7.44 190.85 0.31
9/24/2022 12:30:00 AM 14.04 57.272 0.432 7.44 191.88 0.31
9/24/2022 12:45:00 AM 13.98 57.164 0.433 7.44 191.53 0.31
9/24/2022 1:00:00 AM 13.92 57.056 0.433 7.44 191.47 0.31
9/24/2022 1:15:00 AM 13.87 56.966 0.433 7.44 191.66 0.31
9/24/2022 1:30:00 AM 13.82 56.876 0.434 7.44 186.32 0.31
9/24/2022 1:45:00 AM 13.76 56.768 0.435 7.44 187.44 0.31
9/24/2022 2:00:00 AM 13.71 56.678 0.435 7.44 191.21 0.31
9/24/2022 2:15:00 AM 13.66 56.588 0.437 7.44 188.39 0.31
9/24/2022 2:30:00 AM 13.61 56.498 0.437 7.44 193.06 0.31
9/24/2022 2:45:00 AM 13.56 56.408 0.438 7.44 192.38 0.31
9/24/2022 3:00:00 AM 13.5 56.3 0.441 7.53 164.77 0.32
9/24/2022 3:15:00 AM 13.44 56.192 0.441 7.53 166.08 0.32
9/24/2022 3:30:00 AM 13.38 56.084 0.441 7.56 166.35 0.32
9/24/2022 3:45:00 AM 13.34 56.012 0.441 7.58 166.52 0.32
9/24/2022 4:00:00 AM 13.29 55.922 0.441 7.55 166.46 0.32
9/24/2022 4:15:00 AM 13.24 55.832 0.441 7.56 166.56 0.32
9/24/2022 4:30:00 AM 13.19 55.742 0.441 7.53 166.6 0.32
9/24/2022 4:45:00 AM 13.15 55.67 0.441 7.61 165.62 0.32
9/24/2022 5:00:00 AM 13.1 55.58 0.441 7.6 165.69 0.32
9/24/2022 5:15:00 AM 13.06 55.508 0.441 7.6 165.87 0.32
9/24/2022 5:30:00 AM 13.01 55.418 0.442 7.61 166.04 0.32
9/24/2022 5:45:00 AM 12.96 55.328 0.442 7.57 166.13 0.32
9/24/2022 6:00:00 AM 12.91 55.238 0.442 7.58 166.18 0.32
9/24/2022 6:15:00 AM 12.87 55.166 0.442 7.58 166.46 0.32
9/24/2022 6:30:00 AM 12.83 55.094 0.441 7.57 166.45 0.32
9/24/2022 6:45:00 AM 12.79 55.022 0.442 7.61 166.44 0.32
9/24/2022 7:00:00 AM 12.76 54.968 0.441 7.6 166.44 0.32
9/24/2022 7:15:00 AM 12.72 54.896 0.441 7.6 166.44 0.32
9/24/2022 7:30:00 AM 12.7 54.86 0.441 7.61 166.43 0.32
9/24/2022 7:45:00 AM 12.67 54.806 0.441 7.61 166.52 0.32
9/24/2022 8:00:00 AM 12.65 54.77 0.441 7.6 166.6 0.32
9/24/2022 8:15:00 AM 12.64 54.752 0.44 7.61 166.78 0.32
9/24/2022 8:30:00 AM 12.64 54.752 0.44 7.6 166.86 0.32
9/24/2022 8:45:00 AM 12.65 54.77 0.44 7.61 166.83 0.32
9/24/2022 9:00:00 AM 12.68 54.824 0.44 7.61 167.05 0.32
9/24/2022 9:15:00 AM 12.7 54.86 0.439 7.61 167.17 0.32
9/24/2022 9:30:00 AM 12.73 54.914 0.439 7.63 167.29 0.32
9/24/2022 9:45:00 AM 12.76 54.968 0.439 7.63 167.34 0.32
9/24/2022 10:00:00 AM 12.81 55.058 0.437 7.62 167.5 0.32
9/24/2022 10:15:00 AM 12.86 55.148 0.437 7.62 167.71 0.32
9/24/2022 10:30:00 AM 12.92 55.256 0.436 7.62 167.67 0.32
9/24/2022 10:45:00 AM 12.99 55.382 0.435 7.65 167.77 0.32
9/24/2022 11:00:00 AM 13.06 55.508 0.434 7.66 167.37 0.32
9/24/2022 11:15:00 AM 13.14 55.652 0.434 7.66 167.49 0.32
9/24/2022 11:30:00 AM 13.22 55.796 0.434 7.66 167.66 0.32
9/24/2022 11:45:00 AM 13.31 55.958 0.434 7.63 167.64 0.32
9/24/2022 12:00:00 PM 13.39 56.102 0.433 7.67 167.61 0.32
9/24/2022 12:15:00 PM 13.48 56.264 0.433 7.68 167.74 0.31
9/24/2022 12:30:00 PM 13.57 56.426 0.433 7.68 167.83 0.31
9/24/2022 12:45:00 PM 13.67 56.606 0.432 7.69 168.02 0.31
9/24/2022 1:00:00 PM 13.79 56.822 0.432 7.69 168.15 0.31
9/24/2022 1:15:00 PM 13.91 57.038 0.432 7.7 168.3 0.31
9/24/2022 1:30:00 PM 14.04 57.272 0.432 7.72 168.43 0.31
9/24/2022 1:45:00 PM 14.18 57.524 0.431 7.69 167.66 0.31
9/24/2022 2:00:00 PM 14.32 57.776 0.431 7.71 167.58 0.31
9/24/2022 2:15:00 PM 14.45 58.01 0.431 7.7 166.96 0.31
9/24/2022 2:30:00 PM 14.59 58.262 0.429 7.72 167.15 0.3
9/24/2022 2:45:00 PM 14.74 58.532 0.429 7.74 167.29 0.3
9/24/2022 3:00:00 PM 14.86 58.748 0.428 7.73 167.38 0.3
9/24/2022 3:15:00 PM 15 59 0.428 7.73 167.65 0.3
9/24/2022 3:30:00 PM 15.12 59.216 0.427 7.72 167.85 0.3
9/24/2022 3:45:00 PM 15.24 59.432 0.426 7.74 167.73 0.3
9/24/2022 4:00:00 PM 15.35 59.63 0.426 7.72 167.58 0.3
9/24/2022 4:15:00 PM 15.43 59.774 0.425 7.73 167.99 0.29
9/24/2022 4:30:00 PM 15.49 59.882 0.424 7.74 167.93 0.29
9/24/2022 4:45:00 PM 15.54 59.972 0.424 7.72 168.2 0.29
9/24/2022 5:00:00 PM 15.57 60.026 0.423 7.72 168.11 0.29
9/24/2022 5:15:00 PM 15.58 60.044 0.423 7.72 165.13 0.29
9/24/2022 5:30:00 PM 15.57 60.026 0.423 7.72 162.57 0.29
9/24/2022 5:45:00 PM 15.55 59.99 0.424 7.71 163.7 0.29
9/24/2022 6:00:00 PM 15.53 59.954 0.424 7.71 161.92 0.29
9/24/2022 6:15:00 PM 15.5 59.9 0.424 7.65 163.72 0.29
9/24/2022 6:30:00 PM 15.48 59.864 0.424 7.66 165.3 0.29
9/24/2022 6:45:00 PM 15.45 59.81 0.423 7.65 168.16 0.29
9/24/2022 7:00:00 PM 15.41 59.738 0.422 7.65 163.15 0.29
9/24/2022 7:15:00 PM 15.37 59.666 0.422 7.66 162.98 0.3
9/24/2022 7:30:00 PM 15.31 59.558 0.421 7.62 163.1 0.3
9/24/2022 7:45:00 PM 15.26 59.468 0.42 7.73 164.13 0.3
9/24/2022 8:00:00 PM 15.19 59.342 0.42 7.67 164.27 0.3
9/24/2022 8:15:00 PM 15.11 59.198 0.42 7.67 164.32 0.3
9/24/2022 8:30:00 PM 15.04 59.072 0.419 7.66 164.07 0.3
9/24/2022 8:45:00 PM 14.95 58.91 0.42 7.63 164.11 0.3
9/24/2022 9:00:00 PM 14.86 58.748 0.421 7.7 164.16 0.3
9/24/2022 9:15:00 PM 14.78 58.604 0.421 7.68 164.08 0.3
9/24/2022 9:30:00 PM 14.72 58.496 0.421 7.66 164.19 0.3
9/24/2022 9:45:00 PM 14.65 58.37 0.421 7.7 164.28 0.3
9/24/2022 10:00:00 PM 14.58 58.244 0.421 7.66 164.3 0.3
9/24/2022 10:15:00 PM 14.53 58.154 0.421 7.64 164.32 0.3
9/24/2022 10:30:00 PM 14.48 58.064 0.421 7.66 164.46 0.3
9/24/2022 10:45:00 PM 14.43 57.974 0.421 7.64 164.57 0.3
9/24/2022 11:00:00 PM 14.4 57.92 0.421 7.7 164.75 0.3
9/24/2022 11:15:00 PM 14.37 57.866 0.421 7.68 164.52 0.3
9/24/2022 11:30:00 PM 14.35 57.83 0.421 7.66 164.59 0.3
9/24/2022 11:45:00 PM 14.34 57.812 0.42 7.63 165.48 0.3
9/25/2022 12:00:00 AM 14.33 57.794 0.42 7.63 166.14 0.3
9/25/2022 12:15:00 AM 14.32 57.776 0.419 7.66 165.81 0.3
9/25/2022 12:30:00 AM 14.34 57.812 0.418 7.64 166.14 0.3
9/25/2022 12:45:00 AM 14.35 57.83 0.418 7.67 165.99 0.3
9/25/2022 1:00:00 AM 14.34 57.812 0.418 7.67 166.06 0.3
9/25/2022 1:15:00 AM 14.35 57.83 0.417 7.67 166.09 0.3
9/25/2022 1:30:00 AM 14.35 57.83 0.417 7.64 166.29 0.3
9/25/2022 1:45:00 AM 14.34 57.812 0.417 7.67 166.23 0.3
9/25/2022 2:00:00 AM 14.35 57.83 0.417 7.64 166.22 0.3
9/25/2022 2:15:00 AM 14.34 57.812 0.416 7.67 166.28 0.3
9/25/2022 2:30:00 AM 14.33 57.794 0.416 7.67 165.35 0.3
9/25/2022 2:45:00 AM 14.33 57.794 0.416 7.66 164.34 0.3
9/25/2022 3:00:00 AM 14.33 57.794 0.415 7.76 164.9 0.3
9/25/2022 3:15:00 AM 14.33 57.794 0.414 7.77 164.88 0.3
9/25/2022 3:30:00 AM 14.33 57.794 0.413 7.77 164.88 0.3
9/25/2022 3:45:00 AM 14.32 57.776 0.414 7.73 164.41 0.3
9/25/2022 4:00:00 AM 14.32 57.776 0.413 7.75 161.78 0.3
9/25/2022 4:15:00 AM 14.31 57.758 0.412 7.82 156.27 0.3
9/25/2022 4:30:00 AM 14.31 57.758 0.411 7.82 156.15 0.3
9/25/2022 4:45:00 AM 14.31 57.758 0.411 7.82 155.85 0.3
9/25/2022 5:00:00 AM 14.3 57.74 0.411 7.82 156.05 0.3
9/25/2022 5:15:00 AM 14.3 57.74 0.41 7.82 156.33 0.3
9/25/2022 5:30:00 AM 14.29 57.722 0.409 7.82 156.34 0.3
9/25/2022 5:45:00 AM 14.29 57.722 0.408 7.81 156.42 0.3
9/25/2022 6:00:00 AM 14.29 57.722 0.407 7.81 156.14 0.3
9/25/2022 6:15:00 AM 14.28 57.704 0.406 7.81 155.97 0.3
9/25/2022 6:30:00 AM 14.28 57.704 0.406 7.81 156.11 0.3
9/25/2022 6:45:00 AM 14.28 57.704 0.406 7.81 156.08 0.3
9/25/2022 7:00:00 AM 14.27 57.686 0.406 7.81 156.43 0.3
9/25/2022 7:15:00 AM 14.27 57.686 0.406 7.81 156.15 0.3
9/25/2022 7:30:00 AM 14.28 57.704 0.405 7.8 156.14 0.3
9/25/2022 7:45:00 AM 14.28 57.704 0.402 7.81 156.08 0.3
9/25/2022 8:00:00 AM 14.28 57.704 0.404 7.81 155.95 0.3
9/25/2022 8:15:00 AM 14.28 57.704 0.403 7.81 156.05 0.3
9/25/2022 8:30:00 AM 14.29 57.722 0.402 7.82 156.12 0.3
9/25/2022 8:45:00 AM 14.31 57.758 0.402 7.82 156.02 0.3
9/25/2022 9:00:00 AM 14.32 57.776 0.4 7.83 156.05 0.3
9/25/2022 9:15:00 AM 14.35 57.83 0.401 7.83 156.04 0.3
9/25/2022 9:30:00 AM 14.37 57.866 0.4 7.84 156.09 0.3
9/25/2022 9:45:00 AM 14.4 57.92 0.399 7.84 156.04 0.3
9/25/2022 10:00:00 AM 14.42 57.956 0.399 7.85 156 0.3
9/25/2022 10:15:00 AM 14.45 58.01 0.399 7.85 156.09 0.3
9/25/2022 10:30:00 AM 14.47 58.046 0.399 7.86 156.14 0.3
9/25/2022 10:45:00 AM 14.49 58.082 0.398 7.86 156.11 0.3
9/25/2022 11:00:00 AM 14.51 58.118 0.398 7.87 156.1 0.3
9/25/2022 11:15:00 AM 14.55 58.19 0.397 7.88 156.1 0.3
9/25/2022 11:30:00 AM 14.58 58.244 0.398 7.89 156.07 0.3
9/25/2022 11:45:00 AM 14.64 58.352 0.398 7.91 156.15 0.3
9/25/2022 12:00:00 PM 14.7 58.46 0.399 7.91 156.25 0.3
9/25/2022 12:15:00 PM 14.75 58.55 0.399 7.93 156.28 0.3
9/25/2022 12:30:00 PM 14.84 58.712 0.4 7.92 156.32 0.3
9/25/2022 12:45:00 PM 14.92 58.856 0.4 7.96 156.28 0.3
9/25/2022 1:00:00 PM 14.98 58.964 0.401 7.96 156.28 0.3
9/25/2022 1:15:00 PM 15.02 59.036 0.4 7.96 156.33 0.3
9/25/2022 1:30:00 PM 15.05 59.09 0.4 7.98 156.36 0.3
9/25/2022 1:45:00 PM 15.09 59.162 0.399 7.97 156.32 0.3
9/25/2022 2:00:00 PM 15.13 59.234 0.399 7.97 156.46 0.3
9/25/2022 2:15:00 PM 15.17 59.306 0.399 7.96 156.47 0.3
9/25/2022 2:30:00 PM 15.2 59.36 0.398 7.96 156.66 0.3
9/25/2022 2:45:00 PM 15.22 59.396 0.398 7.97 156.52 0.3
9/25/2022 3:00:00 PM 15.24 59.432 0.397 7.97 156.53 0.3
9/25/2022 3:15:00 PM 15.25 59.45 0.395 7.96 156.58 0.3
9/25/2022 3:30:00 PM 15.23 59.414 0.397 7.96 156.45 0.3
9/25/2022 3:45:00 PM 15.23 59.414 0.396 7.96 156.34 0.3
9/25/2022 4:00:00 PM 15.24 59.432 0.396 7.96 156.45 0.3
9/25/2022 4:15:00 PM 15.27 59.486 0.395 7.97 156.51 0.3
9/25/2022 4:30:00 PM 15.31 59.558 0.395 7.97 156.71 0.3
9/25/2022 4:45:00 PM 15.33 59.594 0.395 7.97 156.27 0.3
9/25/2022 5:00:00 PM 15.35 59.63 0.395 7.96 156.33 0.3
9/25/2022 5:15:00 PM 15.38 59.684 0.395 7.96 156.27 0.29
9/25/2022 5:30:00 PM 15.39 59.702 0.395 7.95 156.22 0.29
9/25/2022 5:45:00 PM 15.41 59.738 0.394 7.94 156.39 0.29
9/25/2022 6:00:00 PM 15.42 59.756 0.394 7.94 156.32 0.29
9/25/2022 6:15:00 PM 15.43 59.774 0.394 7.94 156.39 0.29
9/25/2022 6:30:00 PM 15.44 59.792 0.394 7.94 156.33 0.29
9/25/2022 6:45:00 PM 15.44 59.792 0.394 7.93 156.41 0.29
9/25/2022 7:00:00 PM 15.47 59.846 0.394 7.92 156.33 0.29
9/25/2022 7:15:00 PM 15.45 59.81 0.394 7.91 155.4 0.29
9/25/2022 7:30:00 PM 15.42 59.756 0.393 7.9 153.86 0.29
9/25/2022 7:45:00 PM 15.4 59.72 0.393 7.85 150.78 0.29
9/25/2022 8:00:00 PM 15.38 59.684 0.393 7.88 151.51 0.29
9/25/2022 8:15:00 PM 15.36 59.648 0.392 7.87 151.93 0.3
9/25/2022 8:30:00 PM 15.33 59.594 0.392 7.87 152.53 0.3
9/25/2022 8:45:00 PM 15.31 59.558 0.391 7.86 152.04 0.3
9/25/2022 9:00:00 PM 15.3 59.54 0.391 7.85 151.88 0.3
9/25/2022 9:15:00 PM 15.28 59.504 0.391 7.85 152.24 0.3
9/25/2022 9:30:00 PM 15.27 59.486 0.391 7.84 152.15 0.3
9/25/2022 9:45:00 PM 15.24 59.432 0.392 7.84 152.15 0.3
9/25/2022 10:00:00 PM 15.23 59.414 0.392 7.83 152.06 0.3
9/25/2022 10:15:00 PM 15.21 59.378 0.392 7.83 152.47 0.3
9/25/2022 10:30:00 PM 15.19 59.342 0.393 7.82 152.08 0.3
9/25/2022 10:45:00 PM 15.17 59.306 0.393 7.82 152.03 0.3
9/25/2022 11:00:00 PM 15.16 59.288 0.393 7.82 152.12 0.3
9/25/2022 11:15:00 PM 15.14 59.252 0.392 7.81 151.93 0.3
9/25/2022 11:30:00 PM 15.16 59.288 0.393 7.81 152.13 0.3
9/25/2022 11:45:00 PM 15.14 59.252 0.393 7.81 151.81 0.3
9/26/2022 12:00:00 AM 15.14 59.252 0.393 7.8 152.07 0.3
9/26/2022 12:15:00 AM 15.13 59.234 0.393 7.8 151.98 0.3
9/26/2022 12:30:00 AM 15.12 59.216 0.393 7.79 152.13 0.3
9/26/2022 12:45:00 AM 15.1 59.18 0.393 7.79 152.37 0.3
9/26/2022 1:00:00 AM 15.08 59.144 0.392 7.79 152.87 0.3
9/26/2022 1:15:00 AM 15.06 59.108 0.392 7.8 152.44 0.3
9/26/2022 1:30:00 AM 15.05 59.09 0.392 7.8 152.6 0.3
9/26/2022 1:45:00 AM 15.03 59.054 0.392 7.8 152.57 0.3
9/26/2022 2:00:00 AM 15.01 59.018 0.392 7.79 152.75 0.3
9/26/2022 2:15:00 AM 14.97 58.946 0.392 7.79 152.77 0.3
9/26/2022 2:30:00 AM 14.94 58.892 0.393 7.79 152.69 0.3
9/26/2022 2:45:00 AM 14.92 58.856 0.393 7.79 152.53 0.3
9/26/2022 3:00:00 AM 14.9 58.82 0.393 7.79 152.61 0.3
9/26/2022 3:15:00 AM 14.88 58.784 0.393 7.78 152.56 0.3
9/26/2022 3:30:00 AM 14.86 58.748 0.393 7.78 152.7 0.3
9/26/2022 3:45:00 AM 14.83 58.694 0.393 7.79 152.6 0.3
9/26/2022 4:00:00 AM 14.77 58.586 0.392 7.79 152.27 0.3
9/26/2022 4:15:00 AM 14.71 58.478 0.392 7.78 152.06 0.3
9/26/2022 4:30:00 AM 14.68 58.424 0.392 7.79 152.09 0.3
9/26/2022 4:45:00 AM 14.65 58.37 0.392 7.78 152.25 0.3
9/26/2022 5:00:00 AM 14.61 58.298 0.391 7.79 151.88 0.3
9/26/2022 5:15:00 AM 14.58 58.244 0.391 7.79 151.85 0.3
9/26/2022 5:30:00 AM 14.56 58.208 0.391 7.79 151.98 0.3
9/26/2022 5:45:00 AM 14.53 58.154 0.392 7.79 151.84 0.3
9/26/2022 6:00:00 AM 14.51 58.118 0.392 7.79 151.65 0.3
9/26/2022 6:15:00 AM 14.49 58.082 0.393 7.79 151.73 0.3
9/26/2022 6:30:00 AM 14.47 58.046 0.393 7.79 151.69 0.3
9/26/2022 6:45:00 AM 14.45 58.01 0.394 7.79 151.48 0.3
9/26/2022 7:00:00 AM 14.42 57.956 0.394 7.79 151.45 0.3
9/26/2022 7:15:00 AM 14.41 57.938 0.393 7.79 151.51 0.3
9/26/2022 7:30:00 AM 14.38 57.884 0.394 7.79 151.37 0.3
9/26/2022 7:45:00 AM 14.34 57.812 0.394 7.79 151.08 0.3
9/26/2022 8:00:00 AM 14.32 57.776 0.394 7.79 151.13 0.3
9/26/2022 8:15:00 AM 14.29 57.722 0.394 7.79 151.07 0.3
9/26/2022 8:30:00 AM 14.27 57.686 0.394 7.79 151 0.3
9/26/2022 8:45:00 AM 14.26 57.668 0.394 7.79 150.52 0.3
9/26/2022 9:00:00 AM 14.26 57.668 0.394 7.8 150.45 0.3
9/26/2022 9:15:00 AM 14.28 57.704 0.394 7.78 150.83 0.3
9/26/2022 9:30:00 AM 14.29 57.722 0.394 7.81 151.04 0.3
9/26/2022 9:45:00 AM 14.31 57.758 0.394 7.82 151.11 0.3
9/26/2022 10:00:00 AM 14.35 57.83 0.394 7.82 151.12 0.3
9/26/2022 10:15:00 AM 14.39 57.902 0.395 7.83 151.36 0.3
9/26/2022 10:30:00 AM 14.43 57.974 0.395 7.83 151.45 0.3
9/26/2022 10:45:00 AM 14.49 58.082 0.396 7.84 151.44 0.3
9/26/2022 11:00:00 AM 14.56 58.208 0.396 7.85 151.79 0.3
9/26/2022 11:15:00 AM 14.63 58.334 0.396 7.85 152.01 0.3
9/26/2022 11:30:00 AM 14.71 58.478 0.396 7.88 150.9 0.3
9/26/2022 11:45:00 AM 14.81 58.658 0.397 7.89 150.63 0.3
9/26/2022 12:00:00 PM 14.91 58.838 0.397 7.9 150.26 0.3
9/26/2022 12:15:00 PM 15.03 59.054 0.398 7.91 150.33 0.3
9/26/2022 12:30:00 PM 15.13 59.234 0.398 7.92 150.37 0.3
9/26/2022 12:45:00 PM 15.24 59.432 0.398 7.94 150.56 0.3
9/26/2022 1:00:00 PM 15.36 59.648 0.398 7.94 150.48 0.3
9/26/2022 1:15:00 PM 15.49 59.882 0.399 7.95 150.39 0.29
9/26/2022 1:30:00 PM 15.6 60.08 0.399 7.96 150.44 0.29
9/26/2022 1:45:00 PM 15.71 60.278 0.4 7.98 150.3 0.29
9/26/2022 2:00:00 PM 15.81 60.458 0.4 7.99 150.49 0.29
9/26/2022 2:15:00 PM 15.89 60.602 0.4 8.02 150.33 0.29
9/26/2022 2:30:00 PM 15.97 60.746 0.401 8.03 150.68 0.29
9/26/2022 2:45:00 PM 16.05 60.89 0.401 8.03 150.43 0.29
9/26/2022 3:00:00 PM 16.13 61.034 0.402 8.03 150.34 0.29
9/26/2022 3:15:00 PM 16.17 61.106 0.402 8.03 150.21 0.29
9/26/2022 3:30:00 PM 16.19 61.142 0.403 8.05 150.26 0.29
9/26/2022 3:45:00 PM 16.21 61.178 0.404 8.06 150.16 0.29
9/26/2022 4:00:00 PM 16.22 61.196 0.405 8.07 150.06 0.29
9/26/2022 4:15:00 PM 16.24 61.232 0.405 8.07 149.94 0.29
9/26/2022 4:30:00 PM 16.25 61.25 0.406 8.07 149.95 0.29
9/26/2022 4:45:00 PM 16.27 61.286 0.407 8.07 149.92 0.29
9/26/2022 5:00:00 PM 16.28 61.304 0.408 8.05 149.9 0.29
9/26/2022 5:15:00 PM 16.27 61.286 0.409 8.05 149.79 0.29
9/26/2022 5:30:00 PM 16.24 61.232 0.41 8.04 149.37 0.29
9/26/2022 5:45:00 PM 16.21 61.178 0.41 8.03 148.99 0.29
9/26/2022 6:00:00 PM 16.18 61.124 0.411 8.02 148.72 0.29
9/26/2022 6:15:00 PM 16.15 61.07 0.412 7.99 148.34 0.29
9/26/2022 6:30:00 PM 16.13 61.034 0.413 8 148.59 0.29
9/26/2022 6:45:00 PM 16.11 60.998 0.413 7.99 148.59 0.29
9/26/2022 7:00:00 PM 16.09 60.962 0.414 7.98 148.5 0.29
9/26/2022 7:15:00 PM 16.06 60.908 0.414 7.96 147.53 0.29
9/26/2022 7:30:00 PM 16.01 60.818 0.415 7.96 147.54 0.29
9/26/2022 7:45:00 PM 15.96 60.728 0.415 7.93 147.38 0.29
9/26/2022 8:00:00 PM 15.91 60.638 0.416 7.93 147.28 0.29
9/26/2022 8:15:00 PM 15.85 60.53 0.416 7.93 147.42 0.29
9/26/2022 8:30:00 PM 15.78 60.404 0.417 7.92 147.22 0.29
9/26/2022 8:45:00 PM 15.73 60.314 0.416 7.91 147.29 0.29
9/26/2022 9:00:00 PM 15.68 60.224 0.416 7.9 147.13 0.29
9/26/2022 9:15:00 PM 15.62 60.116 0.418 7.89 147.02 0.29
9/26/2022 9:30:00 PM 15.56 60.008 0.418 7.89 146.95 0.29
9/26/2022 9:45:00 PM 15.51 59.918 0.416 7.88 146.86 0.29
9/26/2022 10:00:00 PM 15.47 59.846 0.417 7.88 146.84 0.29
9/26/2022 10:15:00 PM 15.42 59.756 0.417 7.87 146.67 0.29
9/26/2022 10:30:00 PM 15.39 59.702 0.417 7.87 146.41 0.29
9/26/2022 10:45:00 PM 15.35 59.63 0.417 7.87 146.32 0.29
9/26/2022 11:00:00 PM 15.31 59.558 0.417 7.86 146.32 0.29
9/26/2022 11:15:00 PM 15.28 59.504 0.417 7.86 146.17 0.29
9/26/2022 11:30:00 PM 15.26 59.468 0.417 7.86 146.06 0.29
9/26/2022 11:45:00 PM 15.22 59.396 0.417 7.85 145.95 0.29
9/27/2022 12:00:00 AM 15.2 59.36 0.418 7.85 145.75 0.3
9/27/2022 12:15:00 AM 15.17 59.306 0.417 7.85 145.7 0.3
9/27/2022 12:30:00 AM 15.15 59.27 0.417 7.85 145.81 0.29
9/27/2022 12:45:00 AM 15.12 59.216 0.417 7.85 145.77 0.3
9/27/2022 1:00:00 AM 15.09 59.162 0.418 7.84 145.5 0.3
9/27/2022 1:15:00 AM 15.07 59.126 0.417 7.84 145.36 0.29
9/27/2022 1:30:00 AM 15.04 59.072 0.417 7.84 145.49 0.3
9/27/2022 1:45:00 AM 15.01 59.018 0.415 7.84 145.56 0.3
9/27/2022 2:00:00 AM 14.98 58.964 0.416 7.84 145.41 0.3
9/27/2022 2:15:00 AM 14.95 58.91 0.417 7.84 145.33 0.3
9/27/2022 2:30:00 AM 14.92 58.856 0.416 7.83 145.16 0.3
9/27/2022 2:45:00 AM 14.88 58.784 0.416 7.83 144.85 0.3
9/27/2022 3:00:00 AM 14.84 58.712 0.416 7.83 144.29 0.3
9/27/2022 3:15:00 AM 14.82 58.676 0.416 7.83 144.36 0.3
9/27/2022 3:30:00 AM 14.78 58.604 0.416 7.83 144.53 0.3
9/27/2022 3:45:00 AM 14.75 58.55 0.416 7.83 144.56 0.3
9/27/2022 4:00:00 AM 14.72 58.496 0.416 7.83 144.51 0.3
9/27/2022 4:15:00 AM 14.68 58.424 0.416 7.83 144.42 0.3
9/27/2022 4:30:00 AM 14.64 58.352 0.416 7.83 144.51 0.3
9/27/2022 4:45:00 AM 14.6 58.28 0.416 7.82 144.11 0.3
9/27/2022 5:00:00 AM 14.56 58.208 0.416 7.82 144.14 0.3
9/27/2022 5:15:00 AM 14.52 58.136 0.416 7.82 144.1 0.3
9/27/2022 5:30:00 AM 14.48 58.064 0.416 7.82 144.14 0.3
9/27/2022 5:45:00 AM 14.43 57.974 0.415 7.82 144.01 0.3
9/27/2022 6:00:00 AM 14.38 57.884 0.415 7.82 143.91 0.3
9/27/2022 6:15:00 AM 14.34 57.812 0.415 7.82 143.66 0.3
9/27/2022 6:30:00 AM 14.29 57.722 0.414 7.82 143.63 0.3
9/27/2022 6:45:00 AM 14.25 57.65 0.414 7.82 143.62 0.3
9/27/2022 7:00:00 AM 14.2 57.56 0.413 7.82 143.51 0.3
9/27/2022 7:15:00 AM 14.16 57.488 0.413 7.82 143.29 0.3
9/27/2022 7:30:00 AM 14.13 57.434 0.413 7.82 143.16 0.31
9/27/2022 7:45:00 AM 14.1 57.38 0.413 7.82 143.14 0.31
9/27/2022 8:00:00 AM 14.07 57.326 0.412 7.82 142.89 0.31
9/27/2022 8:15:00 AM 14.06 57.308 0.412 7.83 142.95 0.31
9/27/2022 8:30:00 AM 14.06 57.308 0.411 7.83 142.92 0.31
9/27/2022 8:45:00 AM 14.06 57.308 0.411 7.84 142.69 0.31
9/27/2022 9:00:00 AM 14.07 57.326 0.412 7.84 142.76 0.31
9/27/2022 9:15:00 AM 14.07 57.326 0.411 7.84 142.99 0.31
9/27/2022 9:30:00 AM 14.06 57.308 0.41 7.84 143.09 0.31
9/27/2022 9:45:00 AM 14.07 57.326 0.41 7.85 143.02 0.31
9/27/2022 10:00:00 AM 14.08 57.344 0.41 7.86 142.94 0.31
9/27/2022 10:15:00 AM 14.1 57.38 0.41 7.86 142.96 0.31
9/27/2022 10:30:00 AM 14.12 57.416 0.409 7.87 142.87 0.3
9/27/2022 10:45:00 AM 14.15 57.47 0.409 7.86 143.06 0.3
9/27/2022 11:00:00 AM 14.17 57.506 0.409 7.87 143.09 0.3
9/27/2022 11:15:00 AM 14.21 57.578 0.41 7.87 143.33 0.3
9/27/2022 11:30:00 AM 14.26 57.668 0.408 7.87 142.97 0.3
9/27/2022 11:45:00 AM 14.33 57.794 0.409 7.88 143.05 0.3
9/27/2022 12:00:00 PM 14.4 57.92 0.408 7.89 143.02 0.3
9/27/2022 12:15:00 PM 14.48 58.064 0.408 7.9 143.18 0.3
9/27/2022 12:30:00 PM 14.58 58.244 0.407 7.91 143.06 0.3
9/27/2022 12:45:00 PM 14.7 58.46 0.409 7.94 143.1 0.3
9/27/2022 1:00:00 PM 14.82 58.676 0.408 7.94 143.17 0.3
9/27/2022 1:15:00 PM 14.93 58.874 0.409 7.94 143.03 0.3
9/27/2022 1:30:00 PM 15.03 59.054 0.408 7.97 143.08 0.3
9/27/2022 1:45:00 PM 15.15 59.27 0.408 7.99 143.13 0.3
9/27/2022 2:00:00 PM 15.27 59.486 0.408 8 143.07 0.3
9/27/2022 2:15:00 PM 15.37 59.666 0.407 7.99 143.1 0.29
9/27/2022 2:30:00 PM 15.46 59.828 0.406 8.01 142.97 0.29
9/27/2022 2:45:00 PM 15.52 59.936 0.406 8.02 143.15 0.29
9/27/2022 3:00:00 PM 15.57 60.026 0.406 8.03 142.58 0.29
9/27/2022 3:15:00 PM 15.63 60.134 0.406 8.04 142.68 0.29
9/27/2022 3:30:00 PM 15.65 60.17 0.405 8.04 142.51 0.29
9/27/2022 3:45:00 PM 15.66 60.188 0.405 8.05 142.45 0.29
9/27/2022 4:00:00 PM 15.68 60.224 0.405 8.06 142.22 0.29
9/27/2022 4:15:00 PM 15.69 60.242 0.405 8.07 142.61 0.29
9/27/2022 4:30:00 PM 15.69 60.242 0.404 8.05 141.6 0.29
9/27/2022 4:45:00 PM 15.69 60.242 0.404 8.04 141.95 0.29
9/27/2022 5:00:00 PM 15.68 60.224 0.404 8.05 142.22 0.29
9/27/2022 5:15:00 PM 15.68 60.224 0.405 8.07 142.19 0.29
9/27/2022 5:30:00 PM 15.68 60.224 0.405 8.05 142.26 0.29
9/27/2022 5:45:00 PM 15.67 60.206 0.404 8.05 142.58 0.29
9/27/2022 6:00:00 PM 15.65 60.17 0.404 8.05 142.43 0.29
9/27/2022 6:15:00 PM 15.61 60.098 0.404 8.04 142.36 0.29
9/27/2022 6:30:00 PM 15.57 60.026 0.404 8.02 142.55 0.29
9/27/2022 6:45:00 PM 15.52 59.936 0.404 8.01 142.14 0.29
9/27/2022 7:00:00 PM 15.47 59.846 0.405 8 142.28 0.29
9/27/2022 7:15:00 PM 15.42 59.756 0.405 7.99 142.57 0.29
9/27/2022 7:30:00 PM 15.36 59.648 0.406 7.98 142.09 0.29
9/27/2022 7:45:00 PM 15.3 59.54 0.406 7.94 142.89 0.29
9/27/2022 8:00:00 PM 15.24 59.432 0.406 7.96 142.26 0.3
9/27/2022 8:15:00 PM 15.17 59.306 0.406 7.95 141.94 0.3
9/27/2022 8:30:00 PM 15.1 59.18 0.406 7.94 141.8 0.3
9/27/2022 8:45:00 PM 15.03 59.054 0.405 7.93 142.08 0.3
9/27/2022 9:00:00 PM 14.97 58.946 0.405 7.89 142.23 0.3
9/27/2022 9:15:00 PM 14.91 58.838 0.404 7.86 142.51 0.3
9/27/2022 9:30:00 PM 14.84 58.712 0.404 7.89 142.05 0.3
9/27/2022 9:45:00 PM 14.78 58.604 0.404 7.9 142.11 0.3
9/27/2022 10:00:00 PM 14.71 58.478 0.403 7.89 141.9 0.3
9/27/2022 10:15:00 PM 14.64 58.352 0.403 7.89 142 0.3
9/27/2022 10:30:00 PM 14.58 58.244 0.403 7.88 141.64 0.3
9/27/2022 10:45:00 PM 14.52 58.136 0.403 7.88 141.59 0.3
9/27/2022 11:00:00 PM 14.45 58.01 0.403 7.85 141.38 0.3
9/27/2022 11:15:00 PM 14.4 57.92 0.403 7.86 141.41 0.3
9/27/2022 11:30:00 PM 14.35 57.83 0.402 7.86 141.58 0.3
9/27/2022 11:45:00 PM 14.3 57.74 0.402 7.86 141.19 0.3
9/28/2022 12:00:00 AM 14.25 57.65 0.402 7.86 141.48 0.3
9/28/2022 12:15:00 AM 14.2 57.56 0.402 7.82 141.33 0.3
9/28/2022 12:30:00 AM 14.15 57.47 0.402 7.85 141 0.3
9/28/2022 12:45:00 AM 14.1 57.38 0.402 7.85 141.43 0.31
9/28/2022 1:00:00 AM 14.06 57.308 0.402 7.85 140.89 0.31
9/28/2022 1:15:00 AM 14 57.2 0.402 7.85 140.74 0.31
9/28/2022 1:30:00 AM 13.95 57.11 0.402 7.85 140.93 0.31
9/28/2022 1:45:00 AM 13.9 57.02 0.403 7.85 140.75 0.31
9/28/2022 2:00:00 AM 13.85 56.93 0.403 7.85 140.71 0.31
9/28/2022 2:15:00 AM 13.8 56.84 0.403 7.82 140.67 0.31
9/28/2022 2:30:00 AM 13.75 56.75 0.403 7.85 140.64 0.31
9/28/2022 2:45:00 AM 13.69 56.642 0.403 7.84 140.67 0.31
9/28/2022 3:00:00 AM 13.65 56.57 0.404 7.84 140.61 0.31
9/28/2022 3:15:00 AM 13.6 56.48 0.404 7.84 141.92 0.31
9/28/2022 3:30:00 AM 13.55 56.39 0.404 7.84 141.35 0.31
9/28/2022 3:45:00 AM 13.49 56.282 0.405 7.84 141.24 0.31
9/28/2022 4:00:00 AM 13.45 56.21 0.405 7.84 141.27 0.31
9/28/2022 4:15:00 AM 13.39 56.102 0.405 7.84 141.19 0.31
9/28/2022 4:30:00 AM 13.33 55.994 0.405 7.84 141.19 0.31
9/28/2022 4:45:00 AM 13.28 55.904 0.405 7.84 141.11 0.31
9/28/2022 5:00:00 AM 13.23 55.814 0.405 7.84 141.08 0.32
9/28/2022 5:15:00 AM 13.17 55.706 0.406 7.84 140.9 0.32
9/28/2022 5:30:00 AM 13.12 55.616 0.406 7.84 140.56 0.32
9/28/2022 5:45:00 AM 13.07 55.526 0.406 7.84 140.53 0.32
9/28/2022 6:00:00 AM 13.02 55.436 0.406 7.84 140.57 0.32
9/28/2022 6:15:00 AM 12.98 55.364 0.406 7.83 140.19 0.32
9/28/2022 6:30:00 AM 12.94 55.292 0.406 7.83 140.32 0.32
9/28/2022 6:45:00 AM 12.9 55.22 0.406 7.83 140.37 0.32
9/28/2022 7:00:00 AM 12.86 55.148 0.407 7.83 140.57 0.32
9/28/2022 7:15:00 AM 12.82 55.076 0.407 7.83 140.6 0.32
9/28/2022 7:30:00 AM 12.79 55.022 0.407 7.83 140.49 0.32
9/28/2022 7:45:00 AM 12.76 54.968 0.407 7.83 140.36 0.32
9/28/2022 8:00:00 AM 12.73 54.914 0.406 7.84 140.25 0.32
9/28/2022 8:15:00 AM 12.72 54.896 0.406 7.84 140.64 0.32
9/28/2022 8:30:00 AM 12.72 54.896 0.406 7.84 140.15 0.32
9/28/2022 8:45:00 AM 12.72 54.896 0.406 7.85 140.06 0.32
9/28/2022 9:00:00 AM 12.73 54.914 0.406 7.85 140.06 0.32
9/28/2022 9:15:00 AM 12.75 54.95 0.406 7.86 140.12 0.32
9/28/2022 9:30:00 AM 12.77 54.986 0.406 7.87 140.48 0.32
9/28/2022 9:45:00 AM 12.81 55.058 0.406 7.88 140.18 0.32
9/28/2022 10:00:00 AM 12.85 55.13 0.406 7.88 140.17 0.32
9/28/2022 10:15:00 AM 12.88 55.184 0.406 7.88 140.28 0.32
9/28/2022 10:30:00 AM 12.92 55.256 0.406 7.89 140.4 0.32
9/28/2022 10:45:00 AM 12.97 55.346 0.406 7.9 140.45 0.32
9/28/2022 11:00:00 AM 13.02 55.436 0.406 7.91 140.22 0.32
9/28/2022 11:15:00 AM 13.09 55.562 0.406 7.92 140.39 0.32
9/28/2022 11:30:00 AM 13.17 55.706 0.406 7.93 140.18 0.32
9/28/2022 11:45:00 AM 13.26 55.868 0.406 7.94 140.17 0.32
9/28/2022 12:00:00 PM 13.33 55.994 0.406 7.96 139.98 0.32
9/28/2022 12:15:00 PM 13.42 56.156 0.406 7.97 140.21 0.31
9/28/2022 12:30:00 PM 13.52 56.336 0.406 7.99 140.21 0.31
9/28/2022 12:45:00 PM 13.65 56.57 0.406 8 140.23 0.31
9/28/2022 1:00:00 PM 13.79 56.822 0.406 8.02 140.27 0.31
9/28/2022 1:15:00 PM 13.94 57.092 0.406 8.03 140.48 0.31
9/28/2022 1:30:00 PM 14.06 57.308 0.406 8.04 140.69 0.31
9/28/2022 1:45:00 PM 14.18 57.524 0.406 8.06 140.88 0.31
9/28/2022 2:00:00 PM 14.32 57.776 0.406 8.06 141.07 0.31
9/28/2022 2:15:00 PM 14.44 57.992 0.406 8.07 140.83 0.3
9/28/2022 2:30:00 PM 14.54 58.172 0.405 8.08 141.63 0.3
9/28/2022 2:45:00 PM 14.61 58.298 0.407 8.1 141.35 0.3
9/28/2022 3:00:00 PM 14.66 58.388 0.407 8.1 141.46 0.3
9/28/2022 3:15:00 PM 14.72 58.496 0.407 8.1 141.55 0.3
9/28/2022 3:30:00 PM 14.77 58.586 0.407 8.11 141.43 0.3
9/28/2022 3:45:00 PM 14.83 58.694 0.407 8.12 141.6 0.3
9/28/2022 4:00:00 PM 14.9 58.82 0.407 8.12 141.81 0.3
9/28/2022 4:15:00 PM 14.95 58.91 0.407 8.12 141.85 0.3
9/28/2022 4:30:00 PM 14.98 58.964 0.407 8.12 141.8 0.3
9/28/2022 4:45:00 PM 15 59 0.407 8.12 141.6 0.3
9/28/2022 5:00:00 PM 15.01 59.018 0.407 8.11 141.6 0.3
9/28/2022 5:15:00 PM 15 59 0.407 8.1 141.33 0.3
9/28/2022 5:30:00 PM 14.99 58.982 0.407 8.09 141.67 0.3
9/28/2022 5:45:00 PM 14.98 58.964 0.407 8.08 141.5 0.3
9/28/2022 6:00:00 PM 14.96 58.928 0.407 8.07 141.39 0.3
9/28/2022 6:15:00 PM 14.93 58.874 0.407 8.06 141.38 0.3
9/28/2022 6:30:00 PM 14.91 58.838 0.407 8.05 141.32 0.3
9/28/2022 6:45:00 PM 14.88 58.784 0.408 8.04 141.24 0.3
9/28/2022 7:00:00 PM 14.84 58.712 0.408 8.02 141.06 0.3
9/28/2022 7:15:00 PM 14.8 58.64 0.408 8.01 141.14 0.3
9/28/2022 7:30:00 PM 14.77 58.586 0.408 7.99 141.06 0.3
9/28/2022 7:45:00 PM 14.73 58.514 0.408 7.98 140.95 0.3
9/28/2022 8:00:00 PM 14.68 58.424 0.407 7.97 140.8 0.3
9/28/2022 8:15:00 PM 14.64 58.352 0.407 7.96 140.82 0.3
9/28/2022 8:30:00 PM 14.59 58.262 0.407 7.95 140.66 0.3
9/28/2022 8:45:00 PM 14.55 58.19 0.407 7.94 140.66 0.3
9/28/2022 9:00:00 PM 14.5 58.1 0.408 7.92 140.61 0.3
9/28/2022 9:15:00 PM 14.46 58.028 0.407 7.92 140.51 0.3
9/28/2022 9:30:00 PM 14.42 57.956 0.407 7.91 140.46 0.3
9/28/2022 9:45:00 PM 14.38 57.884 0.407 7.9 140.5 0.3
9/28/2022 10:00:00 PM 14.35 57.83 0.407 7.9 140.43 0.3
9/28/2022 10:15:00 PM 14.32 57.776 0.406 7.89 140.29 0.3
9/28/2022 10:30:00 PM 14.3 57.74 0.406 7.89 140.33 0.3
9/28/2022 10:45:00 PM 14.28 57.704 0.405 7.88 140.22 0.3
9/28/2022 11:00:00 PM 14.26 57.668 0.405 7.88 140.19 0.3
9/28/2022 11:15:00 PM 14.23 57.614 0.405 7.87 139.65 0.3
9/28/2022 11:30:00 PM 14.2 57.56 0.405 7.87 139.61 0.31
9/28/2022 11:45:00 PM 14.18 57.524 0.405 7.87 139.56 0.31
9/29/2022 12:00:00 AM 14.15 57.47 0.405 7.87 140.13 0.31
9/29/2022 12:15:00 AM 14.12 57.416 0.405 7.86 139.34 0.31
9/29/2022 12:30:00 AM 14.09 57.362 0.405 7.86 139.42 0.31
9/29/2022 12:45:00 AM 14.05 57.29 0.404 7.86 139.64 0.31
9/29/2022 1:00:00 AM 14.02 57.236 0.404 7.85 139.49 0.31
9/29/2022 1:15:00 AM 13.99 57.182 0.404 7.85 138.09 0.31
9/29/2022 1:30:00 AM 13.95 57.11 0.404 7.85 138.25 0.31
9/29/2022 1:45:00 AM 13.92 57.056 0.404 7.85 138.76 0.31
9/29/2022 2:00:00 AM 13.88 56.984 0.404 7.85 138.82 0.31
9/29/2022 2:15:00 AM 13.84 56.912 0.404 7.85 138.59 0.31
9/29/2022 2:30:00 AM 13.83 56.894 0.404 7.84 138.17 0.31
9/29/2022 2:45:00 AM 13.82 56.876 0.404 7.84 138.84 0.31
9/29/2022 3:00:00 AM 13.78 56.804 0.404 7.85 138.35 0.31
9/29/2022 3:15:00 AM 13.73 56.714 0.404 7.84 137.67 0.31
9/29/2022 3:30:00 AM 13.65 56.57 0.404 7.84 137.76 0.31
9/29/2022 3:45:00 AM 13.6 56.48 0.404 7.84 137.56 0.31
9/29/2022 4:00:00 AM 13.55 56.39 0.403 7.84 137.44 0.31
9/29/2022 4:15:00 AM 13.5 56.3 0.403 7.84 137.55 0.31
9/29/2022 4:30:00 AM 13.45 56.21 0.403 7.84 137.27 0.31
9/29/2022 4:45:00 AM 13.41 56.138 0.403 7.84 136.8 0.31
9/29/2022 5:00:00 AM 13.36 56.048 0.403 7.84 136.37 0.31
9/29/2022 5:15:00 AM 13.32 55.976 0.403 7.84 136.54 0.31
9/29/2022 5:30:00 AM 13.29 55.922 0.403 7.84 137.51 0.31
9/29/2022 5:45:00 AM 13.25 55.85 0.403 7.84 137.09 0.31
9/29/2022 6:00:00 AM 13.21 55.778 0.403 7.84 136.86 0.32
9/29/2022 6:15:00 AM 13.18 55.724 0.403 7.84 136.5 0.32
9/29/2022 6:30:00 AM 13.14 55.652 0.403 7.84 136.99 0.32
9/29/2022 6:45:00 AM 13.1 55.58 0.403 7.83 137.12 0.32
9/29/2022 7:00:00 AM 13.07 55.526 0.403 7.83 137.36 0.32
9/29/2022 7:15:00 AM 13.04 55.472 0.403 7.83 136.9 0.32
9/29/2022 7:30:00 AM 13 55.4 0.403 7.84 138.02 0.32
9/29/2022 7:45:00 AM